<?xml version="1.0" encoding="UTF-8" standalone="no" ?>
<gpx xmlns="http://www.topografix.com/GPX/1/1" xmlns:xsi="http://www.w3.org/2001/XMLSchema-instance" xsi:schemaLocation="http://www.topografix.com/GPX/1/1 http://www.topografix.com/GPX/1/1/gpx.xsd" version="1.1" creator="VisuGPX - https://www.visugpx.com">
  <metadata>
    <name>L'hôpital-Camfrout /Tibidy</name>
    <desc><![CDATA[Départ parking de l'église. Personnellement j'ai suivi le bord de mer, mais même à marée basse ce n'est pas agréable, au départ il vaut mieux suivre la route vers Poulligou. Le parcours n'est pas balisé, (dommage) bien que comportant un peu trop de route, il est agréable.]]></desc>
  </metadata>
  <trk>
    <name><![CDATA[L'Hopital-Camfrout/Tibidy 09 AOU 2016 14:30]]></name>
    <trkseg>
      <trkpt lat="48.3282" lon="-4.24246">
        <ele>3.02</ele>
        <time>2016-08-09T12:30:57Z</time>
      </trkpt>
      <trkpt lat="48.32825" lon="-4.24244">
        <ele>8.79</ele>
        <time>2016-08-09T12:31:31Z</time>
      </trkpt>
      <trkpt lat="48.32824" lon="-4.24246">
        <ele>9.75</ele>
        <time>2016-08-09T12:32:00Z</time>
      </trkpt>
      <trkpt lat="48.32822" lon="-4.24246">
        <ele>9.75</ele>
        <time>2016-08-09T12:32:20Z</time>
      </trkpt>
      <trkpt lat="48.3282" lon="-4.24246">
        <ele>8.79</ele>
        <time>2016-08-09T12:32:36Z</time>
      </trkpt>
      <trkpt lat="48.32809" lon="-4.2425">
        <ele>7.83</ele>
        <time>2016-08-09T12:32:49Z</time>
      </trkpt>
      <trkpt lat="48.32804" lon="-4.24247">
        <ele>7.35</ele>
        <time>2016-08-09T12:33:01Z</time>
      </trkpt>
      <trkpt lat="48.32804" lon="-4.24248">
        <ele>8.31</ele>
        <time>2016-08-09T12:33:14Z</time>
      </trkpt>
      <trkpt lat="48.32804" lon="-4.24249">
        <ele>8.79</ele>
        <time>2016-08-09T12:33:30Z</time>
      </trkpt>
      <trkpt lat="48.32802" lon="-4.24249">
        <ele>9.27</ele>
        <time>2016-08-09T12:33:40Z</time>
      </trkpt>
      <trkpt lat="48.32797" lon="-4.24238">
        <ele>2.54</ele>
        <time>2016-08-09T12:33:50Z</time>
      </trkpt>
      <trkpt lat="48.32797" lon="-4.24237">
        <ele>2.06</ele>
        <time>2016-08-09T12:33:51Z</time>
      </trkpt>
      <trkpt lat="48.32798" lon="-4.2423">
        <ele>0.14</ele>
        <time>2016-08-09T12:33:56Z</time>
      </trkpt>
      <trkpt lat="48.32804" lon="-4.24224">
        <ele>-2.75</ele>
        <time>2016-08-09T12:34:12Z</time>
      </trkpt>
      <trkpt lat="48.32797" lon="-4.24221">
        <ele>-1.79</ele>
        <time>2016-08-09T12:34:57Z</time>
      </trkpt>
      <trkpt lat="48.32797" lon="-4.24234">
        <ele>6.87</ele>
        <time>2016-08-09T12:35:11Z</time>
      </trkpt>
      <trkpt lat="48.32797" lon="-4.2424">
        <ele>5.91</ele>
        <time>2016-08-09T12:35:16Z</time>
      </trkpt>
      <trkpt lat="48.32798" lon="-4.24252">
        <ele>3.98</ele>
        <time>2016-08-09T12:35:29Z</time>
      </trkpt>
      <trkpt lat="48.32799" lon="-4.2426">
        <ele>4.94</ele>
        <time>2016-08-09T12:35:36Z</time>
      </trkpt>
      <trkpt lat="48.32797" lon="-4.24272">
        <ele>4.46</ele>
        <time>2016-08-09T12:35:45Z</time>
      </trkpt>
      <trkpt lat="48.32795" lon="-4.24277">
        <ele>4.46</ele>
        <time>2016-08-09T12:35:48Z</time>
      </trkpt>
      <trkpt lat="48.32794" lon="-4.24292">
        <ele>4.46</ele>
        <time>2016-08-09T12:35:59Z</time>
      </trkpt>
      <trkpt lat="48.32792" lon="-4.24297">
        <ele>4.94</ele>
        <time>2016-08-09T12:36:02Z</time>
      </trkpt>
      <trkpt lat="48.32787" lon="-4.24304">
        <ele>4.94</ele>
        <time>2016-08-09T12:36:08Z</time>
      </trkpt>
      <trkpt lat="48.32779" lon="-4.2432">
        <ele>3.02</ele>
        <time>2016-08-09T12:36:20Z</time>
      </trkpt>
      <trkpt lat="48.32773" lon="-4.24337">
        <ele>0.62</ele>
        <time>2016-08-09T12:36:32Z</time>
      </trkpt>
      <trkpt lat="48.32772" lon="-4.24341">
        <ele>0.14</ele>
        <time>2016-08-09T12:36:35Z</time>
      </trkpt>
      <trkpt lat="48.32768" lon="-4.24358">
        <ele>3.02</ele>
        <time>2016-08-09T12:36:45Z</time>
      </trkpt>
      <trkpt lat="48.3276" lon="-4.24383">
        <ele>1.58</ele>
        <time>2016-08-09T12:37:01Z</time>
      </trkpt>
      <trkpt lat="48.32756" lon="-4.24398">
        <ele>2.06</ele>
        <time>2016-08-09T12:37:11Z</time>
      </trkpt>
      <trkpt lat="48.32752" lon="-4.24421">
        <ele>2.54</ele>
        <time>2016-08-09T12:37:25Z</time>
      </trkpt>
      <trkpt lat="48.3275" lon="-4.24429">
        <ele>2.54</ele>
        <time>2016-08-09T12:37:30Z</time>
      </trkpt>
      <trkpt lat="48.32746" lon="-4.24443">
        <ele>3.02</ele>
        <time>2016-08-09T12:37:38Z</time>
      </trkpt>
      <trkpt lat="48.32741" lon="-4.24457">
        <ele>3.98</ele>
        <time>2016-08-09T12:37:47Z</time>
      </trkpt>
      <trkpt lat="48.32739" lon="-4.24462">
        <ele>3.98</ele>
        <time>2016-08-09T12:37:50Z</time>
      </trkpt>
      <trkpt lat="48.3273" lon="-4.2448">
        <ele>3.98</ele>
        <time>2016-08-09T12:38:03Z</time>
      </trkpt>
      <trkpt lat="48.32726" lon="-4.24491">
        <ele>4.46</ele>
        <time>2016-08-09T12:38:10Z</time>
      </trkpt>
      <trkpt lat="48.32721" lon="-4.24503">
        <ele>6.39</ele>
        <time>2016-08-09T12:38:18Z</time>
      </trkpt>
      <trkpt lat="48.32714" lon="-4.24522">
        <ele>4.94</ele>
        <time>2016-08-09T12:38:31Z</time>
      </trkpt>
      <trkpt lat="48.32712" lon="-4.24529">
        <ele>5.91</ele>
        <time>2016-08-09T12:38:35Z</time>
      </trkpt>
      <trkpt lat="48.32704" lon="-4.24544">
        <ele>5.91</ele>
        <time>2016-08-09T12:38:47Z</time>
      </trkpt>
      <trkpt lat="48.32702" lon="-4.24549">
        <ele>6.39</ele>
        <time>2016-08-09T12:38:50Z</time>
      </trkpt>
      <trkpt lat="48.32696" lon="-4.24564">
        <ele>7.35</ele>
        <time>2016-08-09T12:39:01Z</time>
      </trkpt>
      <trkpt lat="48.32683" lon="-4.24588">
        <ele>4.94</ele>
        <time>2016-08-09T12:39:18Z</time>
      </trkpt>
      <trkpt lat="48.32676" lon="-4.24607">
        <ele>1.58</ele>
        <time>2016-08-09T12:39:32Z</time>
      </trkpt>
      <trkpt lat="48.32671" lon="-4.24618">
        <ele>0.14</ele>
        <time>2016-08-09T12:39:41Z</time>
      </trkpt>
      <trkpt lat="48.32667" lon="-4.24631">
        <ele>0.14</ele>
        <time>2016-08-09T12:39:48Z</time>
      </trkpt>
      <trkpt lat="48.32665" lon="-4.24642">
        <ele>0.62</ele>
        <time>2016-08-09T12:39:55Z</time>
      </trkpt>
      <trkpt lat="48.32663" lon="-4.2465">
        <ele>0.14</ele>
        <time>2016-08-09T12:40:02Z</time>
      </trkpt>
      <trkpt lat="48.32661" lon="-4.2466">
        <ele>0.14</ele>
        <time>2016-08-09T12:40:08Z</time>
      </trkpt>
      <trkpt lat="48.32659" lon="-4.24663">
        <ele>-0.34</ele>
        <time>2016-08-09T12:40:12Z</time>
      </trkpt>
      <trkpt lat="48.32652" lon="-4.24675">
        <ele>0.14</ele>
        <time>2016-08-09T12:40:22Z</time>
      </trkpt>
      <trkpt lat="48.32652" lon="-4.24679">
        <ele>1.1</ele>
        <time>2016-08-09T12:40:24Z</time>
      </trkpt>
      <trkpt lat="48.32651" lon="-4.24695">
        <ele>2.54</ele>
        <time>2016-08-09T12:40:35Z</time>
      </trkpt>
      <trkpt lat="48.3265" lon="-4.24698">
        <ele>3.02</ele>
        <time>2016-08-09T12:40:44Z</time>
      </trkpt>
      <trkpt lat="48.32649" lon="-4.24703">
        <ele>3.98</ele>
        <time>2016-08-09T12:40:51Z</time>
      </trkpt>
      <trkpt lat="48.32649" lon="-4.24709">
        <ele>3.98</ele>
        <time>2016-08-09T12:40:59Z</time>
      </trkpt>
      <trkpt lat="48.32643" lon="-4.24727">
        <ele>3.5</ele>
        <time>2016-08-09T12:41:12Z</time>
      </trkpt>
      <trkpt lat="48.32644" lon="-4.24737">
        <ele>4.46</ele>
        <time>2016-08-09T12:41:26Z</time>
      </trkpt>
      <trkpt lat="48.32643" lon="-4.24738">
        <ele>4.94</ele>
        <time>2016-08-09T12:41:45Z</time>
      </trkpt>
      <trkpt lat="48.32643" lon="-4.24738">
        <ele>5.42</ele>
        <time>2016-08-09T12:42:00Z</time>
      </trkpt>
      <trkpt lat="48.32643" lon="-4.24739">
        <ele>5.42</ele>
        <time>2016-08-09T12:42:25Z</time>
      </trkpt>
      <trkpt lat="48.32643" lon="-4.24739">
        <ele>5.42</ele>
        <time>2016-08-09T12:42:26Z</time>
      </trkpt>
      <trkpt lat="48.32642" lon="-4.24741">
        <ele>4.94</ele>
        <time>2016-08-09T12:42:28Z</time>
      </trkpt>
      <trkpt lat="48.32639" lon="-4.24754">
        <ele>5.91</ele>
        <time>2016-08-09T12:42:39Z</time>
      </trkpt>
      <trkpt lat="48.32638" lon="-4.24765">
        <ele>6.39</ele>
        <time>2016-08-09T12:42:50Z</time>
      </trkpt>
      <trkpt lat="48.32639" lon="-4.24778">
        <ele>6.39</ele>
        <time>2016-08-09T12:43:02Z</time>
      </trkpt>
      <trkpt lat="48.32639" lon="-4.24781">
        <ele>6.39</ele>
        <time>2016-08-09T12:43:04Z</time>
      </trkpt>
      <trkpt lat="48.32632" lon="-4.24802">
        <ele>4.46</ele>
        <time>2016-08-09T12:43:19Z</time>
      </trkpt>
      <trkpt lat="48.32631" lon="-4.24805">
        <ele>4.46</ele>
        <time>2016-08-09T12:43:22Z</time>
      </trkpt>
      <trkpt lat="48.32623" lon="-4.24822">
        <ele>5.91</ele>
        <time>2016-08-09T12:43:37Z</time>
      </trkpt>
      <trkpt lat="48.3262" lon="-4.24826">
        <ele>5.42</ele>
        <time>2016-08-09T12:43:42Z</time>
      </trkpt>
      <trkpt lat="48.32616" lon="-4.24836">
        <ele>5.42</ele>
        <time>2016-08-09T12:43:55Z</time>
      </trkpt>
      <trkpt lat="48.3261" lon="-4.24848">
        <ele>4.46</ele>
        <time>2016-08-09T12:44:07Z</time>
      </trkpt>
      <trkpt lat="48.32601" lon="-4.24863">
        <ele>5.42</ele>
        <time>2016-08-09T12:44:20Z</time>
      </trkpt>
      <trkpt lat="48.32591" lon="-4.24872">
        <ele>5.91</ele>
        <time>2016-08-09T12:44:34Z</time>
      </trkpt>
      <trkpt lat="48.32583" lon="-4.24883">
        <ele>6.39</ele>
        <time>2016-08-09T12:44:47Z</time>
      </trkpt>
      <trkpt lat="48.32581" lon="-4.24887">
        <ele>5.91</ele>
        <time>2016-08-09T12:44:50Z</time>
      </trkpt>
      <trkpt lat="48.32577" lon="-4.249">
        <ele>6.39</ele>
        <time>2016-08-09T12:45:03Z</time>
      </trkpt>
      <trkpt lat="48.32576" lon="-4.24904">
        <ele>6.87</ele>
        <time>2016-08-09T12:45:21Z</time>
      </trkpt>
      <trkpt lat="48.32576" lon="-4.24904">
        <ele>6.87</ele>
        <time>2016-08-09T12:45:34Z</time>
      </trkpt>
      <trkpt lat="48.32575" lon="-4.24906">
        <ele>6.87</ele>
        <time>2016-08-09T12:45:49Z</time>
      </trkpt>
      <trkpt lat="48.3257" lon="-4.24915">
        <ele>7.35</ele>
        <time>2016-08-09T12:46:00Z</time>
      </trkpt>
      <trkpt lat="48.32567" lon="-4.2492">
        <ele>7.35</ele>
        <time>2016-08-09T12:46:14Z</time>
      </trkpt>
      <trkpt lat="48.32566" lon="-4.24921">
        <ele>7.83</ele>
        <time>2016-08-09T12:46:21Z</time>
      </trkpt>
      <trkpt lat="48.32559" lon="-4.24927">
        <ele>8.31</ele>
        <time>2016-08-09T12:46:34Z</time>
      </trkpt>
      <trkpt lat="48.32554" lon="-4.24933">
        <ele>7.35</ele>
        <time>2016-08-09T12:46:41Z</time>
      </trkpt>
      <trkpt lat="48.32551" lon="-4.24942">
        <ele>6.39</ele>
        <time>2016-08-09T12:46:49Z</time>
      </trkpt>
      <trkpt lat="48.32541" lon="-4.24954">
        <ele>4.94</ele>
        <time>2016-08-09T12:47:03Z</time>
      </trkpt>
      <trkpt lat="48.32533" lon="-4.24958">
        <ele>5.42</ele>
        <time>2016-08-09T12:47:15Z</time>
      </trkpt>
      <trkpt lat="48.32526" lon="-4.24965">
        <ele>4.46</ele>
        <time>2016-08-09T12:47:27Z</time>
      </trkpt>
      <trkpt lat="48.32527" lon="-4.2496">
        <ele>4.46</ele>
        <time>2016-08-09T12:47:37Z</time>
      </trkpt>
      <trkpt lat="48.32527" lon="-4.2496">
        <ele>3.98</ele>
        <time>2016-08-09T12:47:50Z</time>
      </trkpt>
      <trkpt lat="48.32527" lon="-4.24963">
        <ele>4.46</ele>
        <time>2016-08-09T12:48:00Z</time>
      </trkpt>
      <trkpt lat="48.32525" lon="-4.2497">
        <ele>3.98</ele>
        <time>2016-08-09T12:48:11Z</time>
      </trkpt>
      <trkpt lat="48.32525" lon="-4.2497">
        <ele>3.98</ele>
        <time>2016-08-09T12:48:28Z</time>
      </trkpt>
      <trkpt lat="48.32525" lon="-4.24974">
        <ele>3.5</ele>
        <time>2016-08-09T12:48:47Z</time>
      </trkpt>
      <trkpt lat="48.32525" lon="-4.24974">
        <ele>3.98</ele>
        <time>2016-08-09T12:49:04Z</time>
      </trkpt>
      <trkpt lat="48.32525" lon="-4.24977">
        <ele>3.5</ele>
        <time>2016-08-09T12:49:18Z</time>
      </trkpt>
      <trkpt lat="48.32523" lon="-4.24976">
        <ele>3.5</ele>
        <time>2016-08-09T12:49:23Z</time>
      </trkpt>
      <trkpt lat="48.32514" lon="-4.2498">
        <ele>3.5</ele>
        <time>2016-08-09T12:49:35Z</time>
      </trkpt>
      <trkpt lat="48.3251" lon="-4.24983">
        <ele>4.46</ele>
        <time>2016-08-09T12:49:49Z</time>
      </trkpt>
      <trkpt lat="48.3251" lon="-4.24983">
        <ele>4.46</ele>
        <time>2016-08-09T12:50:02Z</time>
      </trkpt>
      <trkpt lat="48.3251" lon="-4.24984">
        <ele>3.98</ele>
        <time>2016-08-09T12:50:17Z</time>
      </trkpt>
      <trkpt lat="48.3251" lon="-4.24984">
        <ele>3.98</ele>
        <time>2016-08-09T12:50:34Z</time>
      </trkpt>
      <trkpt lat="48.32509" lon="-4.24985">
        <ele>3.98</ele>
        <time>2016-08-09T12:50:52Z</time>
      </trkpt>
      <trkpt lat="48.32505" lon="-4.24989">
        <ele>4.46</ele>
        <time>2016-08-09T12:50:59Z</time>
      </trkpt>
      <trkpt lat="48.325" lon="-4.24992">
        <ele>4.46</ele>
        <time>2016-08-09T12:51:12Z</time>
      </trkpt>
      <trkpt lat="48.32498" lon="-4.24997">
        <ele>4.94</ele>
        <time>2016-08-09T12:51:23Z</time>
      </trkpt>
      <trkpt lat="48.32498" lon="-4.24997">
        <ele>4.46</ele>
        <time>2016-08-09T12:51:27Z</time>
      </trkpt>
      <trkpt lat="48.32492" lon="-4.25008">
        <ele>2.54</ele>
        <time>2016-08-09T12:51:37Z</time>
      </trkpt>
      <trkpt lat="48.32489" lon="-4.2501">
        <ele>2.54</ele>
        <time>2016-08-09T12:51:41Z</time>
      </trkpt>
      <trkpt lat="48.32487" lon="-4.25019">
        <ele>2.06</ele>
        <time>2016-08-09T12:51:52Z</time>
      </trkpt>
      <trkpt lat="48.32486" lon="-4.25025">
        <ele>2.54</ele>
        <time>2016-08-09T12:51:58Z</time>
      </trkpt>
      <trkpt lat="48.32478" lon="-4.25034">
        <ele>2.54</ele>
        <time>2016-08-09T12:52:11Z</time>
      </trkpt>
      <trkpt lat="48.32473" lon="-4.25039">
        <ele>1.58</ele>
        <time>2016-08-09T12:52:22Z</time>
      </trkpt>
      <trkpt lat="48.32469" lon="-4.25039">
        <ele>1.58</ele>
        <time>2016-08-09T12:52:33Z</time>
      </trkpt>
      <trkpt lat="48.3247" lon="-4.2504">
        <ele>1.58</ele>
        <time>2016-08-09T12:52:44Z</time>
      </trkpt>
      <trkpt lat="48.32468" lon="-4.25034">
        <ele>1.58</ele>
        <time>2016-08-09T12:52:55Z</time>
      </trkpt>
      <trkpt lat="48.32467" lon="-4.25031">
        <ele>2.06</ele>
        <time>2016-08-09T12:53:08Z</time>
      </trkpt>
      <trkpt lat="48.32464" lon="-4.25024">
        <ele>2.54</ele>
        <time>2016-08-09T12:53:20Z</time>
      </trkpt>
      <trkpt lat="48.32464" lon="-4.25023">
        <ele>3.02</ele>
        <time>2016-08-09T12:53:30Z</time>
      </trkpt>
      <trkpt lat="48.32465" lon="-4.25021">
        <ele>3.02</ele>
        <time>2016-08-09T12:53:39Z</time>
      </trkpt>
      <trkpt lat="48.32464" lon="-4.25018">
        <ele>2.54</ele>
        <time>2016-08-09T12:53:49Z</time>
      </trkpt>
      <trkpt lat="48.32465" lon="-4.25024">
        <ele>3.5</ele>
        <time>2016-08-09T12:54:01Z</time>
      </trkpt>
      <trkpt lat="48.32467" lon="-4.25031">
        <ele>3.5</ele>
        <time>2016-08-09T12:54:14Z</time>
      </trkpt>
      <trkpt lat="48.3247" lon="-4.25035">
        <ele>3.5</ele>
        <time>2016-08-09T12:54:26Z</time>
      </trkpt>
      <trkpt lat="48.32473" lon="-4.2504">
        <ele>3.5</ele>
        <time>2016-08-09T12:54:33Z</time>
      </trkpt>
      <trkpt lat="48.32478" lon="-4.25043">
        <ele>3.5</ele>
        <time>2016-08-09T12:54:41Z</time>
      </trkpt>
      <trkpt lat="48.32479" lon="-4.25043">
        <ele>2.54</ele>
        <time>2016-08-09T12:54:52Z</time>
      </trkpt>
      <trkpt lat="48.32481" lon="-4.25044">
        <ele>3.5</ele>
        <time>2016-08-09T12:55:17Z</time>
      </trkpt>
      <trkpt lat="48.32481" lon="-4.25044">
        <ele>3.5</ele>
        <time>2016-08-09T12:55:29Z</time>
      </trkpt>
      <trkpt lat="48.32484" lon="-4.25045">
        <ele>3.98</ele>
        <time>2016-08-09T12:55:41Z</time>
      </trkpt>
      <trkpt lat="48.32488" lon="-4.25047">
        <ele>3.98</ele>
        <time>2016-08-09T12:55:52Z</time>
      </trkpt>
      <trkpt lat="48.32493" lon="-4.25049">
        <ele>3.5</ele>
        <time>2016-08-09T12:56:01Z</time>
      </trkpt>
      <trkpt lat="48.32497" lon="-4.2505">
        <ele>3.5</ele>
        <time>2016-08-09T12:56:09Z</time>
      </trkpt>
      <trkpt lat="48.32498" lon="-4.2505">
        <ele>3.02</ele>
        <time>2016-08-09T12:56:19Z</time>
      </trkpt>
      <trkpt lat="48.32498" lon="-4.2505">
        <ele>3.5</ele>
        <time>2016-08-09T12:56:31Z</time>
      </trkpt>
      <trkpt lat="48.32498" lon="-4.2505">
        <ele>3.02</ele>
        <time>2016-08-09T12:56:47Z</time>
      </trkpt>
      <trkpt lat="48.32499" lon="-4.25049">
        <ele>1.58</ele>
        <time>2016-08-09T12:56:53Z</time>
      </trkpt>
      <trkpt lat="48.32503" lon="-4.25049">
        <ele>0.62</ele>
        <time>2016-08-09T12:57:03Z</time>
      </trkpt>
      <trkpt lat="48.32501" lon="-4.25055">
        <ele>0.62</ele>
        <time>2016-08-09T12:57:13Z</time>
      </trkpt>
      <trkpt lat="48.325" lon="-4.25056">
        <ele>0.62</ele>
        <time>2016-08-09T12:57:14Z</time>
      </trkpt>
      <trkpt lat="48.32494" lon="-4.25062">
        <ele>2.06</ele>
        <time>2016-08-09T12:57:24Z</time>
      </trkpt>
      <trkpt lat="48.32488" lon="-4.25066">
        <ele>2.06</ele>
        <time>2016-08-09T12:57:32Z</time>
      </trkpt>
      <trkpt lat="48.32481" lon="-4.25078">
        <ele>3.5</ele>
        <time>2016-08-09T12:57:42Z</time>
      </trkpt>
      <trkpt lat="48.32475" lon="-4.25081">
        <ele>3.98</ele>
        <time>2016-08-09T12:57:53Z</time>
      </trkpt>
      <trkpt lat="48.32474" lon="-4.25081">
        <ele>3.98</ele>
        <time>2016-08-09T12:57:54Z</time>
      </trkpt>
      <trkpt lat="48.32472" lon="-4.25084">
        <ele>3.98</ele>
        <time>2016-08-09T12:57:58Z</time>
      </trkpt>
      <trkpt lat="48.3247" lon="-4.25085">
        <ele>3.5</ele>
        <time>2016-08-09T12:58:00Z</time>
      </trkpt>
      <trkpt lat="48.32465" lon="-4.25088">
        <ele>2.54</ele>
        <time>2016-08-09T12:58:07Z</time>
      </trkpt>
      <trkpt lat="48.3246" lon="-4.25089">
        <ele>3.02</ele>
        <time>2016-08-09T12:58:15Z</time>
      </trkpt>
      <trkpt lat="48.32455" lon="-4.25089">
        <ele>3.02</ele>
        <time>2016-08-09T12:58:21Z</time>
      </trkpt>
      <trkpt lat="48.3245" lon="-4.25091">
        <ele>5.42</ele>
        <time>2016-08-09T12:58:31Z</time>
      </trkpt>
      <trkpt lat="48.32446" lon="-4.2509">
        <ele>6.87</ele>
        <time>2016-08-09T12:58:37Z</time>
      </trkpt>
      <trkpt lat="48.32443" lon="-4.25093">
        <ele>7.35</ele>
        <time>2016-08-09T12:58:41Z</time>
      </trkpt>
      <trkpt lat="48.32439" lon="-4.25093">
        <ele>8.31</ele>
        <time>2016-08-09T12:58:46Z</time>
      </trkpt>
      <trkpt lat="48.32435" lon="-4.25095">
        <ele>8.31</ele>
        <time>2016-08-09T12:58:51Z</time>
      </trkpt>
      <trkpt lat="48.32428" lon="-4.25099">
        <ele>5.91</ele>
        <time>2016-08-09T12:59:02Z</time>
      </trkpt>
      <trkpt lat="48.32425" lon="-4.25105">
        <ele>6.39</ele>
        <time>2016-08-09T12:59:08Z</time>
      </trkpt>
      <trkpt lat="48.32423" lon="-4.25106">
        <ele>6.39</ele>
        <time>2016-08-09T12:59:10Z</time>
      </trkpt>
      <trkpt lat="48.32422" lon="-4.25107">
        <ele>5.91</ele>
        <time>2016-08-09T12:59:12Z</time>
      </trkpt>
      <trkpt lat="48.32412" lon="-4.25109">
        <ele>4.94</ele>
        <time>2016-08-09T12:59:24Z</time>
      </trkpt>
      <trkpt lat="48.32407" lon="-4.25109">
        <ele>4.94</ele>
        <time>2016-08-09T12:59:30Z</time>
      </trkpt>
      <trkpt lat="48.32403" lon="-4.25111">
        <ele>4.46</ele>
        <time>2016-08-09T12:59:35Z</time>
      </trkpt>
      <trkpt lat="48.32398" lon="-4.25113">
        <ele>3.5</ele>
        <time>2016-08-09T12:59:40Z</time>
      </trkpt>
      <trkpt lat="48.32392" lon="-4.25115">
        <ele>3.02</ele>
        <time>2016-08-09T12:59:48Z</time>
      </trkpt>
      <trkpt lat="48.32386" lon="-4.25116">
        <ele>3.5</ele>
        <time>2016-08-09T12:59:57Z</time>
      </trkpt>
      <trkpt lat="48.32381" lon="-4.25118">
        <ele>4.94</ele>
        <time>2016-08-09T13:00:10Z</time>
      </trkpt>
      <trkpt lat="48.32379" lon="-4.25119">
        <ele>4.94</ele>
        <time>2016-08-09T13:00:12Z</time>
      </trkpt>
      <trkpt lat="48.32374" lon="-4.25126">
        <ele>4.46</ele>
        <time>2016-08-09T13:00:18Z</time>
      </trkpt>
      <trkpt lat="48.32371" lon="-4.2513">
        <ele>4.94</ele>
        <time>2016-08-09T13:00:32Z</time>
      </trkpt>
      <trkpt lat="48.32371" lon="-4.2513">
        <ele>5.42</ele>
        <time>2016-08-09T13:00:59Z</time>
      </trkpt>
      <trkpt lat="48.32368" lon="-4.25134">
        <ele>5.91</ele>
        <time>2016-08-09T13:01:07Z</time>
      </trkpt>
      <trkpt lat="48.32364" lon="-4.25138">
        <ele>6.39</ele>
        <time>2016-08-09T13:01:12Z</time>
      </trkpt>
      <trkpt lat="48.3236" lon="-4.25142">
        <ele>6.87</ele>
        <time>2016-08-09T13:01:17Z</time>
      </trkpt>
      <trkpt lat="48.32357" lon="-4.25145">
        <ele>6.39</ele>
        <time>2016-08-09T13:01:22Z</time>
      </trkpt>
      <trkpt lat="48.32351" lon="-4.2515">
        <ele>5.91</ele>
        <time>2016-08-09T13:01:27Z</time>
      </trkpt>
      <trkpt lat="48.32349" lon="-4.25153">
        <ele>5.91</ele>
        <time>2016-08-09T13:01:30Z</time>
      </trkpt>
      <trkpt lat="48.32343" lon="-4.25156">
        <ele>5.91</ele>
        <time>2016-08-09T13:01:37Z</time>
      </trkpt>
      <trkpt lat="48.32341" lon="-4.25159">
        <ele>5.91</ele>
        <time>2016-08-09T13:01:39Z</time>
      </trkpt>
      <trkpt lat="48.32336" lon="-4.25166">
        <ele>6.39</ele>
        <time>2016-08-09T13:01:50Z</time>
      </trkpt>
      <trkpt lat="48.3233" lon="-4.25177">
        <ele>7.35</ele>
        <time>2016-08-09T13:02:00Z</time>
      </trkpt>
      <trkpt lat="48.32324" lon="-4.25192">
        <ele>7.83</ele>
        <time>2016-08-09T13:02:11Z</time>
      </trkpt>
      <trkpt lat="48.32324" lon="-4.25196">
        <ele>6.87</ele>
        <time>2016-08-09T13:02:13Z</time>
      </trkpt>
      <trkpt lat="48.32316" lon="-4.25212">
        <ele>4.46</ele>
        <time>2016-08-09T13:02:26Z</time>
      </trkpt>
      <trkpt lat="48.32315" lon="-4.25214">
        <ele>4.94</ele>
        <time>2016-08-09T13:02:28Z</time>
      </trkpt>
      <trkpt lat="48.32313" lon="-4.25219">
        <ele>4.46</ele>
        <time>2016-08-09T13:02:32Z</time>
      </trkpt>
      <trkpt lat="48.32311" lon="-4.25226">
        <ele>3.98</ele>
        <time>2016-08-09T13:02:45Z</time>
      </trkpt>
      <trkpt lat="48.32307" lon="-4.25223">
        <ele>4.46</ele>
        <time>2016-08-09T13:02:59Z</time>
      </trkpt>
      <trkpt lat="48.32306" lon="-4.25223">
        <ele>4.46</ele>
        <time>2016-08-09T13:03:16Z</time>
      </trkpt>
      <trkpt lat="48.32311" lon="-4.25219">
        <ele>3.98</ele>
        <time>2016-08-09T13:03:26Z</time>
      </trkpt>
      <trkpt lat="48.3231" lon="-4.25234">
        <ele>4.94</ele>
        <time>2016-08-09T13:03:38Z</time>
      </trkpt>
      <trkpt lat="48.32307" lon="-4.2525">
        <ele>6.87</ele>
        <time>2016-08-09T13:03:49Z</time>
      </trkpt>
      <trkpt lat="48.32307" lon="-4.25252">
        <ele>6.87</ele>
        <time>2016-08-09T13:03:51Z</time>
      </trkpt>
      <trkpt lat="48.32305" lon="-4.25263">
        <ele>5.91</ele>
        <time>2016-08-09T13:03:58Z</time>
      </trkpt>
      <trkpt lat="48.32302" lon="-4.25285">
        <ele>2.06</ele>
        <time>2016-08-09T13:04:14Z</time>
      </trkpt>
      <trkpt lat="48.323" lon="-4.25303">
        <ele>-0.34</ele>
        <time>2016-08-09T13:04:27Z</time>
      </trkpt>
      <trkpt lat="48.323" lon="-4.25318">
        <ele>0.14</ele>
        <time>2016-08-09T13:04:37Z</time>
      </trkpt>
      <trkpt lat="48.32297" lon="-4.25339">
        <ele>0.62</ele>
        <time>2016-08-09T13:04:51Z</time>
      </trkpt>
      <trkpt lat="48.32297" lon="-4.25345">
        <ele>1.1</ele>
        <time>2016-08-09T13:04:55Z</time>
      </trkpt>
      <trkpt lat="48.32296" lon="-4.2535">
        <ele>1.1</ele>
        <time>2016-08-09T13:04:59Z</time>
      </trkpt>
      <trkpt lat="48.32295" lon="-4.25358">
        <ele>1.58</ele>
        <time>2016-08-09T13:05:05Z</time>
      </trkpt>
      <trkpt lat="48.32295" lon="-4.25375">
        <ele>1.1</ele>
        <time>2016-08-09T13:05:18Z</time>
      </trkpt>
      <trkpt lat="48.32289" lon="-4.2539">
        <ele>0.62</ele>
        <time>2016-08-09T13:05:29Z</time>
      </trkpt>
      <trkpt lat="48.32287" lon="-4.25397">
        <ele>1.1</ele>
        <time>2016-08-09T13:05:35Z</time>
      </trkpt>
      <trkpt lat="48.32285" lon="-4.25404">
        <ele>1.58</ele>
        <time>2016-08-09T13:05:43Z</time>
      </trkpt>
      <trkpt lat="48.32281" lon="-4.25416">
        <ele>2.54</ele>
        <time>2016-08-09T13:05:52Z</time>
      </trkpt>
      <trkpt lat="48.32271" lon="-4.25433">
        <ele>2.54</ele>
        <time>2016-08-09T13:06:08Z</time>
      </trkpt>
      <trkpt lat="48.32259" lon="-4.25443">
        <ele>1.58</ele>
        <time>2016-08-09T13:06:22Z</time>
      </trkpt>
      <trkpt lat="48.32253" lon="-4.25439">
        <ele>1.1</ele>
        <time>2016-08-09T13:06:29Z</time>
      </trkpt>
      <trkpt lat="48.32248" lon="-4.25429">
        <ele>1.58</ele>
        <time>2016-08-09T13:06:42Z</time>
      </trkpt>
      <trkpt lat="48.32248" lon="-4.25424">
        <ele>3.5</ele>
        <time>2016-08-09T13:06:54Z</time>
      </trkpt>
      <trkpt lat="48.32248" lon="-4.25431">
        <ele>3.5</ele>
        <time>2016-08-09T13:07:06Z</time>
      </trkpt>
      <trkpt lat="48.32249" lon="-4.2543">
        <ele>3.98</ele>
        <time>2016-08-09T13:07:21Z</time>
      </trkpt>
      <trkpt lat="48.32249" lon="-4.25429">
        <ele>4.46</ele>
        <time>2016-08-09T13:07:43Z</time>
      </trkpt>
      <trkpt lat="48.32249" lon="-4.25429">
        <ele>5.91</ele>
        <time>2016-08-09T13:08:04Z</time>
      </trkpt>
      <trkpt lat="48.3225" lon="-4.2543">
        <ele>6.87</ele>
        <time>2016-08-09T13:08:23Z</time>
      </trkpt>
      <trkpt lat="48.32246" lon="-4.25419">
        <ele>6.87</ele>
        <time>2016-08-09T13:08:36Z</time>
      </trkpt>
      <trkpt lat="48.3224" lon="-4.25406">
        <ele>9.27</ele>
        <time>2016-08-09T13:08:50Z</time>
      </trkpt>
      <trkpt lat="48.32237" lon="-4.25402">
        <ele>9.75</ele>
        <time>2016-08-09T13:08:53Z</time>
      </trkpt>
      <trkpt lat="48.32231" lon="-4.25387">
        <ele>11.19</ele>
        <time>2016-08-09T13:09:03Z</time>
      </trkpt>
      <trkpt lat="48.32231" lon="-4.25384">
        <ele>11.19</ele>
        <time>2016-08-09T13:09:05Z</time>
      </trkpt>
      <trkpt lat="48.32233" lon="-4.25371">
        <ele>11.19</ele>
        <time>2016-08-09T13:09:15Z</time>
      </trkpt>
      <trkpt lat="48.32231" lon="-4.25371">
        <ele>10.71</ele>
        <time>2016-08-09T13:09:17Z</time>
      </trkpt>
      <trkpt lat="48.32225" lon="-4.25371">
        <ele>9.27</ele>
        <time>2016-08-09T13:09:30Z</time>
      </trkpt>
      <trkpt lat="48.32219" lon="-4.25372">
        <ele>8.79</ele>
        <time>2016-08-09T13:09:40Z</time>
      </trkpt>
      <trkpt lat="48.32218" lon="-4.25372">
        <ele>9.27</ele>
        <time>2016-08-09T13:09:45Z</time>
      </trkpt>
      <trkpt lat="48.32213" lon="-4.2537">
        <ele>10.23</ele>
        <time>2016-08-09T13:09:50Z</time>
      </trkpt>
      <trkpt lat="48.32197" lon="-4.25361">
        <ele>11.19</ele>
        <time>2016-08-09T13:10:05Z</time>
      </trkpt>
      <trkpt lat="48.32196" lon="-4.25359">
        <ele>11.67</ele>
        <time>2016-08-09T13:10:07Z</time>
      </trkpt>
      <trkpt lat="48.32191" lon="-4.25355">
        <ele>11.67</ele>
        <time>2016-08-09T13:10:12Z</time>
      </trkpt>
      <trkpt lat="48.32187" lon="-4.25352">
        <ele>11.67</ele>
        <time>2016-08-09T13:10:16Z</time>
      </trkpt>
      <trkpt lat="48.32184" lon="-4.25349">
        <ele>12.15</ele>
        <time>2016-08-09T13:10:19Z</time>
      </trkpt>
      <trkpt lat="48.32077" lon="-4.25289">
        <ele>-2.75</ele>
        <time>2016-08-09T13:12:13Z</time>
      </trkpt>
      <trkpt lat="48.32087" lon="-4.25275">
        <ele>2.06</ele>
        <time>2016-08-09T13:12:29Z</time>
      </trkpt>
      <trkpt lat="48.32086" lon="-4.25275">
        <ele>3.02</ele>
        <time>2016-08-09T13:12:30Z</time>
      </trkpt>
      <trkpt lat="48.32081" lon="-4.25278">
        <ele>3.98</ele>
        <time>2016-08-09T13:12:37Z</time>
      </trkpt>
      <trkpt lat="48.32077" lon="-4.25279">
        <ele>5.42</ele>
        <time>2016-08-09T13:12:41Z</time>
      </trkpt>
      <trkpt lat="48.32066" lon="-4.25283">
        <ele>10.71</ele>
        <time>2016-08-09T13:12:56Z</time>
      </trkpt>
      <trkpt lat="48.32065" lon="-4.25283">
        <ele>10.71</ele>
        <time>2016-08-09T13:12:58Z</time>
      </trkpt>
      <trkpt lat="48.32051" lon="-4.25288">
        <ele>13.12</ele>
        <time>2016-08-09T13:13:11Z</time>
      </trkpt>
      <trkpt lat="48.3205" lon="-4.25289">
        <ele>13.6</ele>
        <time>2016-08-09T13:13:13Z</time>
      </trkpt>
      <trkpt lat="48.32048" lon="-4.25289">
        <ele>14.08</ele>
        <time>2016-08-09T13:13:15Z</time>
      </trkpt>
      <trkpt lat="48.32036" lon="-4.25295">
        <ele>16</ele>
        <time>2016-08-09T13:13:27Z</time>
      </trkpt>
      <trkpt lat="48.32032" lon="-4.25297">
        <ele>15.52</ele>
        <time>2016-08-09T13:13:39Z</time>
      </trkpt>
      <trkpt lat="48.32024" lon="-4.25306">
        <ele>14.08</ele>
        <time>2016-08-09T13:13:51Z</time>
      </trkpt>
      <trkpt lat="48.32014" lon="-4.25319">
        <ele>13.12</ele>
        <time>2016-08-09T13:14:03Z</time>
      </trkpt>
      <trkpt lat="48.32002" lon="-4.25329">
        <ele>14.56</ele>
        <time>2016-08-09T13:14:16Z</time>
      </trkpt>
      <trkpt lat="48.32" lon="-4.25332">
        <ele>15.04</ele>
        <time>2016-08-09T13:14:19Z</time>
      </trkpt>
      <trkpt lat="48.31991" lon="-4.25346">
        <ele>15.04</ele>
        <time>2016-08-09T13:14:30Z</time>
      </trkpt>
      <trkpt lat="48.31985" lon="-4.25356">
        <ele>15.52</ele>
        <time>2016-08-09T13:14:38Z</time>
      </trkpt>
      <trkpt lat="48.31982" lon="-4.25362">
        <ele>16.96</ele>
        <time>2016-08-09T13:14:43Z</time>
      </trkpt>
      <trkpt lat="48.31975" lon="-4.25375">
        <ele>21.29</ele>
        <time>2016-08-09T13:14:56Z</time>
      </trkpt>
      <trkpt lat="48.31974" lon="-4.25375">
        <ele>21.77</ele>
        <time>2016-08-09T13:14:57Z</time>
      </trkpt>
      <trkpt lat="48.31965" lon="-4.25384">
        <ele>26.09</ele>
        <time>2016-08-09T13:15:09Z</time>
      </trkpt>
      <trkpt lat="48.31957" lon="-4.25394">
        <ele>29.94</ele>
        <time>2016-08-09T13:15:21Z</time>
      </trkpt>
      <trkpt lat="48.31957" lon="-4.25394">
        <ele>29.94</ele>
        <time>2016-08-09T13:15:22Z</time>
      </trkpt>
      <trkpt lat="48.31949" lon="-4.25405">
        <ele>31.86</ele>
        <time>2016-08-09T13:15:32Z</time>
      </trkpt>
      <trkpt lat="48.31939" lon="-4.25414">
        <ele>35.71</ele>
        <time>2016-08-09T13:15:43Z</time>
      </trkpt>
      <trkpt lat="48.31931" lon="-4.25425">
        <ele>37.15</ele>
        <time>2016-08-09T13:15:54Z</time>
      </trkpt>
      <trkpt lat="48.31925" lon="-4.25435">
        <ele>35.71</ele>
        <time>2016-08-09T13:16:06Z</time>
      </trkpt>
      <trkpt lat="48.31924" lon="-4.25437">
        <ele>36.67</ele>
        <time>2016-08-09T13:16:24Z</time>
      </trkpt>
      <trkpt lat="48.31918" lon="-4.25455">
        <ele>37.63</ele>
        <time>2016-08-09T13:16:36Z</time>
      </trkpt>
      <trkpt lat="48.31914" lon="-4.25463">
        <ele>37.15</ele>
        <time>2016-08-09T13:16:42Z</time>
      </trkpt>
      <trkpt lat="48.31908" lon="-4.25479">
        <ele>38.59</ele>
        <time>2016-08-09T13:16:54Z</time>
      </trkpt>
      <trkpt lat="48.31905" lon="-4.25489">
        <ele>38.11</ele>
        <time>2016-08-09T13:17:05Z</time>
      </trkpt>
      <trkpt lat="48.31901" lon="-4.25507">
        <ele>40.03</ele>
        <time>2016-08-09T13:17:21Z</time>
      </trkpt>
      <trkpt lat="48.31897" lon="-4.25525">
        <ele>42.92</ele>
        <time>2016-08-09T13:17:34Z</time>
      </trkpt>
      <trkpt lat="48.31895" lon="-4.25547">
        <ele>43.88</ele>
        <time>2016-08-09T13:17:48Z</time>
      </trkpt>
      <trkpt lat="48.31894" lon="-4.25551">
        <ele>43.88</ele>
        <time>2016-08-09T13:17:50Z</time>
      </trkpt>
      <trkpt lat="48.31889" lon="-4.25577">
        <ele>40.99</ele>
        <time>2016-08-09T13:18:05Z</time>
      </trkpt>
      <trkpt lat="48.31887" lon="-4.25588">
        <ele>40.03</ele>
        <time>2016-08-09T13:18:17Z</time>
      </trkpt>
      <trkpt lat="48.31883" lon="-4.25612">
        <ele>40.51</ele>
        <time>2016-08-09T13:18:29Z</time>
      </trkpt>
      <trkpt lat="48.31884" lon="-4.25615">
        <ele>40.51</ele>
        <time>2016-08-09T13:18:40Z</time>
      </trkpt>
      <trkpt lat="48.31882" lon="-4.25617">
        <ele>40.51</ele>
        <time>2016-08-09T13:18:52Z</time>
      </trkpt>
      <trkpt lat="48.3188" lon="-4.2563">
        <ele>41.95</ele>
        <time>2016-08-09T13:19:06Z</time>
      </trkpt>
      <trkpt lat="48.31879" lon="-4.25645">
        <ele>42.44</ele>
        <time>2016-08-09T13:19:18Z</time>
      </trkpt>
      <trkpt lat="48.31874" lon="-4.25663">
        <ele>41.95</ele>
        <time>2016-08-09T13:19:31Z</time>
      </trkpt>
      <trkpt lat="48.31874" lon="-4.25665">
        <ele>40.99</ele>
        <time>2016-08-09T13:19:45Z</time>
      </trkpt>
      <trkpt lat="48.31869" lon="-4.25677">
        <ele>40.51</ele>
        <time>2016-08-09T13:19:58Z</time>
      </trkpt>
      <trkpt lat="48.31868" lon="-4.2568">
        <ele>40.99</ele>
        <time>2016-08-09T13:20:00Z</time>
      </trkpt>
      <trkpt lat="48.31863" lon="-4.25691">
        <ele>42.92</ele>
        <time>2016-08-09T13:20:12Z</time>
      </trkpt>
      <trkpt lat="48.3186" lon="-4.25695">
        <ele>43.4</ele>
        <time>2016-08-09T13:20:17Z</time>
      </trkpt>
      <trkpt lat="48.31858" lon="-4.257">
        <ele>44.36</ele>
        <time>2016-08-09T13:20:21Z</time>
      </trkpt>
      <trkpt lat="48.31853" lon="-4.25709">
        <ele>43.88</ele>
        <time>2016-08-09T13:20:28Z</time>
      </trkpt>
      <trkpt lat="48.31847" lon="-4.25719">
        <ele>43.4</ele>
        <time>2016-08-09T13:20:42Z</time>
      </trkpt>
      <trkpt lat="48.31841" lon="-4.25731">
        <ele>43.88</ele>
        <time>2016-08-09T13:20:53Z</time>
      </trkpt>
      <trkpt lat="48.3184" lon="-4.25731">
        <ele>44.36</ele>
        <time>2016-08-09T13:20:58Z</time>
      </trkpt>
      <trkpt lat="48.31839" lon="-4.25731">
        <ele>44.84</ele>
        <time>2016-08-09T13:21:00Z</time>
      </trkpt>
      <trkpt lat="48.31837" lon="-4.25735">
        <ele>45.8</ele>
        <time>2016-08-09T13:21:04Z</time>
      </trkpt>
      <trkpt lat="48.31829" lon="-4.25752">
        <ele>48.2</ele>
        <time>2016-08-09T13:21:16Z</time>
      </trkpt>
      <trkpt lat="48.31825" lon="-4.25759">
        <ele>50.61</ele>
        <time>2016-08-09T13:21:22Z</time>
      </trkpt>
      <trkpt lat="48.31823" lon="-4.25765">
        <ele>52.05</ele>
        <time>2016-08-09T13:21:26Z</time>
      </trkpt>
      <trkpt lat="48.31818" lon="-4.25776">
        <ele>52.05</ele>
        <time>2016-08-09T13:21:37Z</time>
      </trkpt>
      <trkpt lat="48.31813" lon="-4.25785">
        <ele>52.05</ele>
        <time>2016-08-09T13:21:47Z</time>
      </trkpt>
      <trkpt lat="48.31807" lon="-4.25795">
        <ele>53.01</ele>
        <time>2016-08-09T13:21:57Z</time>
      </trkpt>
      <trkpt lat="48.318" lon="-4.25815">
        <ele>53.01</ele>
        <time>2016-08-09T13:22:10Z</time>
      </trkpt>
      <trkpt lat="48.31796" lon="-4.25825">
        <ele>52.05</ele>
        <time>2016-08-09T13:22:17Z</time>
      </trkpt>
      <trkpt lat="48.31786" lon="-4.25849">
        <ele>55.89</ele>
        <time>2016-08-09T13:22:33Z</time>
      </trkpt>
      <trkpt lat="48.31783" lon="-4.25854">
        <ele>56.86</ele>
        <time>2016-08-09T13:22:36Z</time>
      </trkpt>
      <trkpt lat="48.31777" lon="-4.25872">
        <ele>56.37</ele>
        <time>2016-08-09T13:22:48Z</time>
      </trkpt>
      <trkpt lat="48.31774" lon="-4.25888">
        <ele>56.37</ele>
        <time>2016-08-09T13:22:58Z</time>
      </trkpt>
      <trkpt lat="48.31771" lon="-4.25906">
        <ele>56.37</ele>
        <time>2016-08-09T13:23:10Z</time>
      </trkpt>
      <trkpt lat="48.31766" lon="-4.2593">
        <ele>53.49</ele>
        <time>2016-08-09T13:23:25Z</time>
      </trkpt>
      <trkpt lat="48.31764" lon="-4.25938">
        <ele>53.97</ele>
        <time>2016-08-09T13:23:31Z</time>
      </trkpt>
      <trkpt lat="48.31754" lon="-4.25948">
        <ele>55.89</ele>
        <time>2016-08-09T13:23:43Z</time>
      </trkpt>
      <trkpt lat="48.31739" lon="-4.25959">
        <ele>55.89</ele>
        <time>2016-08-09T13:23:55Z</time>
      </trkpt>
      <trkpt lat="48.31723" lon="-4.2597">
        <ele>53.97</ele>
        <time>2016-08-09T13:24:08Z</time>
      </trkpt>
      <trkpt lat="48.31718" lon="-4.25974">
        <ele>52.53</ele>
        <time>2016-08-09T13:24:19Z</time>
      </trkpt>
      <trkpt lat="48.31706" lon="-4.25988">
        <ele>52.05</ele>
        <time>2016-08-09T13:24:33Z</time>
      </trkpt>
      <trkpt lat="48.31694" lon="-4.26003">
        <ele>52.53</ele>
        <time>2016-08-09T13:24:46Z</time>
      </trkpt>
      <trkpt lat="48.31682" lon="-4.26016">
        <ele>54.45</ele>
        <time>2016-08-09T13:24:59Z</time>
      </trkpt>
      <trkpt lat="48.31669" lon="-4.2602">
        <ele>57.82</ele>
        <time>2016-08-09T13:25:10Z</time>
      </trkpt>
      <trkpt lat="48.3166" lon="-4.26022">
        <ele>59.74</ele>
        <time>2016-08-09T13:25:18Z</time>
      </trkpt>
      <trkpt lat="48.31658" lon="-4.26023">
        <ele>60.22</ele>
        <time>2016-08-09T13:25:20Z</time>
      </trkpt>
      <trkpt lat="48.31653" lon="-4.26025">
        <ele>60.7</ele>
        <time>2016-08-09T13:25:24Z</time>
      </trkpt>
      <trkpt lat="48.31641" lon="-4.26033">
        <ele>60.7</ele>
        <time>2016-08-09T13:25:35Z</time>
      </trkpt>
      <trkpt lat="48.31635" lon="-4.26038">
        <ele>60.22</ele>
        <time>2016-08-09T13:25:42Z</time>
      </trkpt>
      <trkpt lat="48.31632" lon="-4.26043">
        <ele>61.18</ele>
        <time>2016-08-09T13:25:45Z</time>
      </trkpt>
      <trkpt lat="48.31623" lon="-4.26053">
        <ele>63.58</ele>
        <time>2016-08-09T13:25:55Z</time>
      </trkpt>
      <trkpt lat="48.31621" lon="-4.26057">
        <ele>63.58</ele>
        <time>2016-08-09T13:25:58Z</time>
      </trkpt>
      <trkpt lat="48.31617" lon="-4.2606">
        <ele>64.07</ele>
        <time>2016-08-09T13:26:02Z</time>
      </trkpt>
      <trkpt lat="48.31604" lon="-4.2607">
        <ele>61.66</ele>
        <time>2016-08-09T13:26:16Z</time>
      </trkpt>
      <trkpt lat="48.316" lon="-4.26073">
        <ele>60.7</ele>
        <time>2016-08-09T13:26:20Z</time>
      </trkpt>
      <trkpt lat="48.31593" lon="-4.26075">
        <ele>60.22</ele>
        <time>2016-08-09T13:26:26Z</time>
      </trkpt>
      <trkpt lat="48.3157" lon="-4.26075">
        <ele>56.37</ele>
        <time>2016-08-09T13:26:42Z</time>
      </trkpt>
      <trkpt lat="48.31562" lon="-4.26073">
        <ele>55.41</ele>
        <time>2016-08-09T13:26:49Z</time>
      </trkpt>
      <trkpt lat="48.31553" lon="-4.26072">
        <ele>55.89</ele>
        <time>2016-08-09T13:27:01Z</time>
      </trkpt>
      <trkpt lat="48.3155" lon="-4.26072">
        <ele>55.41</ele>
        <time>2016-08-09T13:27:17Z</time>
      </trkpt>
      <trkpt lat="48.3155" lon="-4.26072">
        <ele>55.41</ele>
        <time>2016-08-09T13:27:32Z</time>
      </trkpt>
      <trkpt lat="48.3155" lon="-4.26073">
        <ele>55.41</ele>
        <time>2016-08-09T13:27:49Z</time>
      </trkpt>
      <trkpt lat="48.3155" lon="-4.26073">
        <ele>55.89</ele>
        <time>2016-08-09T13:28:07Z</time>
      </trkpt>
      <trkpt lat="48.3155" lon="-4.26073">
        <ele>55.89</ele>
        <time>2016-08-09T13:28:36Z</time>
      </trkpt>
      <trkpt lat="48.3155" lon="-4.26076">
        <ele>55.89</ele>
        <time>2016-08-09T13:28:59Z</time>
      </trkpt>
      <trkpt lat="48.3155" lon="-4.26075">
        <ele>56.37</ele>
        <time>2016-08-09T13:29:25Z</time>
      </trkpt>
      <trkpt lat="48.31551" lon="-4.26073">
        <ele>55.89</ele>
        <time>2016-08-09T13:29:39Z</time>
      </trkpt>
      <trkpt lat="48.3155" lon="-4.26072">
        <ele>55.89</ele>
        <time>2016-08-09T13:30:03Z</time>
      </trkpt>
      <trkpt lat="48.3155" lon="-4.26072">
        <ele>54.93</ele>
        <time>2016-08-09T13:30:24Z</time>
      </trkpt>
      <trkpt lat="48.3155" lon="-4.26071">
        <ele>54.93</ele>
        <time>2016-08-09T13:30:42Z</time>
      </trkpt>
      <trkpt lat="48.31543" lon="-4.26071">
        <ele>54.45</ele>
        <time>2016-08-09T13:30:56Z</time>
      </trkpt>
      <trkpt lat="48.3154" lon="-4.26073">
        <ele>54.45</ele>
        <time>2016-08-09T13:30:59Z</time>
      </trkpt>
      <trkpt lat="48.31534" lon="-4.26075">
        <ele>53.97</ele>
        <time>2016-08-09T13:31:04Z</time>
      </trkpt>
      <trkpt lat="48.31525" lon="-4.26081">
        <ele>53.49</ele>
        <time>2016-08-09T13:31:17Z</time>
      </trkpt>
      <trkpt lat="48.31522" lon="-4.26085">
        <ele>53.49</ele>
        <time>2016-08-09T13:31:21Z</time>
      </trkpt>
      <trkpt lat="48.3151" lon="-4.26102">
        <ele>52.05</ele>
        <time>2016-08-09T13:31:35Z</time>
      </trkpt>
      <trkpt lat="48.31508" lon="-4.26107">
        <ele>51.09</ele>
        <time>2016-08-09T13:31:38Z</time>
      </trkpt>
      <trkpt lat="48.315" lon="-4.26117">
        <ele>51.09</ele>
        <time>2016-08-09T13:31:48Z</time>
      </trkpt>
      <trkpt lat="48.31499" lon="-4.26122">
        <ele>51.09</ele>
        <time>2016-08-09T13:31:51Z</time>
      </trkpt>
      <trkpt lat="48.31489" lon="-4.26141">
        <ele>55.41</ele>
        <time>2016-08-09T13:32:06Z</time>
      </trkpt>
      <trkpt lat="48.31488" lon="-4.26144">
        <ele>55.41</ele>
        <time>2016-08-09T13:32:08Z</time>
      </trkpt>
      <trkpt lat="48.31479" lon="-4.26165">
        <ele>56.37</ele>
        <time>2016-08-09T13:32:23Z</time>
      </trkpt>
      <trkpt lat="48.31471" lon="-4.26181">
        <ele>57.34</ele>
        <time>2016-08-09T13:32:34Z</time>
      </trkpt>
      <trkpt lat="48.3146" lon="-4.26211">
        <ele>57.34</ele>
        <time>2016-08-09T13:32:53Z</time>
      </trkpt>
      <trkpt lat="48.31447" lon="-4.26239">
        <ele>56.37</ele>
        <time>2016-08-09T13:33:10Z</time>
      </trkpt>
      <trkpt lat="48.31437" lon="-4.26262">
        <ele>57.82</ele>
        <time>2016-08-09T13:33:27Z</time>
      </trkpt>
      <trkpt lat="48.31429" lon="-4.26271">
        <ele>57.82</ele>
        <time>2016-08-09T13:33:35Z</time>
      </trkpt>
      <trkpt lat="48.31413" lon="-4.26286">
        <ele>56.37</ele>
        <time>2016-08-09T13:33:50Z</time>
      </trkpt>
      <trkpt lat="48.31404" lon="-4.26292">
        <ele>56.37</ele>
        <time>2016-08-09T13:33:59Z</time>
      </trkpt>
      <trkpt lat="48.31389" lon="-4.26302">
        <ele>54.93</ele>
        <time>2016-08-09T13:34:14Z</time>
      </trkpt>
      <trkpt lat="48.31375" lon="-4.26312">
        <ele>54.93</ele>
        <time>2016-08-09T13:34:27Z</time>
      </trkpt>
      <trkpt lat="48.31366" lon="-4.26318">
        <ele>56.37</ele>
        <time>2016-08-09T13:34:37Z</time>
      </trkpt>
      <trkpt lat="48.31354" lon="-4.26326">
        <ele>56.86</ele>
        <time>2016-08-09T13:34:49Z</time>
      </trkpt>
      <trkpt lat="48.31342" lon="-4.26338">
        <ele>55.41</ele>
        <time>2016-08-09T13:34:59Z</time>
      </trkpt>
      <trkpt lat="48.31336" lon="-4.26344">
        <ele>54.93</ele>
        <time>2016-08-09T13:35:04Z</time>
      </trkpt>
      <trkpt lat="48.31323" lon="-4.2636">
        <ele>56.37</ele>
        <time>2016-08-09T13:35:18Z</time>
      </trkpt>
      <trkpt lat="48.31311" lon="-4.26379">
        <ele>55.89</ele>
        <time>2016-08-09T13:35:32Z</time>
      </trkpt>
      <trkpt lat="48.31304" lon="-4.26395">
        <ele>54.93</ele>
        <time>2016-08-09T13:35:46Z</time>
      </trkpt>
      <trkpt lat="48.31298" lon="-4.26413">
        <ele>54.93</ele>
        <time>2016-08-09T13:35:57Z</time>
      </trkpt>
      <trkpt lat="48.31298" lon="-4.26415">
        <ele>55.41</ele>
        <time>2016-08-09T13:35:58Z</time>
      </trkpt>
      <trkpt lat="48.31294" lon="-4.26422">
        <ele>55.41</ele>
        <time>2016-08-09T13:36:10Z</time>
      </trkpt>
      <trkpt lat="48.31295" lon="-4.26419">
        <ele>55.89</ele>
        <time>2016-08-09T13:36:14Z</time>
      </trkpt>
      <trkpt lat="48.31302" lon="-4.26398">
        <ele>55.89</ele>
        <time>2016-08-09T13:36:29Z</time>
      </trkpt>
      <trkpt lat="48.31306" lon="-4.26389">
        <ele>55.89</ele>
        <time>2016-08-09T13:36:36Z</time>
      </trkpt>
      <trkpt lat="48.31313" lon="-4.26392">
        <ele>55.41</ele>
        <time>2016-08-09T13:36:47Z</time>
      </trkpt>
      <trkpt lat="48.31321" lon="-4.26404">
        <ele>55.89</ele>
        <time>2016-08-09T13:36:57Z</time>
      </trkpt>
      <trkpt lat="48.31324" lon="-4.26408">
        <ele>55.89</ele>
        <time>2016-08-09T13:37:00Z</time>
      </trkpt>
      <trkpt lat="48.31326" lon="-4.26409">
        <ele>55.89</ele>
        <time>2016-08-09T13:37:02Z</time>
      </trkpt>
      <trkpt lat="48.31332" lon="-4.26416">
        <ele>55.89</ele>
        <time>2016-08-09T13:37:08Z</time>
      </trkpt>
      <trkpt lat="48.31335" lon="-4.26421">
        <ele>55.89</ele>
        <time>2016-08-09T13:37:12Z</time>
      </trkpt>
      <trkpt lat="48.3134" lon="-4.26428">
        <ele>56.37</ele>
        <time>2016-08-09T13:37:18Z</time>
      </trkpt>
      <trkpt lat="48.31355" lon="-4.26445">
        <ele>56.37</ele>
        <time>2016-08-09T13:37:34Z</time>
      </trkpt>
      <trkpt lat="48.31365" lon="-4.26459">
        <ele>57.34</ele>
        <time>2016-08-09T13:37:46Z</time>
      </trkpt>
      <trkpt lat="48.31367" lon="-4.26469">
        <ele>56.86</ele>
        <time>2016-08-09T13:37:53Z</time>
      </trkpt>
      <trkpt lat="48.3138" lon="-4.26482">
        <ele>56.37</ele>
        <time>2016-08-09T13:38:06Z</time>
      </trkpt>
      <trkpt lat="48.31382" lon="-4.26488">
        <ele>56.86</ele>
        <time>2016-08-09T13:38:10Z</time>
      </trkpt>
      <trkpt lat="48.31389" lon="-4.26507">
        <ele>55.41</ele>
        <time>2016-08-09T13:38:23Z</time>
      </trkpt>
      <trkpt lat="48.31389" lon="-4.26514">
        <ele>55.41</ele>
        <time>2016-08-09T13:38:26Z</time>
      </trkpt>
      <trkpt lat="48.31394" lon="-4.26531">
        <ele>55.89</ele>
        <time>2016-08-09T13:38:37Z</time>
      </trkpt>
      <trkpt lat="48.31394" lon="-4.26531">
        <ele>55.89</ele>
        <time>2016-08-09T13:38:38Z</time>
      </trkpt>
      <trkpt lat="48.31398" lon="-4.26546">
        <ele>54.93</ele>
        <time>2016-08-09T13:38:50Z</time>
      </trkpt>
      <trkpt lat="48.31402" lon="-4.26554">
        <ele>56.37</ele>
        <time>2016-08-09T13:38:56Z</time>
      </trkpt>
      <trkpt lat="48.31405" lon="-4.26558">
        <ele>57.82</ele>
        <time>2016-08-09T13:38:59Z</time>
      </trkpt>
      <trkpt lat="48.31412" lon="-4.26577">
        <ele>60.7</ele>
        <time>2016-08-09T13:39:13Z</time>
      </trkpt>
      <trkpt lat="48.31418" lon="-4.26585">
        <ele>60.7</ele>
        <time>2016-08-09T13:39:22Z</time>
      </trkpt>
      <trkpt lat="48.31428" lon="-4.26593">
        <ele>59.26</ele>
        <time>2016-08-09T13:39:36Z</time>
      </trkpt>
      <trkpt lat="48.3143" lon="-4.26595">
        <ele>58.78</ele>
        <time>2016-08-09T13:39:39Z</time>
      </trkpt>
      <trkpt lat="48.31432" lon="-4.26601">
        <ele>57.34</ele>
        <time>2016-08-09T13:39:49Z</time>
      </trkpt>
      <trkpt lat="48.31433" lon="-4.26604">
        <ele>56.86</ele>
        <time>2016-08-09T13:39:52Z</time>
      </trkpt>
      <trkpt lat="48.31436" lon="-4.26606">
        <ele>56.37</ele>
        <time>2016-08-09T13:39:54Z</time>
      </trkpt>
      <trkpt lat="48.31445" lon="-4.26614">
        <ele>57.34</ele>
        <time>2016-08-09T13:40:02Z</time>
      </trkpt>
      <trkpt lat="48.31458" lon="-4.26621">
        <ele>61.18</ele>
        <time>2016-08-09T13:40:09Z</time>
      </trkpt>
      <trkpt lat="48.3146" lon="-4.26623">
        <ele>62.14</ele>
        <time>2016-08-09T13:40:11Z</time>
      </trkpt>
      <trkpt lat="48.31471" lon="-4.26629">
        <ele>63.1</ele>
        <time>2016-08-09T13:40:20Z</time>
      </trkpt>
      <trkpt lat="48.31478" lon="-4.26635">
        <ele>63.1</ele>
        <time>2016-08-09T13:40:27Z</time>
      </trkpt>
      <trkpt lat="48.31489" lon="-4.26644">
        <ele>65.03</ele>
        <time>2016-08-09T13:40:38Z</time>
      </trkpt>
      <trkpt lat="48.31493" lon="-4.26652">
        <ele>65.99</ele>
        <time>2016-08-09T13:40:43Z</time>
      </trkpt>
      <trkpt lat="48.31491" lon="-4.26671">
        <ele>67.91</ele>
        <time>2016-08-09T13:40:54Z</time>
      </trkpt>
      <trkpt lat="48.31489" lon="-4.26676">
        <ele>67.43</ele>
        <time>2016-08-09T13:40:57Z</time>
      </trkpt>
      <trkpt lat="48.31488" lon="-4.26681">
        <ele>67.91</ele>
        <time>2016-08-09T13:41:00Z</time>
      </trkpt>
      <trkpt lat="48.31482" lon="-4.267">
        <ele>68.39</ele>
        <time>2016-08-09T13:41:13Z</time>
      </trkpt>
      <trkpt lat="48.31482" lon="-4.26704">
        <ele>68.87</ele>
        <time>2016-08-09T13:41:16Z</time>
      </trkpt>
      <trkpt lat="48.31479" lon="-4.26721">
        <ele>69.83</ele>
        <time>2016-08-09T13:41:28Z</time>
      </trkpt>
      <trkpt lat="48.31475" lon="-4.26734">
        <ele>68.39</ele>
        <time>2016-08-09T13:41:41Z</time>
      </trkpt>
      <trkpt lat="48.31479" lon="-4.26738">
        <ele>67.43</ele>
        <time>2016-08-09T13:41:55Z</time>
      </trkpt>
      <trkpt lat="48.31479" lon="-4.26754">
        <ele>65.03</ele>
        <time>2016-08-09T13:42:08Z</time>
      </trkpt>
      <trkpt lat="48.31482" lon="-4.26768">
        <ele>62.62</ele>
        <time>2016-08-09T13:42:22Z</time>
      </trkpt>
      <trkpt lat="48.31486" lon="-4.2678">
        <ele>60.22</ele>
        <time>2016-08-09T13:42:39Z</time>
      </trkpt>
      <trkpt lat="48.31491" lon="-4.268">
        <ele>59.74</ele>
        <time>2016-08-09T13:42:55Z</time>
      </trkpt>
      <trkpt lat="48.31494" lon="-4.26829">
        <ele>63.1</ele>
        <time>2016-08-09T13:43:08Z</time>
      </trkpt>
      <trkpt lat="48.31493" lon="-4.26836">
        <ele>62.14</ele>
        <time>2016-08-09T13:43:18Z</time>
      </trkpt>
      <trkpt lat="48.31491" lon="-4.26858">
        <ele>62.62</ele>
        <time>2016-08-09T13:43:30Z</time>
      </trkpt>
      <trkpt lat="48.3149" lon="-4.2688">
        <ele>62.14</ele>
        <time>2016-08-09T13:43:42Z</time>
      </trkpt>
      <trkpt lat="48.31497" lon="-4.26891">
        <ele>65.03</ele>
        <time>2016-08-09T13:43:49Z</time>
      </trkpt>
      <trkpt lat="48.31499" lon="-4.269">
        <ele>65.99</ele>
        <time>2016-08-09T13:44:05Z</time>
      </trkpt>
      <trkpt lat="48.31497" lon="-4.26912">
        <ele>67.43</ele>
        <time>2016-08-09T13:44:23Z</time>
      </trkpt>
      <trkpt lat="48.31496" lon="-4.26928">
        <ele>67.43</ele>
        <time>2016-08-09T13:44:34Z</time>
      </trkpt>
      <trkpt lat="48.31495" lon="-4.26939">
        <ele>66.95</ele>
        <time>2016-08-09T13:44:41Z</time>
      </trkpt>
      <trkpt lat="48.31487" lon="-4.26961">
        <ele>68.39</ele>
        <time>2016-08-09T13:44:57Z</time>
      </trkpt>
      <trkpt lat="48.31483" lon="-4.26981">
        <ele>69.35</ele>
        <time>2016-08-09T13:45:12Z</time>
      </trkpt>
      <trkpt lat="48.31482" lon="-4.26987">
        <ele>68.87</ele>
        <time>2016-08-09T13:45:18Z</time>
      </trkpt>
      <trkpt lat="48.31479" lon="-4.27002">
        <ele>68.87</ele>
        <time>2016-08-09T13:45:24Z</time>
      </trkpt>
      <trkpt lat="48.31475" lon="-4.27013">
        <ele>68.87</ele>
        <time>2016-08-09T13:45:31Z</time>
      </trkpt>
      <trkpt lat="48.31462" lon="-4.27005">
        <ele>67.43</ele>
        <time>2016-08-09T13:45:47Z</time>
      </trkpt>
      <trkpt lat="48.31452" lon="-4.27001">
        <ele>65.51</ele>
        <time>2016-08-09T13:45:58Z</time>
      </trkpt>
      <trkpt lat="48.31448" lon="-4.26999">
        <ele>64.55</ele>
        <time>2016-08-09T13:46:02Z</time>
      </trkpt>
      <trkpt lat="48.31434" lon="-4.26992">
        <ele>61.18</ele>
        <time>2016-08-09T13:46:16Z</time>
      </trkpt>
      <trkpt lat="48.31429" lon="-4.26988">
        <ele>60.7</ele>
        <time>2016-08-09T13:46:21Z</time>
      </trkpt>
      <trkpt lat="48.31423" lon="-4.26983">
        <ele>59.26</ele>
        <time>2016-08-09T13:46:28Z</time>
      </trkpt>
      <trkpt lat="48.31421" lon="-4.26981">
        <ele>59.26</ele>
        <time>2016-08-09T13:46:30Z</time>
      </trkpt>
      <trkpt lat="48.31409" lon="-4.26971">
        <ele>55.41</ele>
        <time>2016-08-09T13:46:43Z</time>
      </trkpt>
      <trkpt lat="48.31396" lon="-4.26961">
        <ele>51.09</ele>
        <time>2016-08-09T13:46:57Z</time>
      </trkpt>
      <trkpt lat="48.31386" lon="-4.26956">
        <ele>48.2</ele>
        <time>2016-08-09T13:47:09Z</time>
      </trkpt>
      <trkpt lat="48.3138" lon="-4.2695">
        <ele>47.72</ele>
        <time>2016-08-09T13:47:18Z</time>
      </trkpt>
      <trkpt lat="48.31374" lon="-4.26931">
        <ele>46.28</ele>
        <time>2016-08-09T13:47:30Z</time>
      </trkpt>
      <trkpt lat="48.31373" lon="-4.26911">
        <ele>46.76</ele>
        <time>2016-08-09T13:47:42Z</time>
      </trkpt>
      <trkpt lat="48.3137" lon="-4.26886">
        <ele>51.57</ele>
        <time>2016-08-09T13:47:54Z</time>
      </trkpt>
      <trkpt lat="48.3137" lon="-4.2686">
        <ele>52.53</ele>
        <time>2016-08-09T13:48:09Z</time>
      </trkpt>
      <trkpt lat="48.3137" lon="-4.26857">
        <ele>52.53</ele>
        <time>2016-08-09T13:48:11Z</time>
      </trkpt>
      <trkpt lat="48.31359" lon="-4.26846">
        <ele>52.05</ele>
        <time>2016-08-09T13:48:26Z</time>
      </trkpt>
      <trkpt lat="48.31346" lon="-4.26832">
        <ele>51.09</ele>
        <time>2016-08-09T13:48:40Z</time>
      </trkpt>
      <trkpt lat="48.31331" lon="-4.2682">
        <ele>49.65</ele>
        <time>2016-08-09T13:48:55Z</time>
      </trkpt>
      <trkpt lat="48.31329" lon="-4.26815">
        <ele>50.13</ele>
        <time>2016-08-09T13:48:59Z</time>
      </trkpt>
      <trkpt lat="48.31326" lon="-4.26809">
        <ele>49.65</ele>
        <time>2016-08-09T13:49:03Z</time>
      </trkpt>
      <trkpt lat="48.3133" lon="-4.26781">
        <ele>52.05</ele>
        <time>2016-08-09T13:49:20Z</time>
      </trkpt>
      <trkpt lat="48.31334" lon="-4.26772">
        <ele>51.09</ele>
        <time>2016-08-09T13:49:29Z</time>
      </trkpt>
      <trkpt lat="48.3134" lon="-4.26751">
        <ele>50.61</ele>
        <time>2016-08-09T13:49:44Z</time>
      </trkpt>
      <trkpt lat="48.31346" lon="-4.2672">
        <ele>51.09</ele>
        <time>2016-08-09T13:50:03Z</time>
      </trkpt>
      <trkpt lat="48.31354" lon="-4.26694">
        <ele>51.09</ele>
        <time>2016-08-09T13:50:20Z</time>
      </trkpt>
      <trkpt lat="48.3136" lon="-4.26681">
        <ele>52.53</ele>
        <time>2016-08-09T13:50:28Z</time>
      </trkpt>
      <trkpt lat="48.31363" lon="-4.26666">
        <ele>53.49</ele>
        <time>2016-08-09T13:50:36Z</time>
      </trkpt>
      <trkpt lat="48.31365" lon="-4.26655">
        <ele>53.49</ele>
        <time>2016-08-09T13:50:42Z</time>
      </trkpt>
      <trkpt lat="48.31374" lon="-4.26631">
        <ele>52.53</ele>
        <time>2016-08-09T13:50:59Z</time>
      </trkpt>
      <trkpt lat="48.3138" lon="-4.2661">
        <ele>52.05</ele>
        <time>2016-08-09T13:51:13Z</time>
      </trkpt>
      <trkpt lat="48.31382" lon="-4.266">
        <ele>52.53</ele>
        <time>2016-08-09T13:51:19Z</time>
      </trkpt>
      <trkpt lat="48.31392" lon="-4.26576">
        <ele>53.97</ele>
        <time>2016-08-09T13:51:35Z</time>
      </trkpt>
      <trkpt lat="48.31401" lon="-4.2655">
        <ele>56.37</ele>
        <time>2016-08-09T13:51:52Z</time>
      </trkpt>
      <trkpt lat="48.31401" lon="-4.26537">
        <ele>58.78</ele>
        <time>2016-08-09T13:52:03Z</time>
      </trkpt>
      <trkpt lat="48.31391" lon="-4.26515">
        <ele>58.3</ele>
        <time>2016-08-09T13:52:20Z</time>
      </trkpt>
      <trkpt lat="48.31391" lon="-4.26514">
        <ele>57.82</ele>
        <time>2016-08-09T13:52:21Z</time>
      </trkpt>
      <trkpt lat="48.31389" lon="-4.26511">
        <ele>57.82</ele>
        <time>2016-08-09T13:52:23Z</time>
      </trkpt>
      <trkpt lat="48.31381" lon="-4.26486">
        <ele>57.34</ele>
        <time>2016-08-09T13:52:37Z</time>
      </trkpt>
      <trkpt lat="48.31372" lon="-4.26465">
        <ele>55.89</ele>
        <time>2016-08-09T13:52:51Z</time>
      </trkpt>
      <trkpt lat="48.31369" lon="-4.26459">
        <ele>55.41</ele>
        <time>2016-08-09T13:52:55Z</time>
      </trkpt>
      <trkpt lat="48.31364" lon="-4.26448">
        <ele>54.93</ele>
        <time>2016-08-09T13:53:09Z</time>
      </trkpt>
      <trkpt lat="48.31361" lon="-4.26444">
        <ele>54.93</ele>
        <time>2016-08-09T13:53:13Z</time>
      </trkpt>
      <trkpt lat="48.31355" lon="-4.2644">
        <ele>54.93</ele>
        <time>2016-08-09T13:53:19Z</time>
      </trkpt>
      <trkpt lat="48.31339" lon="-4.26422">
        <ele>54.93</ele>
        <time>2016-08-09T13:53:34Z</time>
      </trkpt>
      <trkpt lat="48.31335" lon="-4.26418">
        <ele>54.45</ele>
        <time>2016-08-09T13:53:40Z</time>
      </trkpt>
      <trkpt lat="48.31319" lon="-4.264">
        <ele>55.89</ele>
        <time>2016-08-09T13:53:54Z</time>
      </trkpt>
      <trkpt lat="48.3131" lon="-4.26381">
        <ele>56.86</ele>
        <time>2016-08-09T13:54:08Z</time>
      </trkpt>
      <trkpt lat="48.31311" lon="-4.26358">
        <ele>53.97</ele>
        <time>2016-08-09T13:54:22Z</time>
      </trkpt>
      <trkpt lat="48.3131" lon="-4.26352">
        <ele>53.49</ele>
        <time>2016-08-09T13:54:26Z</time>
      </trkpt>
      <trkpt lat="48.31306" lon="-4.26332">
        <ele>51.57</ele>
        <time>2016-08-09T13:54:37Z</time>
      </trkpt>
      <trkpt lat="48.31302" lon="-4.26314">
        <ele>50.61</ele>
        <time>2016-08-09T13:54:48Z</time>
      </trkpt>
      <trkpt lat="48.31297" lon="-4.26306">
        <ele>49.65</ele>
        <time>2016-08-09T13:55:00Z</time>
      </trkpt>
      <trkpt lat="48.31291" lon="-4.26302">
        <ele>47.72</ele>
        <time>2016-08-09T13:55:16Z</time>
      </trkpt>
      <trkpt lat="48.31273" lon="-4.26286">
        <ele>47.24</ele>
        <time>2016-08-09T13:55:30Z</time>
      </trkpt>
      <trkpt lat="48.31258" lon="-4.26275">
        <ele>45.8</ele>
        <time>2016-08-09T13:55:42Z</time>
      </trkpt>
      <trkpt lat="48.31251" lon="-4.26271">
        <ele>45.32</ele>
        <time>2016-08-09T13:55:55Z</time>
      </trkpt>
      <trkpt lat="48.31241" lon="-4.26262">
        <ele>40.51</ele>
        <time>2016-08-09T13:56:09Z</time>
      </trkpt>
      <trkpt lat="48.31231" lon="-4.26252">
        <ele>39.07</ele>
        <time>2016-08-09T13:56:23Z</time>
      </trkpt>
      <trkpt lat="48.31229" lon="-4.26248">
        <ele>39.07</ele>
        <time>2016-08-09T13:56:25Z</time>
      </trkpt>
      <trkpt lat="48.31221" lon="-4.26237">
        <ele>39.07</ele>
        <time>2016-08-09T13:56:39Z</time>
      </trkpt>
      <trkpt lat="48.31204" lon="-4.26219">
        <ele>36.19</ele>
        <time>2016-08-09T13:56:55Z</time>
      </trkpt>
      <trkpt lat="48.31188" lon="-4.26195">
        <ele>40.99</ele>
        <time>2016-08-09T13:57:08Z</time>
      </trkpt>
      <trkpt lat="48.31186" lon="-4.26192">
        <ele>41.47</ele>
        <time>2016-08-09T13:57:10Z</time>
      </trkpt>
      <trkpt lat="48.31171" lon="-4.26174">
        <ele>44.84</ele>
        <time>2016-08-09T13:57:23Z</time>
      </trkpt>
      <trkpt lat="48.31169" lon="-4.26166">
        <ele>43.88</ele>
        <time>2016-08-09T13:57:37Z</time>
      </trkpt>
      <trkpt lat="48.31165" lon="-4.26143">
        <ele>43.4</ele>
        <time>2016-08-09T13:57:53Z</time>
      </trkpt>
      <trkpt lat="48.31162" lon="-4.2612">
        <ele>42.92</ele>
        <time>2016-08-09T13:58:07Z</time>
      </trkpt>
      <trkpt lat="48.31157" lon="-4.26112">
        <ele>42.92</ele>
        <time>2016-08-09T13:58:17Z</time>
      </trkpt>
      <trkpt lat="48.31154" lon="-4.2611">
        <ele>42.44</ele>
        <time>2016-08-09T13:58:23Z</time>
      </trkpt>
      <trkpt lat="48.31143" lon="-4.26105">
        <ele>39.55</ele>
        <time>2016-08-09T13:58:36Z</time>
      </trkpt>
      <trkpt lat="48.31132" lon="-4.261">
        <ele>36.19</ele>
        <time>2016-08-09T13:58:48Z</time>
      </trkpt>
      <trkpt lat="48.31122" lon="-4.26091">
        <ele>36.19</ele>
        <time>2016-08-09T13:58:58Z</time>
      </trkpt>
      <trkpt lat="48.31108" lon="-4.26083">
        <ele>34.74</ele>
        <time>2016-08-09T13:59:12Z</time>
      </trkpt>
      <trkpt lat="48.31097" lon="-4.26077">
        <ele>32.34</ele>
        <time>2016-08-09T13:59:27Z</time>
      </trkpt>
      <trkpt lat="48.31085" lon="-4.26071">
        <ele>29.46</ele>
        <time>2016-08-09T13:59:41Z</time>
      </trkpt>
      <trkpt lat="48.31073" lon="-4.26065">
        <ele>26.09</ele>
        <time>2016-08-09T13:59:55Z</time>
      </trkpt>
      <trkpt lat="48.31065" lon="-4.26054">
        <ele>22.25</ele>
        <time>2016-08-09T14:00:08Z</time>
      </trkpt>
      <trkpt lat="48.31054" lon="-4.26042">
        <ele>21.29</ele>
        <time>2016-08-09T14:00:21Z</time>
      </trkpt>
      <trkpt lat="48.31049" lon="-4.26038">
        <ele>22.25</ele>
        <time>2016-08-09T14:00:36Z</time>
      </trkpt>
      <trkpt lat="48.31036" lon="-4.26037">
        <ele>16</ele>
        <time>2016-08-09T14:00:51Z</time>
      </trkpt>
      <trkpt lat="48.31023" lon="-4.26033">
        <ele>11.19</ele>
        <time>2016-08-09T14:01:06Z</time>
      </trkpt>
      <trkpt lat="48.31012" lon="-4.26025">
        <ele>11.67</ele>
        <time>2016-08-09T14:01:19Z</time>
      </trkpt>
      <trkpt lat="48.31012" lon="-4.26023">
        <ele>11.67</ele>
        <time>2016-08-09T14:01:20Z</time>
      </trkpt>
      <trkpt lat="48.3101" lon="-4.26014">
        <ele>11.19</ele>
        <time>2016-08-09T14:01:25Z</time>
      </trkpt>
      <trkpt lat="48.31002" lon="-4.26002">
        <ele>9.27</ele>
        <time>2016-08-09T14:01:36Z</time>
      </trkpt>
      <trkpt lat="48.30997" lon="-4.2601">
        <ele>7.83</ele>
        <time>2016-08-09T14:01:49Z</time>
      </trkpt>
      <trkpt lat="48.30989" lon="-4.26028">
        <ele>6.39</ele>
        <time>2016-08-09T14:02:02Z</time>
      </trkpt>
      <trkpt lat="48.30988" lon="-4.2603">
        <ele>5.91</ele>
        <time>2016-08-09T14:02:04Z</time>
      </trkpt>
      <trkpt lat="48.30981" lon="-4.26049">
        <ele>5.91</ele>
        <time>2016-08-09T14:02:18Z</time>
      </trkpt>
      <trkpt lat="48.30971" lon="-4.26075">
        <ele>3.98</ele>
        <time>2016-08-09T14:02:32Z</time>
      </trkpt>
      <trkpt lat="48.30962" lon="-4.26099">
        <ele>3.5</ele>
        <time>2016-08-09T14:02:46Z</time>
      </trkpt>
      <trkpt lat="48.30961" lon="-4.26103">
        <ele>2.54</ele>
        <time>2016-08-09T14:02:49Z</time>
      </trkpt>
      <trkpt lat="48.30951" lon="-4.26128">
        <ele>4.46</ele>
        <time>2016-08-09T14:03:04Z</time>
      </trkpt>
      <trkpt lat="48.30947" lon="-4.26141">
        <ele>4.46</ele>
        <time>2016-08-09T14:03:12Z</time>
      </trkpt>
      <trkpt lat="48.30937" lon="-4.26162">
        <ele>4.94</ele>
        <time>2016-08-09T14:03:26Z</time>
      </trkpt>
      <trkpt lat="48.30932" lon="-4.26161">
        <ele>3.98</ele>
        <time>2016-08-09T14:03:31Z</time>
      </trkpt>
      <trkpt lat="48.30925" lon="-4.26152">
        <ele>3.98</ele>
        <time>2016-08-09T14:03:39Z</time>
      </trkpt>
      <trkpt lat="48.30924" lon="-4.26149">
        <ele>3.98</ele>
        <time>2016-08-09T14:03:41Z</time>
      </trkpt>
      <trkpt lat="48.30917" lon="-4.26138">
        <ele>3.5</ele>
        <time>2016-08-09T14:03:50Z</time>
      </trkpt>
      <trkpt lat="48.30915" lon="-4.26133">
        <ele>3.5</ele>
        <time>2016-08-09T14:03:54Z</time>
      </trkpt>
      <trkpt lat="48.30905" lon="-4.26125">
        <ele>2.54</ele>
        <time>2016-08-09T14:04:08Z</time>
      </trkpt>
      <trkpt lat="48.30906" lon="-4.26126">
        <ele>3.5</ele>
        <time>2016-08-09T14:04:27Z</time>
      </trkpt>
      <trkpt lat="48.30902" lon="-4.26121">
        <ele>3.02</ele>
        <time>2016-08-09T14:04:38Z</time>
      </trkpt>
      <trkpt lat="48.309" lon="-4.26118">
        <ele>3.5</ele>
        <time>2016-08-09T14:04:52Z</time>
      </trkpt>
      <trkpt lat="48.30897" lon="-4.26107">
        <ele>3.98</ele>
        <time>2016-08-09T14:05:02Z</time>
      </trkpt>
      <trkpt lat="48.30888" lon="-4.26095">
        <ele>3.5</ele>
        <time>2016-08-09T14:05:13Z</time>
      </trkpt>
      <trkpt lat="48.30886" lon="-4.26092">
        <ele>3.5</ele>
        <time>2016-08-09T14:05:16Z</time>
      </trkpt>
      <trkpt lat="48.30876" lon="-4.26079">
        <ele>3.98</ele>
        <time>2016-08-09T14:05:30Z</time>
      </trkpt>
      <trkpt lat="48.30874" lon="-4.26077">
        <ele>3.5</ele>
        <time>2016-08-09T14:05:32Z</time>
      </trkpt>
      <trkpt lat="48.30873" lon="-4.26074">
        <ele>3.98</ele>
        <time>2016-08-09T14:05:34Z</time>
      </trkpt>
      <trkpt lat="48.30869" lon="-4.26067">
        <ele>3.98</ele>
        <time>2016-08-09T14:05:40Z</time>
      </trkpt>
      <trkpt lat="48.30867" lon="-4.26059">
        <ele>3.5</ele>
        <time>2016-08-09T14:05:45Z</time>
      </trkpt>
      <trkpt lat="48.30864" lon="-4.26052">
        <ele>3.5</ele>
        <time>2016-08-09T14:05:49Z</time>
      </trkpt>
      <trkpt lat="48.30858" lon="-4.26026">
        <ele>3.02</ele>
        <time>2016-08-09T14:06:06Z</time>
      </trkpt>
      <trkpt lat="48.30857" lon="-4.26023">
        <ele>2.54</ele>
        <time>2016-08-09T14:06:09Z</time>
      </trkpt>
      <trkpt lat="48.30855" lon="-4.2602">
        <ele>3.02</ele>
        <time>2016-08-09T14:06:11Z</time>
      </trkpt>
      <trkpt lat="48.3085" lon="-4.26012">
        <ele>2.54</ele>
        <time>2016-08-09T14:06:26Z</time>
      </trkpt>
      <trkpt lat="48.30845" lon="-4.26012">
        <ele>2.54</ele>
        <time>2016-08-09T14:06:42Z</time>
      </trkpt>
      <trkpt lat="48.30838" lon="-4.26021">
        <ele>3.02</ele>
        <time>2016-08-09T14:06:55Z</time>
      </trkpt>
      <trkpt lat="48.30838" lon="-4.2602">
        <ele>3.02</ele>
        <time>2016-08-09T14:06:59Z</time>
      </trkpt>
      <trkpt lat="48.30837" lon="-4.26014">
        <ele>2.54</ele>
        <time>2016-08-09T14:07:05Z</time>
      </trkpt>
      <trkpt lat="48.30833" lon="-4.26014">
        <ele>2.54</ele>
        <time>2016-08-09T14:07:19Z</time>
      </trkpt>
      <trkpt lat="48.30833" lon="-4.26013">
        <ele>2.54</ele>
        <time>2016-08-09T14:07:21Z</time>
      </trkpt>
      <trkpt lat="48.30831" lon="-4.26008">
        <ele>2.54</ele>
        <time>2016-08-09T14:07:24Z</time>
      </trkpt>
      <trkpt lat="48.30828" lon="-4.25981">
        <ele>4.46</ele>
        <time>2016-08-09T14:07:40Z</time>
      </trkpt>
      <trkpt lat="48.3082" lon="-4.25972">
        <ele>4.94</ele>
        <time>2016-08-09T14:07:48Z</time>
      </trkpt>
      <trkpt lat="48.30815" lon="-4.25964">
        <ele>4.46</ele>
        <time>2016-08-09T14:07:55Z</time>
      </trkpt>
      <trkpt lat="48.30812" lon="-4.25961">
        <ele>4.46</ele>
        <time>2016-08-09T14:07:58Z</time>
      </trkpt>
      <trkpt lat="48.30807" lon="-4.25954">
        <ele>4.46</ele>
        <time>2016-08-09T14:08:05Z</time>
      </trkpt>
      <trkpt lat="48.30802" lon="-4.25948">
        <ele>3.98</ele>
        <time>2016-08-09T14:08:12Z</time>
      </trkpt>
      <trkpt lat="48.30787" lon="-4.2594">
        <ele>3.5</ele>
        <time>2016-08-09T14:08:26Z</time>
      </trkpt>
      <trkpt lat="48.3078" lon="-4.25936">
        <ele>4.46</ele>
        <time>2016-08-09T14:08:33Z</time>
      </trkpt>
      <trkpt lat="48.30778" lon="-4.25934">
        <ele>4.46</ele>
        <time>2016-08-09T14:08:35Z</time>
      </trkpt>
      <trkpt lat="48.30773" lon="-4.25931">
        <ele>4.46</ele>
        <time>2016-08-09T14:08:40Z</time>
      </trkpt>
      <trkpt lat="48.3077" lon="-4.25928">
        <ele>3.98</ele>
        <time>2016-08-09T14:08:43Z</time>
      </trkpt>
      <trkpt lat="48.30768" lon="-4.25927">
        <ele>3.98</ele>
        <time>2016-08-09T14:08:45Z</time>
      </trkpt>
      <trkpt lat="48.30764" lon="-4.25925">
        <ele>3.5</ele>
        <time>2016-08-09T14:08:57Z</time>
      </trkpt>
      <trkpt lat="48.30759" lon="-4.25927">
        <ele>3.5</ele>
        <time>2016-08-09T14:09:03Z</time>
      </trkpt>
      <trkpt lat="48.30757" lon="-4.25929">
        <ele>3.5</ele>
        <time>2016-08-09T14:09:05Z</time>
      </trkpt>
      <trkpt lat="48.30755" lon="-4.25931">
        <ele>3.5</ele>
        <time>2016-08-09T14:09:07Z</time>
      </trkpt>
      <trkpt lat="48.30753" lon="-4.25935">
        <ele>3.02</ele>
        <time>2016-08-09T14:09:10Z</time>
      </trkpt>
      <trkpt lat="48.30744" lon="-4.25939">
        <ele>2.06</ele>
        <time>2016-08-09T14:09:19Z</time>
      </trkpt>
      <trkpt lat="48.30738" lon="-4.25935">
        <ele>1.1</ele>
        <time>2016-08-09T14:09:31Z</time>
      </trkpt>
      <trkpt lat="48.30738" lon="-4.25932">
        <ele>0.62</ele>
        <time>2016-08-09T14:09:33Z</time>
      </trkpt>
      <trkpt lat="48.30736" lon="-4.25928">
        <ele>1.1</ele>
        <time>2016-08-09T14:09:36Z</time>
      </trkpt>
      <trkpt lat="48.3074" lon="-4.25912">
        <ele>2.06</ele>
        <time>2016-08-09T14:09:50Z</time>
      </trkpt>
      <trkpt lat="48.30737" lon="-4.259">
        <ele>3.02</ele>
        <time>2016-08-09T14:10:03Z</time>
      </trkpt>
      <trkpt lat="48.30727" lon="-4.25895">
        <ele>0.62</ele>
        <time>2016-08-09T14:10:16Z</time>
      </trkpt>
      <trkpt lat="48.30711" lon="-4.25878">
        <ele>4.46</ele>
        <time>2016-08-09T14:10:33Z</time>
      </trkpt>
      <trkpt lat="48.30701" lon="-4.2587">
        <ele>5.42</ele>
        <time>2016-08-09T14:10:45Z</time>
      </trkpt>
      <trkpt lat="48.30691" lon="-4.25863">
        <ele>5.91</ele>
        <time>2016-08-09T14:10:56Z</time>
      </trkpt>
      <trkpt lat="48.30685" lon="-4.2586">
        <ele>6.39</ele>
        <time>2016-08-09T14:11:03Z</time>
      </trkpt>
      <trkpt lat="48.30671" lon="-4.25852">
        <ele>6.39</ele>
        <time>2016-08-09T14:11:16Z</time>
      </trkpt>
      <trkpt lat="48.30656" lon="-4.25846">
        <ele>5.91</ele>
        <time>2016-08-09T14:11:31Z</time>
      </trkpt>
      <trkpt lat="48.30649" lon="-4.25832">
        <ele>4.94</ele>
        <time>2016-08-09T14:11:45Z</time>
      </trkpt>
      <trkpt lat="48.30647" lon="-4.25825">
        <ele>4.94</ele>
        <time>2016-08-09T14:12:05Z</time>
      </trkpt>
      <trkpt lat="48.30642" lon="-4.25828">
        <ele>4.46</ele>
        <time>2016-08-09T14:12:23Z</time>
      </trkpt>
      <trkpt lat="48.30641" lon="-4.2583">
        <ele>3.02</ele>
        <time>2016-08-09T14:12:32Z</time>
      </trkpt>
      <trkpt lat="48.30637" lon="-4.25829">
        <ele>0.62</ele>
        <time>2016-08-09T14:12:45Z</time>
      </trkpt>
      <trkpt lat="48.30635" lon="-4.25816">
        <ele>0.14</ele>
        <time>2016-08-09T14:12:57Z</time>
      </trkpt>
      <trkpt lat="48.30634" lon="-4.25815">
        <ele>0.14</ele>
        <time>2016-08-09T14:13:13Z</time>
      </trkpt>
      <trkpt lat="48.30633" lon="-4.25814">
        <ele>0.62</ele>
        <time>2016-08-09T14:13:24Z</time>
      </trkpt>
      <trkpt lat="48.30631" lon="-4.25811">
        <ele>0.62</ele>
        <time>2016-08-09T14:13:31Z</time>
      </trkpt>
      <trkpt lat="48.30629" lon="-4.25809">
        <ele>0.14</ele>
        <time>2016-08-09T14:13:33Z</time>
      </trkpt>
      <trkpt lat="48.30625" lon="-4.25797">
        <ele>0.14</ele>
        <time>2016-08-09T14:13:45Z</time>
      </trkpt>
      <trkpt lat="48.30621" lon="-4.25784">
        <ele>1.1</ele>
        <time>2016-08-09T14:13:56Z</time>
      </trkpt>
      <trkpt lat="48.30618" lon="-4.25763">
        <ele>1.1</ele>
        <time>2016-08-09T14:14:10Z</time>
      </trkpt>
      <trkpt lat="48.30614" lon="-4.25747">
        <ele>0.62</ele>
        <time>2016-08-09T14:14:21Z</time>
      </trkpt>
      <trkpt lat="48.30612" lon="-4.25733">
        <ele>1.1</ele>
        <time>2016-08-09T14:14:29Z</time>
      </trkpt>
      <trkpt lat="48.30608" lon="-4.25715">
        <ele>1.1</ele>
        <time>2016-08-09T14:14:41Z</time>
      </trkpt>
      <trkpt lat="48.30606" lon="-4.25693">
        <ele>0.14</ele>
        <time>2016-08-09T14:14:54Z</time>
      </trkpt>
      <trkpt lat="48.30606" lon="-4.25671">
        <ele>0.62</ele>
        <time>2016-08-09T14:15:09Z</time>
      </trkpt>
      <trkpt lat="48.30605" lon="-4.25666">
        <ele>1.1</ele>
        <time>2016-08-09T14:15:12Z</time>
      </trkpt>
      <trkpt lat="48.30605" lon="-4.25656">
        <ele>0.62</ele>
        <time>2016-08-09T14:15:18Z</time>
      </trkpt>
      <trkpt lat="48.30605" lon="-4.25651">
        <ele>1.1</ele>
        <time>2016-08-09T14:15:21Z</time>
      </trkpt>
      <trkpt lat="48.30602" lon="-4.25641">
        <ele>0.62</ele>
        <time>2016-08-09T14:15:28Z</time>
      </trkpt>
      <trkpt lat="48.30601" lon="-4.2562">
        <ele>1.58</ele>
        <time>2016-08-09T14:15:42Z</time>
      </trkpt>
      <trkpt lat="48.30603" lon="-4.25603">
        <ele>2.06</ele>
        <time>2016-08-09T14:15:53Z</time>
      </trkpt>
      <trkpt lat="48.30602" lon="-4.25585">
        <ele>3.02</ele>
        <time>2016-08-09T14:16:06Z</time>
      </trkpt>
      <trkpt lat="48.306" lon="-4.2558">
        <ele>2.06</ele>
        <time>2016-08-09T14:16:22Z</time>
      </trkpt>
      <trkpt lat="48.306" lon="-4.2558">
        <ele>2.06</ele>
        <time>2016-08-09T14:16:44Z</time>
      </trkpt>
      <trkpt lat="48.30597" lon="-4.25562">
        <ele>2.06</ele>
        <time>2016-08-09T14:16:57Z</time>
      </trkpt>
      <trkpt lat="48.30597" lon="-4.25558">
        <ele>2.54</ele>
        <time>2016-08-09T14:17:00Z</time>
      </trkpt>
      <trkpt lat="48.30592" lon="-4.25545">
        <ele>2.54</ele>
        <time>2016-08-09T14:17:08Z</time>
      </trkpt>
      <trkpt lat="48.30589" lon="-4.25534">
        <ele>3.02</ele>
        <time>2016-08-09T14:17:15Z</time>
      </trkpt>
      <trkpt lat="48.30585" lon="-4.25518">
        <ele>0.14</ele>
        <time>2016-08-09T14:17:27Z</time>
      </trkpt>
      <trkpt lat="48.30583" lon="-4.25511">
        <ele>1.1</ele>
        <time>2016-08-09T14:17:36Z</time>
      </trkpt>
      <trkpt lat="48.30575" lon="-4.25497">
        <ele>2.06</ele>
        <time>2016-08-09T14:17:47Z</time>
      </trkpt>
      <trkpt lat="48.3057" lon="-4.25488">
        <ele>2.06</ele>
        <time>2016-08-09T14:18:02Z</time>
      </trkpt>
      <trkpt lat="48.30568" lon="-4.25486">
        <ele>2.54</ele>
        <time>2016-08-09T14:18:17Z</time>
      </trkpt>
      <trkpt lat="48.30561" lon="-4.25472">
        <ele>2.06</ele>
        <time>2016-08-09T14:18:29Z</time>
      </trkpt>
      <trkpt lat="48.30556" lon="-4.25463">
        <ele>2.54</ele>
        <time>2016-08-09T14:18:40Z</time>
      </trkpt>
      <trkpt lat="48.30555" lon="-4.25462">
        <ele>2.54</ele>
        <time>2016-08-09T14:18:52Z</time>
      </trkpt>
      <trkpt lat="48.30557" lon="-4.25461">
        <ele>3.02</ele>
        <time>2016-08-09T14:19:11Z</time>
      </trkpt>
      <trkpt lat="48.30561" lon="-4.25463">
        <ele>3.02</ele>
        <time>2016-08-09T14:19:19Z</time>
      </trkpt>
      <trkpt lat="48.30574" lon="-4.25473">
        <ele>2.54</ele>
        <time>2016-08-09T14:19:35Z</time>
      </trkpt>
      <trkpt lat="48.30577" lon="-4.25475">
        <ele>3.5</ele>
        <time>2016-08-09T14:19:49Z</time>
      </trkpt>
      <trkpt lat="48.30581" lon="-4.25478">
        <ele>3.5</ele>
        <time>2016-08-09T14:20:04Z</time>
      </trkpt>
      <trkpt lat="48.30591" lon="-4.25485">
        <ele>3.5</ele>
        <time>2016-08-09T14:20:17Z</time>
      </trkpt>
      <trkpt lat="48.306" lon="-4.25495">
        <ele>7.35</ele>
        <time>2016-08-09T14:20:32Z</time>
      </trkpt>
      <trkpt lat="48.30615" lon="-4.25498">
        <ele>10.71</ele>
        <time>2016-08-09T14:20:49Z</time>
      </trkpt>
      <trkpt lat="48.30623" lon="-4.25498">
        <ele>11.67</ele>
        <time>2016-08-09T14:20:57Z</time>
      </trkpt>
      <trkpt lat="48.30639" lon="-4.25499">
        <ele>14.56</ele>
        <time>2016-08-09T14:21:13Z</time>
      </trkpt>
      <trkpt lat="48.30648" lon="-4.25505">
        <ele>15.52</ele>
        <time>2016-08-09T14:21:25Z</time>
      </trkpt>
      <trkpt lat="48.30648" lon="-4.25508">
        <ele>15.04</ele>
        <time>2016-08-09T14:21:47Z</time>
      </trkpt>
      <trkpt lat="48.30649" lon="-4.25509">
        <ele>14.56</ele>
        <time>2016-08-09T14:22:13Z</time>
      </trkpt>
      <trkpt lat="48.30649" lon="-4.25509">
        <ele>14.56</ele>
        <time>2016-08-09T14:22:35Z</time>
      </trkpt>
      <trkpt lat="48.3065" lon="-4.25509">
        <ele>14.56</ele>
        <time>2016-08-09T14:22:59Z</time>
      </trkpt>
      <trkpt lat="48.30654" lon="-4.25505">
        <ele>13.6</ele>
        <time>2016-08-09T14:23:07Z</time>
      </trkpt>
      <trkpt lat="48.30664" lon="-4.25495">
        <ele>15.52</ele>
        <time>2016-08-09T14:23:17Z</time>
      </trkpt>
      <trkpt lat="48.30666" lon="-4.25491">
        <ele>15.52</ele>
        <time>2016-08-09T14:23:20Z</time>
      </trkpt>
      <trkpt lat="48.30668" lon="-4.25485">
        <ele>16.96</ele>
        <time>2016-08-09T14:23:24Z</time>
      </trkpt>
      <trkpt lat="48.3067" lon="-4.25481">
        <ele>16.48</ele>
        <time>2016-08-09T14:23:27Z</time>
      </trkpt>
      <trkpt lat="48.30673" lon="-4.25467">
        <ele>17.44</ele>
        <time>2016-08-09T14:23:36Z</time>
      </trkpt>
      <trkpt lat="48.30673" lon="-4.25464">
        <ele>17.44</ele>
        <time>2016-08-09T14:23:38Z</time>
      </trkpt>
      <trkpt lat="48.30674" lon="-4.25459">
        <ele>17.44</ele>
        <time>2016-08-09T14:23:41Z</time>
      </trkpt>
      <trkpt lat="48.30675" lon="-4.25451">
        <ele>17.92</ele>
        <time>2016-08-09T14:23:54Z</time>
      </trkpt>
      <trkpt lat="48.30676" lon="-4.25452">
        <ele>16.96</ele>
        <time>2016-08-09T14:24:05Z</time>
      </trkpt>
      <trkpt lat="48.30676" lon="-4.25452">
        <ele>16.96</ele>
        <time>2016-08-09T14:24:29Z</time>
      </trkpt>
      <trkpt lat="48.30679" lon="-4.25442">
        <ele>15.52</ele>
        <time>2016-08-09T14:24:43Z</time>
      </trkpt>
      <trkpt lat="48.30676" lon="-4.25445">
        <ele>14.08</ele>
        <time>2016-08-09T14:24:55Z</time>
      </trkpt>
      <trkpt lat="48.30675" lon="-4.25446">
        <ele>13.6</ele>
        <time>2016-08-09T14:25:13Z</time>
      </trkpt>
      <trkpt lat="48.30677" lon="-4.25439">
        <ele>13.12</ele>
        <time>2016-08-09T14:25:32Z</time>
      </trkpt>
      <trkpt lat="48.30679" lon="-4.25431">
        <ele>13.12</ele>
        <time>2016-08-09T14:25:37Z</time>
      </trkpt>
      <trkpt lat="48.30682" lon="-4.2542">
        <ele>14.08</ele>
        <time>2016-08-09T14:25:44Z</time>
      </trkpt>
      <trkpt lat="48.30684" lon="-4.25412">
        <ele>15.04</ele>
        <time>2016-08-09T14:25:50Z</time>
      </trkpt>
      <trkpt lat="48.30688" lon="-4.25403">
        <ele>14.08</ele>
        <time>2016-08-09T14:25:56Z</time>
      </trkpt>
      <trkpt lat="48.30695" lon="-4.25386">
        <ele>14.08</ele>
        <time>2016-08-09T14:26:08Z</time>
      </trkpt>
      <trkpt lat="48.30697" lon="-4.25385">
        <ele>13.6</ele>
        <time>2016-08-09T14:26:11Z</time>
      </trkpt>
      <trkpt lat="48.30704" lon="-4.25368">
        <ele>12.63</ele>
        <time>2016-08-09T14:26:24Z</time>
      </trkpt>
      <trkpt lat="48.30707" lon="-4.25365">
        <ele>13.12</ele>
        <time>2016-08-09T14:26:45Z</time>
      </trkpt>
      <trkpt lat="48.30709" lon="-4.25364">
        <ele>13.6</ele>
        <time>2016-08-09T14:26:50Z</time>
      </trkpt>
      <trkpt lat="48.30716" lon="-4.25348">
        <ele>12.63</ele>
        <time>2016-08-09T14:27:05Z</time>
      </trkpt>
      <trkpt lat="48.30726" lon="-4.25325">
        <ele>13.12</ele>
        <time>2016-08-09T14:27:20Z</time>
      </trkpt>
      <trkpt lat="48.30729" lon="-4.25322">
        <ele>14.08</ele>
        <time>2016-08-09T14:27:23Z</time>
      </trkpt>
      <trkpt lat="48.3074" lon="-4.25301">
        <ele>13.12</ele>
        <time>2016-08-09T14:27:40Z</time>
      </trkpt>
      <trkpt lat="48.30745" lon="-4.25293">
        <ele>11.67</ele>
        <time>2016-08-09T14:27:47Z</time>
      </trkpt>
      <trkpt lat="48.3076" lon="-4.25275">
        <ele>9.75</ele>
        <time>2016-08-09T14:28:02Z</time>
      </trkpt>
      <trkpt lat="48.30771" lon="-4.25262">
        <ele>11.19</ele>
        <time>2016-08-09T14:28:14Z</time>
      </trkpt>
      <trkpt lat="48.30781" lon="-4.25248">
        <ele>12.15</ele>
        <time>2016-08-09T14:28:28Z</time>
      </trkpt>
      <trkpt lat="48.30791" lon="-4.25236">
        <ele>13.6</ele>
        <time>2016-08-09T14:28:42Z</time>
      </trkpt>
      <trkpt lat="48.30796" lon="-4.25227">
        <ele>12.63</ele>
        <time>2016-08-09T14:28:59Z</time>
      </trkpt>
      <trkpt lat="48.30796" lon="-4.25225">
        <ele>12.15</ele>
        <time>2016-08-09T14:29:00Z</time>
      </trkpt>
      <trkpt lat="48.30797" lon="-4.25222">
        <ele>12.63</ele>
        <time>2016-08-09T14:29:02Z</time>
      </trkpt>
      <trkpt lat="48.30799" lon="-4.25217">
        <ele>14.56</ele>
        <time>2016-08-09T14:29:06Z</time>
      </trkpt>
      <trkpt lat="48.30802" lon="-4.25201">
        <ele>16</ele>
        <time>2016-08-09T14:29:17Z</time>
      </trkpt>
      <trkpt lat="48.30805" lon="-4.25186">
        <ele>16.48</ele>
        <time>2016-08-09T14:29:26Z</time>
      </trkpt>
      <trkpt lat="48.30813" lon="-4.25167">
        <ele>17.44</ele>
        <time>2016-08-09T14:29:40Z</time>
      </trkpt>
      <trkpt lat="48.30814" lon="-4.2516">
        <ele>17.44</ele>
        <time>2016-08-09T14:29:45Z</time>
      </trkpt>
      <trkpt lat="48.30815" lon="-4.25156">
        <ele>17.92</ele>
        <time>2016-08-09T14:29:47Z</time>
      </trkpt>
      <trkpt lat="48.30821" lon="-4.25131">
        <ele>20.32</ele>
        <time>2016-08-09T14:30:02Z</time>
      </trkpt>
      <trkpt lat="48.30822" lon="-4.25117">
        <ele>19.84</ele>
        <time>2016-08-09T14:30:15Z</time>
      </trkpt>
      <trkpt lat="48.30824" lon="-4.25113">
        <ele>19.84</ele>
        <time>2016-08-09T14:30:18Z</time>
      </trkpt>
      <trkpt lat="48.30826" lon="-4.25103">
        <ele>19.84</ele>
        <time>2016-08-09T14:30:25Z</time>
      </trkpt>
      <trkpt lat="48.30827" lon="-4.251">
        <ele>19.84</ele>
        <time>2016-08-09T14:30:27Z</time>
      </trkpt>
      <trkpt lat="48.30829" lon="-4.25089">
        <ele>21.29</ele>
        <time>2016-08-09T14:30:33Z</time>
      </trkpt>
      <trkpt lat="48.30833" lon="-4.25083">
        <ele>21.29</ele>
        <time>2016-08-09T14:30:38Z</time>
      </trkpt>
      <trkpt lat="48.30835" lon="-4.25071">
        <ele>22.73</ele>
        <time>2016-08-09T14:30:45Z</time>
      </trkpt>
      <trkpt lat="48.30835" lon="-4.25067">
        <ele>23.21</ele>
        <time>2016-08-09T14:30:48Z</time>
      </trkpt>
      <trkpt lat="48.30836" lon="-4.25053">
        <ele>23.69</ele>
        <time>2016-08-09T14:30:56Z</time>
      </trkpt>
      <trkpt lat="48.30837" lon="-4.25047">
        <ele>23.69</ele>
        <time>2016-08-09T14:31:00Z</time>
      </trkpt>
      <trkpt lat="48.30841" lon="-4.25024">
        <ele>25.13</ele>
        <time>2016-08-09T14:31:13Z</time>
      </trkpt>
      <trkpt lat="48.30843" lon="-4.25012">
        <ele>27.53</ele>
        <time>2016-08-09T14:31:20Z</time>
      </trkpt>
      <trkpt lat="48.30844" lon="-4.25009">
        <ele>27.53</ele>
        <time>2016-08-09T14:31:22Z</time>
      </trkpt>
      <trkpt lat="48.30846" lon="-4.24992">
        <ele>28.5</ele>
        <time>2016-08-09T14:31:32Z</time>
      </trkpt>
      <trkpt lat="48.30846" lon="-4.24982">
        <ele>28.5</ele>
        <time>2016-08-09T14:31:38Z</time>
      </trkpt>
      <trkpt lat="48.30845" lon="-4.24971">
        <ele>28.02</ele>
        <time>2016-08-09T14:31:51Z</time>
      </trkpt>
      <trkpt lat="48.30837" lon="-4.24959">
        <ele>26.09</ele>
        <time>2016-08-09T14:32:04Z</time>
      </trkpt>
      <trkpt lat="48.30833" lon="-4.2496">
        <ele>25.13</ele>
        <time>2016-08-09T14:32:08Z</time>
      </trkpt>
      <trkpt lat="48.30827" lon="-4.2496">
        <ele>24.65</ele>
        <time>2016-08-09T14:32:14Z</time>
      </trkpt>
      <trkpt lat="48.30813" lon="-4.24964">
        <ele>22.25</ele>
        <time>2016-08-09T14:32:32Z</time>
      </trkpt>
      <trkpt lat="48.30797" lon="-4.24974">
        <ele>21.29</ele>
        <time>2016-08-09T14:32:49Z</time>
      </trkpt>
      <trkpt lat="48.3078" lon="-4.24983">
        <ele>21.77</ele>
        <time>2016-08-09T14:33:03Z</time>
      </trkpt>
      <trkpt lat="48.30765" lon="-4.24988">
        <ele>20.32</ele>
        <time>2016-08-09T14:33:16Z</time>
      </trkpt>
      <trkpt lat="48.30752" lon="-4.24989">
        <ele>21.77</ele>
        <time>2016-08-09T14:33:28Z</time>
      </trkpt>
      <trkpt lat="48.30743" lon="-4.24989">
        <ele>22.73</ele>
        <time>2016-08-09T14:33:35Z</time>
      </trkpt>
      <trkpt lat="48.30721" lon="-4.24993">
        <ele>22.25</ele>
        <time>2016-08-09T14:33:52Z</time>
      </trkpt>
      <trkpt lat="48.30705" lon="-4.24996">
        <ele>20.32</ele>
        <time>2016-08-09T14:34:06Z</time>
      </trkpt>
      <trkpt lat="48.30691" lon="-4.24996">
        <ele>19.36</ele>
        <time>2016-08-09T14:34:19Z</time>
      </trkpt>
      <trkpt lat="48.30689" lon="-4.24996">
        <ele>19.36</ele>
        <time>2016-08-09T14:34:20Z</time>
      </trkpt>
      <trkpt lat="48.30674" lon="-4.24993">
        <ele>19.36</ele>
        <time>2016-08-09T14:34:31Z</time>
      </trkpt>
      <trkpt lat="48.30669" lon="-4.24993">
        <ele>21.29</ele>
        <time>2016-08-09T14:34:35Z</time>
      </trkpt>
      <trkpt lat="48.30663" lon="-4.24991">
        <ele>21.29</ele>
        <time>2016-08-09T14:34:39Z</time>
      </trkpt>
      <trkpt lat="48.30654" lon="-4.24988">
        <ele>22.73</ele>
        <time>2016-08-09T14:34:46Z</time>
      </trkpt>
      <trkpt lat="48.30637" lon="-4.24984">
        <ele>25.13</ele>
        <time>2016-08-09T14:35:00Z</time>
      </trkpt>
      <trkpt lat="48.30619" lon="-4.24974">
        <ele>24.65</ele>
        <time>2016-08-09T14:35:15Z</time>
      </trkpt>
      <trkpt lat="48.30614" lon="-4.24975">
        <ele>23.69</ele>
        <time>2016-08-09T14:35:19Z</time>
      </trkpt>
      <trkpt lat="48.30599" lon="-4.24979">
        <ele>21.29</ele>
        <time>2016-08-09T14:35:32Z</time>
      </trkpt>
      <trkpt lat="48.30595" lon="-4.24981">
        <ele>20.81</ele>
        <time>2016-08-09T14:35:36Z</time>
      </trkpt>
      <trkpt lat="48.30592" lon="-4.24982">
        <ele>20.32</ele>
        <time>2016-08-09T14:35:39Z</time>
      </trkpt>
      <trkpt lat="48.30587" lon="-4.24984">
        <ele>20.32</ele>
        <time>2016-08-09T14:35:43Z</time>
      </trkpt>
      <trkpt lat="48.3057" lon="-4.24992">
        <ele>21.77</ele>
        <time>2016-08-09T14:35:57Z</time>
      </trkpt>
      <trkpt lat="48.30565" lon="-4.24992">
        <ele>21.77</ele>
        <time>2016-08-09T14:36:01Z</time>
      </trkpt>
      <trkpt lat="48.30552" lon="-4.24992">
        <ele>20.81</ele>
        <time>2016-08-09T14:36:12Z</time>
      </trkpt>
      <trkpt lat="48.30536" lon="-4.24989">
        <ele>18.88</ele>
        <time>2016-08-09T14:36:26Z</time>
      </trkpt>
      <trkpt lat="48.3053" lon="-4.24988">
        <ele>17.92</ele>
        <time>2016-08-09T14:36:32Z</time>
      </trkpt>
      <trkpt lat="48.30528" lon="-4.24986">
        <ele>17.92</ele>
        <time>2016-08-09T14:36:34Z</time>
      </trkpt>
      <trkpt lat="48.30525" lon="-4.24984">
        <ele>17.44</ele>
        <time>2016-08-09T14:36:37Z</time>
      </trkpt>
      <trkpt lat="48.3052" lon="-4.24983">
        <ele>16.96</ele>
        <time>2016-08-09T14:36:42Z</time>
      </trkpt>
      <trkpt lat="48.30504" lon="-4.24966">
        <ele>15.04</ele>
        <time>2016-08-09T14:36:56Z</time>
      </trkpt>
      <trkpt lat="48.30496" lon="-4.24959">
        <ele>15.04</ele>
        <time>2016-08-09T14:37:04Z</time>
      </trkpt>
      <trkpt lat="48.30484" lon="-4.24947">
        <ele>13.6</ele>
        <time>2016-08-09T14:37:17Z</time>
      </trkpt>
      <trkpt lat="48.30471" lon="-4.24931">
        <ele>13.12</ele>
        <time>2016-08-09T14:37:31Z</time>
      </trkpt>
      <trkpt lat="48.30467" lon="-4.24928">
        <ele>13.12</ele>
        <time>2016-08-09T14:37:36Z</time>
      </trkpt>
      <trkpt lat="48.30453" lon="-4.24915">
        <ele>11.67</ele>
        <time>2016-08-09T14:37:48Z</time>
      </trkpt>
      <trkpt lat="48.30446" lon="-4.24911">
        <ele>11.19</ele>
        <time>2016-08-09T14:37:55Z</time>
      </trkpt>
      <trkpt lat="48.3044" lon="-4.24905">
        <ele>10.23</ele>
        <time>2016-08-09T14:38:00Z</time>
      </trkpt>
      <trkpt lat="48.30433" lon="-4.249">
        <ele>9.75</ele>
        <time>2016-08-09T14:38:06Z</time>
      </trkpt>
      <trkpt lat="48.3042" lon="-4.24892">
        <ele>9.27</ele>
        <time>2016-08-09T14:38:17Z</time>
      </trkpt>
      <trkpt lat="48.30416" lon="-4.2489">
        <ele>8.31</ele>
        <time>2016-08-09T14:38:21Z</time>
      </trkpt>
      <trkpt lat="48.30405" lon="-4.24885">
        <ele>8.31</ele>
        <time>2016-08-09T14:38:29Z</time>
      </trkpt>
      <trkpt lat="48.30388" lon="-4.24885">
        <ele>9.75</ele>
        <time>2016-08-09T14:38:42Z</time>
      </trkpt>
      <trkpt lat="48.3038" lon="-4.24885">
        <ele>10.71</ele>
        <time>2016-08-09T14:38:48Z</time>
      </trkpt>
      <trkpt lat="48.30364" lon="-4.24887">
        <ele>11.19</ele>
        <time>2016-08-09T14:39:02Z</time>
      </trkpt>
      <trkpt lat="48.3036" lon="-4.24888">
        <ele>11.19</ele>
        <time>2016-08-09T14:39:06Z</time>
      </trkpt>
      <trkpt lat="48.30354" lon="-4.24889">
        <ele>11.19</ele>
        <time>2016-08-09T14:39:11Z</time>
      </trkpt>
      <trkpt lat="48.30342" lon="-4.24894">
        <ele>9.27</ele>
        <time>2016-08-09T14:39:20Z</time>
      </trkpt>
      <trkpt lat="48.30338" lon="-4.24895">
        <ele>8.79</ele>
        <time>2016-08-09T14:39:24Z</time>
      </trkpt>
      <trkpt lat="48.30336" lon="-4.24895">
        <ele>8.31</ele>
        <time>2016-08-09T14:39:26Z</time>
      </trkpt>
      <trkpt lat="48.3033" lon="-4.24897">
        <ele>7.35</ele>
        <time>2016-08-09T14:39:31Z</time>
      </trkpt>
      <trkpt lat="48.30312" lon="-4.24902">
        <ele>6.87</ele>
        <time>2016-08-09T14:39:46Z</time>
      </trkpt>
      <trkpt lat="48.30308" lon="-4.24903">
        <ele>6.87</ele>
        <time>2016-08-09T14:39:50Z</time>
      </trkpt>
      <trkpt lat="48.30303" lon="-4.24904">
        <ele>7.35</ele>
        <time>2016-08-09T14:39:54Z</time>
      </trkpt>
      <trkpt lat="48.30296" lon="-4.24908">
        <ele>6.87</ele>
        <time>2016-08-09T14:40:02Z</time>
      </trkpt>
      <trkpt lat="48.30278" lon="-4.24911">
        <ele>6.87</ele>
        <time>2016-08-09T14:40:17Z</time>
      </trkpt>
      <trkpt lat="48.30262" lon="-4.24917">
        <ele>6.39</ele>
        <time>2016-08-09T14:40:32Z</time>
      </trkpt>
      <trkpt lat="48.30254" lon="-4.2492">
        <ele>4.94</ele>
        <time>2016-08-09T14:40:40Z</time>
      </trkpt>
      <trkpt lat="48.30242" lon="-4.24919">
        <ele>4.94</ele>
        <time>2016-08-09T14:40:49Z</time>
      </trkpt>
      <trkpt lat="48.30239" lon="-4.24918">
        <ele>4.46</ele>
        <time>2016-08-09T14:40:52Z</time>
      </trkpt>
      <trkpt lat="48.30237" lon="-4.24918">
        <ele>4.46</ele>
        <time>2016-08-09T14:40:54Z</time>
      </trkpt>
      <trkpt lat="48.30228" lon="-4.24924">
        <ele>3.98</ele>
        <time>2016-08-09T14:41:06Z</time>
      </trkpt>
      <trkpt lat="48.30221" lon="-4.2493">
        <ele>4.46</ele>
        <time>2016-08-09T14:41:14Z</time>
      </trkpt>
      <trkpt lat="48.30215" lon="-4.24932">
        <ele>4.46</ele>
        <time>2016-08-09T14:41:21Z</time>
      </trkpt>
      <trkpt lat="48.30201" lon="-4.24926">
        <ele>4.94</ele>
        <time>2016-08-09T14:41:34Z</time>
      </trkpt>
      <trkpt lat="48.30195" lon="-4.24922">
        <ele>4.94</ele>
        <time>2016-08-09T14:41:41Z</time>
      </trkpt>
      <trkpt lat="48.30192" lon="-4.24921">
        <ele>5.42</ele>
        <time>2016-08-09T14:41:44Z</time>
      </trkpt>
      <trkpt lat="48.30188" lon="-4.2492">
        <ele>4.94</ele>
        <time>2016-08-09T14:42:00Z</time>
      </trkpt>
      <trkpt lat="48.30182" lon="-4.24916">
        <ele>4.46</ele>
        <time>2016-08-09T14:42:07Z</time>
      </trkpt>
      <trkpt lat="48.30167" lon="-4.24909">
        <ele>6.39</ele>
        <time>2016-08-09T14:42:21Z</time>
      </trkpt>
      <trkpt lat="48.30164" lon="-4.24907">
        <ele>6.87</ele>
        <time>2016-08-09T14:42:24Z</time>
      </trkpt>
      <trkpt lat="48.30158" lon="-4.24905">
        <ele>5.91</ele>
        <time>2016-08-09T14:42:30Z</time>
      </trkpt>
      <trkpt lat="48.30156" lon="-4.24905">
        <ele>5.91</ele>
        <time>2016-08-09T14:42:32Z</time>
      </trkpt>
      <trkpt lat="48.30152" lon="-4.24903">
        <ele>5.42</ele>
        <time>2016-08-09T14:42:36Z</time>
      </trkpt>
      <trkpt lat="48.30149" lon="-4.24887">
        <ele>4.94</ele>
        <time>2016-08-09T14:42:48Z</time>
      </trkpt>
      <trkpt lat="48.30149" lon="-4.24881">
        <ele>4.46</ele>
        <time>2016-08-09T14:43:01Z</time>
      </trkpt>
      <trkpt lat="48.30148" lon="-4.24881">
        <ele>4.46</ele>
        <time>2016-08-09T14:43:05Z</time>
      </trkpt>
      <trkpt lat="48.30145" lon="-4.24885">
        <ele>4.94</ele>
        <time>2016-08-09T14:43:09Z</time>
      </trkpt>
      <trkpt lat="48.30139" lon="-4.24884">
        <ele>4.94</ele>
        <time>2016-08-09T14:43:14Z</time>
      </trkpt>
      <trkpt lat="48.30132" lon="-4.24888">
        <ele>3.98</ele>
        <time>2016-08-09T14:43:25Z</time>
      </trkpt>
      <trkpt lat="48.30128" lon="-4.24889">
        <ele>4.46</ele>
        <time>2016-08-09T14:43:35Z</time>
      </trkpt>
      <trkpt lat="48.30118" lon="-4.24884">
        <ele>3.98</ele>
        <time>2016-08-09T14:43:49Z</time>
      </trkpt>
      <trkpt lat="48.30101" lon="-4.24877">
        <ele>2.54</ele>
        <time>2016-08-09T14:44:05Z</time>
      </trkpt>
      <trkpt lat="48.30099" lon="-4.24856">
        <ele>3.02</ele>
        <time>2016-08-09T14:44:19Z</time>
      </trkpt>
      <trkpt lat="48.30098" lon="-4.24836">
        <ele>3.98</ele>
        <time>2016-08-09T14:44:31Z</time>
      </trkpt>
      <trkpt lat="48.30099" lon="-4.24825">
        <ele>5.42</ele>
        <time>2016-08-09T14:44:45Z</time>
      </trkpt>
      <trkpt lat="48.30095" lon="-4.24805">
        <ele>6.39</ele>
        <time>2016-08-09T14:44:59Z</time>
      </trkpt>
      <trkpt lat="48.30086" lon="-4.24786">
        <ele>7.35</ele>
        <time>2016-08-09T14:45:12Z</time>
      </trkpt>
      <trkpt lat="48.30081" lon="-4.24771">
        <ele>6.39</ele>
        <time>2016-08-09T14:45:26Z</time>
      </trkpt>
      <trkpt lat="48.30073" lon="-4.24748">
        <ele>5.42</ele>
        <time>2016-08-09T14:45:40Z</time>
      </trkpt>
      <trkpt lat="48.30063" lon="-4.2472">
        <ele>5.42</ele>
        <time>2016-08-09T14:45:54Z</time>
      </trkpt>
      <trkpt lat="48.30057" lon="-4.24703">
        <ele>6.39</ele>
        <time>2016-08-09T14:46:07Z</time>
      </trkpt>
      <trkpt lat="48.30051" lon="-4.24682">
        <ele>6.39</ele>
        <time>2016-08-09T14:46:20Z</time>
      </trkpt>
      <trkpt lat="48.30049" lon="-4.2467">
        <ele>5.42</ele>
        <time>2016-08-09T14:46:34Z</time>
      </trkpt>
      <trkpt lat="48.30047" lon="-4.24647">
        <ele>2.06</ele>
        <time>2016-08-09T14:46:47Z</time>
      </trkpt>
      <trkpt lat="48.30042" lon="-4.24637">
        <ele>2.54</ele>
        <time>2016-08-09T14:46:57Z</time>
      </trkpt>
      <trkpt lat="48.30032" lon="-4.2463">
        <ele>3.5</ele>
        <time>2016-08-09T14:47:08Z</time>
      </trkpt>
      <trkpt lat="48.30028" lon="-4.24622">
        <ele>3.02</ele>
        <time>2016-08-09T14:47:16Z</time>
      </trkpt>
      <trkpt lat="48.30017" lon="-4.24613">
        <ele>1.1</ele>
        <time>2016-08-09T14:47:29Z</time>
      </trkpt>
      <trkpt lat="48.30008" lon="-4.24606">
        <ele>0.62</ele>
        <time>2016-08-09T14:47:45Z</time>
      </trkpt>
      <trkpt lat="48.29995" lon="-4.24597">
        <ele>1.1</ele>
        <time>2016-08-09T14:48:02Z</time>
      </trkpt>
      <trkpt lat="48.29976" lon="-4.2459">
        <ele>2.06</ele>
        <time>2016-08-09T14:48:19Z</time>
      </trkpt>
      <trkpt lat="48.29972" lon="-4.24589">
        <ele>3.5</ele>
        <time>2016-08-09T14:48:33Z</time>
      </trkpt>
      <trkpt lat="48.29969" lon="-4.24582">
        <ele>2.06</ele>
        <time>2016-08-09T14:48:39Z</time>
      </trkpt>
      <trkpt lat="48.29963" lon="-4.24567">
        <ele>3.02</ele>
        <time>2016-08-09T14:48:50Z</time>
      </trkpt>
      <trkpt lat="48.29955" lon="-4.24567">
        <ele>2.54</ele>
        <time>2016-08-09T14:49:02Z</time>
      </trkpt>
      <trkpt lat="48.29942" lon="-4.24569">
        <ele>2.06</ele>
        <time>2016-08-09T14:49:16Z</time>
      </trkpt>
      <trkpt lat="48.2994" lon="-4.2457">
        <ele>3.02</ele>
        <time>2016-08-09T14:49:30Z</time>
      </trkpt>
      <trkpt lat="48.29938" lon="-4.24565">
        <ele>1.1</ele>
        <time>2016-08-09T14:49:41Z</time>
      </trkpt>
      <trkpt lat="48.29937" lon="-4.24565">
        <ele>0.62</ele>
        <time>2016-08-09T14:49:44Z</time>
      </trkpt>
      <trkpt lat="48.29934" lon="-4.24564">
        <ele>0.14</ele>
        <time>2016-08-09T14:49:57Z</time>
      </trkpt>
      <trkpt lat="48.29927" lon="-4.24568">
        <ele>1.1</ele>
        <time>2016-08-09T14:50:16Z</time>
      </trkpt>
      <trkpt lat="48.29925" lon="-4.2457">
        <ele>1.1</ele>
        <time>2016-08-09T14:50:28Z</time>
      </trkpt>
      <trkpt lat="48.29921" lon="-4.24576">
        <ele>1.1</ele>
        <time>2016-08-09T14:50:35Z</time>
      </trkpt>
      <trkpt lat="48.29917" lon="-4.24586">
        <ele>-0.34</ele>
        <time>2016-08-09T14:50:46Z</time>
      </trkpt>
      <trkpt lat="48.29915" lon="-4.24593">
        <ele>0.62</ele>
        <time>2016-08-09T14:51:03Z</time>
      </trkpt>
      <trkpt lat="48.29909" lon="-4.24598">
        <ele>2.06</ele>
        <time>2016-08-09T14:51:17Z</time>
      </trkpt>
      <trkpt lat="48.29906" lon="-4.2461">
        <ele>2.06</ele>
        <time>2016-08-09T14:51:30Z</time>
      </trkpt>
      <trkpt lat="48.29914" lon="-4.24616">
        <ele>1.58</ele>
        <time>2016-08-09T14:51:51Z</time>
      </trkpt>
      <trkpt lat="48.29912" lon="-4.24619">
        <ele>2.54</ele>
        <time>2016-08-09T14:52:10Z</time>
      </trkpt>
      <trkpt lat="48.29907" lon="-4.24626">
        <ele>4.46</ele>
        <time>2016-08-09T14:52:26Z</time>
      </trkpt>
      <trkpt lat="48.29904" lon="-4.24624">
        <ele>5.42</ele>
        <time>2016-08-09T14:52:45Z</time>
      </trkpt>
      <trkpt lat="48.29902" lon="-4.2463">
        <ele>3.98</ele>
        <time>2016-08-09T14:52:59Z</time>
      </trkpt>
      <trkpt lat="48.29901" lon="-4.2463">
        <ele>3.02</ele>
        <time>2016-08-09T14:53:13Z</time>
      </trkpt>
      <trkpt lat="48.29899" lon="-4.24634">
        <ele>3.02</ele>
        <time>2016-08-09T14:53:21Z</time>
      </trkpt>
      <trkpt lat="48.29898" lon="-4.24642">
        <ele>2.06</ele>
        <time>2016-08-09T14:53:32Z</time>
      </trkpt>
      <trkpt lat="48.29898" lon="-4.24641">
        <ele>2.06</ele>
        <time>2016-08-09T14:53:49Z</time>
      </trkpt>
      <trkpt lat="48.29897" lon="-4.24642">
        <ele>2.06</ele>
        <time>2016-08-09T14:54:05Z</time>
      </trkpt>
      <trkpt lat="48.29896" lon="-4.24651">
        <ele>1.58</ele>
        <time>2016-08-09T14:54:19Z</time>
      </trkpt>
      <trkpt lat="48.29898" lon="-4.24659">
        <ele>1.1</ele>
        <time>2016-08-09T14:54:33Z</time>
      </trkpt>
      <trkpt lat="48.299" lon="-4.24663">
        <ele>0.14</ele>
        <time>2016-08-09T14:54:49Z</time>
      </trkpt>
      <trkpt lat="48.299" lon="-4.24669">
        <ele>0.62</ele>
        <time>2016-08-09T14:55:00Z</time>
      </trkpt>
      <trkpt lat="48.29902" lon="-4.24681">
        <ele>-0.82</ele>
        <time>2016-08-09T14:55:13Z</time>
      </trkpt>
      <trkpt lat="48.299" lon="-4.24693">
        <ele>-2.27</ele>
        <time>2016-08-09T14:55:25Z</time>
      </trkpt>
      <trkpt lat="48.29898" lon="-4.24698">
        <ele>-1.79</ele>
        <time>2016-08-09T14:55:37Z</time>
      </trkpt>
      <trkpt lat="48.29902" lon="-4.24706">
        <ele>-1.79</ele>
        <time>2016-08-09T14:55:49Z</time>
      </trkpt>
      <trkpt lat="48.299" lon="-4.24705">
        <ele>-1.79</ele>
        <time>2016-08-09T14:55:51Z</time>
      </trkpt>
      <trkpt lat="48.29898" lon="-4.24706">
        <ele>-1.3</ele>
        <time>2016-08-09T14:55:53Z</time>
      </trkpt>
      <trkpt lat="48.29886" lon="-4.24705">
        <ele>-0.34</ele>
        <time>2016-08-09T14:56:06Z</time>
      </trkpt>
      <trkpt lat="48.2988" lon="-4.24705">
        <ele>-1.79</ele>
        <time>2016-08-09T14:56:16Z</time>
      </trkpt>
      <trkpt lat="48.29873" lon="-4.24705">
        <ele>-1.79</ele>
        <time>2016-08-09T14:56:28Z</time>
      </trkpt>
      <trkpt lat="48.29867" lon="-4.24711">
        <ele>-1.3</ele>
        <time>2016-08-09T14:56:36Z</time>
      </trkpt>
      <trkpt lat="48.29864" lon="-4.24715">
        <ele>-1.3</ele>
        <time>2016-08-09T14:56:49Z</time>
      </trkpt>
      <trkpt lat="48.29862" lon="-4.24721">
        <ele>-1.3</ele>
        <time>2016-08-09T14:57:01Z</time>
      </trkpt>
      <trkpt lat="48.29861" lon="-4.24728">
        <ele>-2.27</ele>
        <time>2016-08-09T14:57:12Z</time>
      </trkpt>
      <trkpt lat="48.29859" lon="-4.24732">
        <ele>-1.79</ele>
        <time>2016-08-09T14:57:26Z</time>
      </trkpt>
      <trkpt lat="48.2986" lon="-4.24731">
        <ele>-1.79</ele>
        <time>2016-08-09T14:57:46Z</time>
      </trkpt>
      <trkpt lat="48.29859" lon="-4.24731">
        <ele>-1.3</ele>
        <time>2016-08-09T14:58:14Z</time>
      </trkpt>
      <trkpt lat="48.29859" lon="-4.24732">
        <ele>-1.3</ele>
        <time>2016-08-09T14:58:28Z</time>
      </trkpt>
      <trkpt lat="48.29863" lon="-4.24735">
        <ele>-5.15</ele>
        <time>2016-08-09T14:58:36Z</time>
      </trkpt>
      <trkpt lat="48.29867" lon="-4.24736">
        <ele>-4.67</ele>
        <time>2016-08-09T14:58:42Z</time>
      </trkpt>
      <trkpt lat="48.29871" lon="-4.24736">
        <ele>-4.19</ele>
        <time>2016-08-09T14:58:49Z</time>
      </trkpt>
      <trkpt lat="48.29881" lon="-4.24735">
        <ele>-3.23</ele>
        <time>2016-08-09T14:59:01Z</time>
      </trkpt>
      <trkpt lat="48.2989" lon="-4.24739">
        <ele>-2.75</ele>
        <time>2016-08-09T14:59:10Z</time>
      </trkpt>
      <trkpt lat="48.29895" lon="-4.24741">
        <ele>-2.27</ele>
        <time>2016-08-09T14:59:18Z</time>
      </trkpt>
      <trkpt lat="48.29907" lon="-4.24743">
        <ele>-2.27</ele>
        <time>2016-08-09T14:59:30Z</time>
      </trkpt>
      <trkpt lat="48.29914" lon="-4.24751">
        <ele>-3.23</ele>
        <time>2016-08-09T14:59:42Z</time>
      </trkpt>
      <trkpt lat="48.29918" lon="-4.24756">
        <ele>-2.75</ele>
        <time>2016-08-09T14:59:51Z</time>
      </trkpt>
      <trkpt lat="48.2992" lon="-4.24753">
        <ele>-3.23</ele>
        <time>2016-08-09T15:00:04Z</time>
      </trkpt>
      <trkpt lat="48.29928" lon="-4.24757">
        <ele>-3.23</ele>
        <time>2016-08-09T15:00:16Z</time>
      </trkpt>
      <trkpt lat="48.2994" lon="-4.2477">
        <ele>-4.19</ele>
        <time>2016-08-09T15:00:29Z</time>
      </trkpt>
      <trkpt lat="48.2995" lon="-4.24787">
        <ele>-2.27</ele>
        <time>2016-08-09T15:00:42Z</time>
      </trkpt>
      <trkpt lat="48.29958" lon="-4.24796">
        <ele>-3.23</ele>
        <time>2016-08-09T15:00:55Z</time>
      </trkpt>
      <trkpt lat="48.29966" lon="-4.24807">
        <ele>-4.19</ele>
        <time>2016-08-09T15:01:07Z</time>
      </trkpt>
      <trkpt lat="48.29966" lon="-4.24808">
        <ele>-4.19</ele>
        <time>2016-08-09T15:01:09Z</time>
      </trkpt>
      <trkpt lat="48.29971" lon="-4.24822">
        <ele>-2.75</ele>
        <time>2016-08-09T15:01:21Z</time>
      </trkpt>
      <trkpt lat="48.29977" lon="-4.24838">
        <ele>-1.79</ele>
        <time>2016-08-09T15:01:34Z</time>
      </trkpt>
      <trkpt lat="48.29978" lon="-4.24839">
        <ele>-1.79</ele>
        <time>2016-08-09T15:01:36Z</time>
      </trkpt>
      <trkpt lat="48.29983" lon="-4.24851">
        <ele>-2.27</ele>
        <time>2016-08-09T15:01:48Z</time>
      </trkpt>
      <trkpt lat="48.29988" lon="-4.24864">
        <ele>-1.3</ele>
        <time>2016-08-09T15:01:59Z</time>
      </trkpt>
      <trkpt lat="48.29995" lon="-4.24878">
        <ele>0.62</ele>
        <time>2016-08-09T15:02:11Z</time>
      </trkpt>
      <trkpt lat="48.29996" lon="-4.24881">
        <ele>1.1</ele>
        <time>2016-08-09T15:02:13Z</time>
      </trkpt>
      <trkpt lat="48.3" lon="-4.24886">
        <ele>0.14</ele>
        <time>2016-08-09T15:02:29Z</time>
      </trkpt>
      <trkpt lat="48.3" lon="-4.24888">
        <ele>-0.34</ele>
        <time>2016-08-09T15:02:31Z</time>
      </trkpt>
      <trkpt lat="48.30001" lon="-4.24892">
        <ele>-0.34</ele>
        <time>2016-08-09T15:02:33Z</time>
      </trkpt>
      <trkpt lat="48.30001" lon="-4.24898">
        <ele>0.14</ele>
        <time>2016-08-09T15:02:36Z</time>
      </trkpt>
      <trkpt lat="48.30006" lon="-4.24911">
        <ele>-0.82</ele>
        <time>2016-08-09T15:02:47Z</time>
      </trkpt>
      <trkpt lat="48.30011" lon="-4.24914">
        <ele>-0.82</ele>
        <time>2016-08-09T15:02:55Z</time>
      </trkpt>
      <trkpt lat="48.30016" lon="-4.24916">
        <ele>-1.3</ele>
        <time>2016-08-09T15:03:09Z</time>
      </trkpt>
      <trkpt lat="48.30019" lon="-4.24921">
        <ele>-1.79</ele>
        <time>2016-08-09T15:03:21Z</time>
      </trkpt>
      <trkpt lat="48.30022" lon="-4.24927">
        <ele>-2.27</ele>
        <time>2016-08-09T15:03:27Z</time>
      </trkpt>
      <trkpt lat="48.30025" lon="-4.24928">
        <ele>-2.27</ele>
        <time>2016-08-09T15:03:32Z</time>
      </trkpt>
      <trkpt lat="48.30026" lon="-4.24929">
        <ele>-2.75</ele>
        <time>2016-08-09T15:03:34Z</time>
      </trkpt>
      <trkpt lat="48.30033" lon="-4.24937">
        <ele>-5.15</ele>
        <time>2016-08-09T15:03:44Z</time>
      </trkpt>
      <trkpt lat="48.30036" lon="-4.24948">
        <ele>-2.75</ele>
        <time>2016-08-09T15:03:54Z</time>
      </trkpt>
      <trkpt lat="48.30036" lon="-4.24947">
        <ele>-2.27</ele>
        <time>2016-08-09T15:04:16Z</time>
      </trkpt>
      <trkpt lat="48.30041" lon="-4.24949">
        <ele>-1.79</ele>
        <time>2016-08-09T15:04:21Z</time>
      </trkpt>
      <trkpt lat="48.30049" lon="-4.24941">
        <ele>-1.79</ele>
        <time>2016-08-09T15:04:33Z</time>
      </trkpt>
      <trkpt lat="48.30051" lon="-4.24931">
        <ele>0.62</ele>
        <time>2016-08-09T15:04:44Z</time>
      </trkpt>
      <trkpt lat="48.30053" lon="-4.24932">
        <ele>1.1</ele>
        <time>2016-08-09T15:05:12Z</time>
      </trkpt>
      <trkpt lat="48.30054" lon="-4.24932">
        <ele>1.1</ele>
        <time>2016-08-09T15:05:13Z</time>
      </trkpt>
      <trkpt lat="48.30058" lon="-4.24932">
        <ele>1.58</ele>
        <time>2016-08-09T15:05:17Z</time>
      </trkpt>
      <trkpt lat="48.30066" lon="-4.24927">
        <ele>1.58</ele>
        <time>2016-08-09T15:05:27Z</time>
      </trkpt>
      <trkpt lat="48.30074" lon="-4.24915">
        <ele>2.54</ele>
        <time>2016-08-09T15:05:43Z</time>
      </trkpt>
      <trkpt lat="48.30082" lon="-4.24911">
        <ele>3.02</ele>
        <time>2016-08-09T15:05:53Z</time>
      </trkpt>
      <trkpt lat="48.30093" lon="-4.24903">
        <ele>2.06</ele>
        <time>2016-08-09T15:06:08Z</time>
      </trkpt>
      <trkpt lat="48.30101" lon="-4.24896">
        <ele>1.1</ele>
        <time>2016-08-09T15:06:21Z</time>
      </trkpt>
      <trkpt lat="48.30105" lon="-4.24889">
        <ele>0.14</ele>
        <time>2016-08-09T15:06:36Z</time>
      </trkpt>
      <trkpt lat="48.30108" lon="-4.24889">
        <ele>1.58</ele>
        <time>2016-08-09T15:06:48Z</time>
      </trkpt>
      <trkpt lat="48.3011" lon="-4.24891">
        <ele>2.54</ele>
        <time>2016-08-09T15:07:05Z</time>
      </trkpt>
      <trkpt lat="48.30112" lon="-4.2489">
        <ele>2.54</ele>
        <time>2016-08-09T15:07:24Z</time>
      </trkpt>
      <trkpt lat="48.30121" lon="-4.24885">
        <ele>2.06</ele>
        <time>2016-08-09T15:07:36Z</time>
      </trkpt>
      <trkpt lat="48.30123" lon="-4.24885">
        <ele>2.06</ele>
        <time>2016-08-09T15:07:38Z</time>
      </trkpt>
      <trkpt lat="48.30136" lon="-4.24887">
        <ele>2.06</ele>
        <time>2016-08-09T15:07:52Z</time>
      </trkpt>
      <trkpt lat="48.30151" lon="-4.24889">
        <ele>3.02</ele>
        <time>2016-08-09T15:08:05Z</time>
      </trkpt>
      <trkpt lat="48.3016" lon="-4.2489">
        <ele>3.02</ele>
        <time>2016-08-09T15:08:14Z</time>
      </trkpt>
      <trkpt lat="48.30163" lon="-4.24891">
        <ele>3.02</ele>
        <time>2016-08-09T15:08:17Z</time>
      </trkpt>
      <trkpt lat="48.30184" lon="-4.24896">
        <ele>1.58</ele>
        <time>2016-08-09T15:08:34Z</time>
      </trkpt>
      <trkpt lat="48.30198" lon="-4.24901">
        <ele>-0.34</ele>
        <time>2016-08-09T15:08:47Z</time>
      </trkpt>
      <trkpt lat="48.30214" lon="-4.24907">
        <ele>-1.3</ele>
        <time>2016-08-09T15:09:02Z</time>
      </trkpt>
      <trkpt lat="48.30228" lon="-4.24912">
        <ele>-2.75</ele>
        <time>2016-08-09T15:09:15Z</time>
      </trkpt>
      <trkpt lat="48.30234" lon="-4.24911">
        <ele>-1.79</ele>
        <time>2016-08-09T15:09:19Z</time>
      </trkpt>
      <trkpt lat="48.30241" lon="-4.24911">
        <ele>0.62</ele>
        <time>2016-08-09T15:09:33Z</time>
      </trkpt>
      <trkpt lat="48.3024" lon="-4.24911">
        <ele>1.58</ele>
        <time>2016-08-09T15:09:56Z</time>
      </trkpt>
      <trkpt lat="48.30239" lon="-4.24909">
        <ele>1.58</ele>
        <time>2016-08-09T15:09:59Z</time>
      </trkpt>
      <trkpt lat="48.30244" lon="-4.24911">
        <ele>2.54</ele>
        <time>2016-08-09T15:10:11Z</time>
      </trkpt>
      <trkpt lat="48.30257" lon="-4.24907">
        <ele>2.54</ele>
        <time>2016-08-09T15:10:25Z</time>
      </trkpt>
      <trkpt lat="48.30258" lon="-4.24907">
        <ele>2.54</ele>
        <time>2016-08-09T15:10:26Z</time>
      </trkpt>
      <trkpt lat="48.30278" lon="-4.24903">
        <ele>5.42</ele>
        <time>2016-08-09T15:10:43Z</time>
      </trkpt>
      <trkpt lat="48.30284" lon="-4.24902">
        <ele>4.94</ele>
        <time>2016-08-09T15:10:50Z</time>
      </trkpt>
      <trkpt lat="48.30297" lon="-4.24896">
        <ele>2.54</ele>
        <time>2016-08-09T15:11:04Z</time>
      </trkpt>
      <trkpt lat="48.30306" lon="-4.2489">
        <ele>3.5</ele>
        <time>2016-08-09T15:11:13Z</time>
      </trkpt>
      <trkpt lat="48.30311" lon="-4.24889">
        <ele>3.5</ele>
        <time>2016-08-09T15:11:18Z</time>
      </trkpt>
      <trkpt lat="48.30326" lon="-4.24884">
        <ele>3.98</ele>
        <time>2016-08-09T15:11:32Z</time>
      </trkpt>
      <trkpt lat="48.30342" lon="-4.24879">
        <ele>3.02</ele>
        <time>2016-08-09T15:11:45Z</time>
      </trkpt>
      <trkpt lat="48.30348" lon="-4.24877">
        <ele>3.98</ele>
        <time>2016-08-09T15:11:50Z</time>
      </trkpt>
      <trkpt lat="48.30365" lon="-4.24872">
        <ele>3.98</ele>
        <time>2016-08-09T15:12:05Z</time>
      </trkpt>
      <trkpt lat="48.30377" lon="-4.24871">
        <ele>3.5</ele>
        <time>2016-08-09T15:12:15Z</time>
      </trkpt>
      <trkpt lat="48.30382" lon="-4.24872">
        <ele>3.98</ele>
        <time>2016-08-09T15:12:19Z</time>
      </trkpt>
      <trkpt lat="48.30399" lon="-4.24876">
        <ele>4.94</ele>
        <time>2016-08-09T15:12:32Z</time>
      </trkpt>
      <trkpt lat="48.304" lon="-4.24877">
        <ele>4.94</ele>
        <time>2016-08-09T15:12:34Z</time>
      </trkpt>
      <trkpt lat="48.30417" lon="-4.24882">
        <ele>4.94</ele>
        <time>2016-08-09T15:12:47Z</time>
      </trkpt>
      <trkpt lat="48.3042" lon="-4.24883">
        <ele>4.46</ele>
        <time>2016-08-09T15:12:49Z</time>
      </trkpt>
      <trkpt lat="48.30431" lon="-4.2489">
        <ele>4.94</ele>
        <time>2016-08-09T15:13:00Z</time>
      </trkpt>
      <trkpt lat="48.30445" lon="-4.24902">
        <ele>3.98</ele>
        <time>2016-08-09T15:13:15Z</time>
      </trkpt>
      <trkpt lat="48.30455" lon="-4.24913">
        <ele>3.98</ele>
        <time>2016-08-09T15:13:26Z</time>
      </trkpt>
      <trkpt lat="48.30465" lon="-4.2492">
        <ele>5.91</ele>
        <time>2016-08-09T15:13:38Z</time>
      </trkpt>
      <trkpt lat="48.30469" lon="-4.24925">
        <ele>6.39</ele>
        <time>2016-08-09T15:13:43Z</time>
      </trkpt>
      <trkpt lat="48.30479" lon="-4.24937">
        <ele>7.83</ele>
        <time>2016-08-09T15:13:54Z</time>
      </trkpt>
      <trkpt lat="48.30487" lon="-4.24943">
        <ele>9.27</ele>
        <time>2016-08-09T15:14:02Z</time>
      </trkpt>
      <trkpt lat="48.30497" lon="-4.24954">
        <ele>10.71</ele>
        <time>2016-08-09T15:14:14Z</time>
      </trkpt>
      <trkpt lat="48.30511" lon="-4.24968">
        <ele>13.12</ele>
        <time>2016-08-09T15:14:28Z</time>
      </trkpt>
      <trkpt lat="48.30514" lon="-4.2497">
        <ele>13.6</ele>
        <time>2016-08-09T15:14:31Z</time>
      </trkpt>
      <trkpt lat="48.30523" lon="-4.24976">
        <ele>14.56</ele>
        <time>2016-08-09T15:14:44Z</time>
      </trkpt>
      <trkpt lat="48.30539" lon="-4.24981">
        <ele>14.56</ele>
        <time>2016-08-09T15:14:57Z</time>
      </trkpt>
      <trkpt lat="48.30544" lon="-4.24982">
        <ele>15.04</ele>
        <time>2016-08-09T15:15:02Z</time>
      </trkpt>
      <trkpt lat="48.30559" lon="-4.24984">
        <ele>15.04</ele>
        <time>2016-08-09T15:15:15Z</time>
      </trkpt>
      <trkpt lat="48.30573" lon="-4.24983">
        <ele>17.44</ele>
        <time>2016-08-09T15:15:27Z</time>
      </trkpt>
      <trkpt lat="48.30582" lon="-4.24979">
        <ele>17.44</ele>
        <time>2016-08-09T15:15:34Z</time>
      </trkpt>
      <trkpt lat="48.30599" lon="-4.24972">
        <ele>17.44</ele>
        <time>2016-08-09T15:15:48Z</time>
      </trkpt>
      <trkpt lat="48.30606" lon="-4.2497">
        <ele>17.92</ele>
        <time>2016-08-09T15:15:54Z</time>
      </trkpt>
      <trkpt lat="48.30613" lon="-4.24968">
        <ele>18.4</ele>
        <time>2016-08-09T15:16:00Z</time>
      </trkpt>
      <trkpt lat="48.30631" lon="-4.2497">
        <ele>18.4</ele>
        <time>2016-08-09T15:16:13Z</time>
      </trkpt>
      <trkpt lat="48.30649" lon="-4.24978">
        <ele>18.88</ele>
        <time>2016-08-09T15:16:28Z</time>
      </trkpt>
      <trkpt lat="48.30659" lon="-4.24984">
        <ele>18.88</ele>
        <time>2016-08-09T15:16:36Z</time>
      </trkpt>
      <trkpt lat="48.30676" lon="-4.24987">
        <ele>16.96</ele>
        <time>2016-08-09T15:16:52Z</time>
      </trkpt>
      <trkpt lat="48.30689" lon="-4.24991">
        <ele>16.48</ele>
        <time>2016-08-09T15:17:05Z</time>
      </trkpt>
      <trkpt lat="48.30703" lon="-4.24991">
        <ele>16.48</ele>
        <time>2016-08-09T15:17:18Z</time>
      </trkpt>
      <trkpt lat="48.30717" lon="-4.24988">
        <ele>15.52</ele>
        <time>2016-08-09T15:17:29Z</time>
      </trkpt>
      <trkpt lat="48.30735" lon="-4.24983">
        <ele>15.04</ele>
        <time>2016-08-09T15:17:45Z</time>
      </trkpt>
      <trkpt lat="48.30736" lon="-4.24983">
        <ele>15.04</ele>
        <time>2016-08-09T15:17:47Z</time>
      </trkpt>
      <trkpt lat="48.30755" lon="-4.24982">
        <ele>15.04</ele>
        <time>2016-08-09T15:18:02Z</time>
      </trkpt>
      <trkpt lat="48.3077" lon="-4.2498">
        <ele>16</ele>
        <time>2016-08-09T15:18:14Z</time>
      </trkpt>
      <trkpt lat="48.30789" lon="-4.24973">
        <ele>17.92</ele>
        <time>2016-08-09T15:18:31Z</time>
      </trkpt>
      <trkpt lat="48.30796" lon="-4.2497">
        <ele>18.4</ele>
        <time>2016-08-09T15:18:36Z</time>
      </trkpt>
      <trkpt lat="48.30809" lon="-4.24963">
        <ele>21.29</ele>
        <time>2016-08-09T15:18:52Z</time>
      </trkpt>
      <trkpt lat="48.30829" lon="-4.24954">
        <ele>21.77</ele>
        <time>2016-08-09T15:19:11Z</time>
      </trkpt>
      <trkpt lat="48.30838" lon="-4.24954">
        <ele>23.69</ele>
        <time>2016-08-09T15:19:19Z</time>
      </trkpt>
      <trkpt lat="48.30853" lon="-4.24956">
        <ele>26.09</ele>
        <time>2016-08-09T15:19:32Z</time>
      </trkpt>
      <trkpt lat="48.30864" lon="-4.24956">
        <ele>25.61</ele>
        <time>2016-08-09T15:19:45Z</time>
      </trkpt>
      <trkpt lat="48.30882" lon="-4.24957">
        <ele>24.65</ele>
        <time>2016-08-09T15:20:00Z</time>
      </trkpt>
      <trkpt lat="48.30887" lon="-4.24957">
        <ele>24.17</ele>
        <time>2016-08-09T15:20:05Z</time>
      </trkpt>
      <trkpt lat="48.309" lon="-4.24955">
        <ele>24.17</ele>
        <time>2016-08-09T15:20:19Z</time>
      </trkpt>
      <trkpt lat="48.30914" lon="-4.24952">
        <ele>25.13</ele>
        <time>2016-08-09T15:20:31Z</time>
      </trkpt>
      <trkpt lat="48.30927" lon="-4.24949">
        <ele>23.69</ele>
        <time>2016-08-09T15:20:43Z</time>
      </trkpt>
      <trkpt lat="48.30928" lon="-4.24949">
        <ele>23.69</ele>
        <time>2016-08-09T15:20:44Z</time>
      </trkpt>
      <trkpt lat="48.30943" lon="-4.24945">
        <ele>23.69</ele>
        <time>2016-08-09T15:20:58Z</time>
      </trkpt>
      <trkpt lat="48.30961" lon="-4.24941">
        <ele>26.57</ele>
        <time>2016-08-09T15:21:13Z</time>
      </trkpt>
      <trkpt lat="48.30978" lon="-4.24937">
        <ele>28.5</ele>
        <time>2016-08-09T15:21:27Z</time>
      </trkpt>
      <trkpt lat="48.30997" lon="-4.2493">
        <ele>30.42</ele>
        <time>2016-08-09T15:21:42Z</time>
      </trkpt>
      <trkpt lat="48.31014" lon="-4.24923">
        <ele>31.38</ele>
        <time>2016-08-09T15:21:58Z</time>
      </trkpt>
      <trkpt lat="48.31036" lon="-4.24912">
        <ele>29.46</ele>
        <time>2016-08-09T15:22:15Z</time>
      </trkpt>
      <trkpt lat="48.31054" lon="-4.24905">
        <ele>27.05</ele>
        <time>2016-08-09T15:22:32Z</time>
      </trkpt>
      <trkpt lat="48.31075" lon="-4.24894">
        <ele>25.13</ele>
        <time>2016-08-09T15:22:49Z</time>
      </trkpt>
      <trkpt lat="48.3109" lon="-4.24887">
        <ele>22.73</ele>
        <time>2016-08-09T15:23:02Z</time>
      </trkpt>
      <trkpt lat="48.3111" lon="-4.2488">
        <ele>22.73</ele>
        <time>2016-08-09T15:23:18Z</time>
      </trkpt>
      <trkpt lat="48.31134" lon="-4.2488">
        <ele>25.13</ele>
        <time>2016-08-09T15:23:36Z</time>
      </trkpt>
      <trkpt lat="48.3115" lon="-4.24879">
        <ele>26.09</ele>
        <time>2016-08-09T15:23:49Z</time>
      </trkpt>
      <trkpt lat="48.31165" lon="-4.24882">
        <ele>28.5</ele>
        <time>2016-08-09T15:24:02Z</time>
      </trkpt>
      <trkpt lat="48.31182" lon="-4.24884">
        <ele>29.46</ele>
        <time>2016-08-09T15:24:17Z</time>
      </trkpt>
      <trkpt lat="48.31189" lon="-4.24886">
        <ele>29.46</ele>
        <time>2016-08-09T15:24:24Z</time>
      </trkpt>
      <trkpt lat="48.31195" lon="-4.24886">
        <ele>29.94</ele>
        <time>2016-08-09T15:24:28Z</time>
      </trkpt>
      <trkpt lat="48.31211" lon="-4.24889">
        <ele>32.34</ele>
        <time>2016-08-09T15:24:42Z</time>
      </trkpt>
      <trkpt lat="48.31228" lon="-4.24891">
        <ele>34.74</ele>
        <time>2016-08-09T15:24:56Z</time>
      </trkpt>
      <trkpt lat="48.31242" lon="-4.24891">
        <ele>37.15</ele>
        <time>2016-08-09T15:25:09Z</time>
      </trkpt>
      <trkpt lat="48.31257" lon="-4.24891">
        <ele>38.59</ele>
        <time>2016-08-09T15:25:23Z</time>
      </trkpt>
      <trkpt lat="48.31264" lon="-4.24892">
        <ele>40.51</ele>
        <time>2016-08-09T15:25:30Z</time>
      </trkpt>
      <trkpt lat="48.31278" lon="-4.24891">
        <ele>41.95</ele>
        <time>2016-08-09T15:25:43Z</time>
      </trkpt>
      <trkpt lat="48.31287" lon="-4.24889">
        <ele>43.88</ele>
        <time>2016-08-09T15:25:55Z</time>
      </trkpt>
      <trkpt lat="48.31287" lon="-4.24889">
        <ele>45.32</ele>
        <time>2016-08-09T15:26:11Z</time>
      </trkpt>
      <trkpt lat="48.31285" lon="-4.24886">
        <ele>44.84</ele>
        <time>2016-08-09T15:26:32Z</time>
      </trkpt>
      <trkpt lat="48.3128" lon="-4.24879">
        <ele>44.84</ele>
        <time>2016-08-09T15:26:47Z</time>
      </trkpt>
      <trkpt lat="48.31279" lon="-4.24881">
        <ele>44.36</ele>
        <time>2016-08-09T15:27:02Z</time>
      </trkpt>
      <trkpt lat="48.31278" lon="-4.2488">
        <ele>43.88</ele>
        <time>2016-08-09T15:27:28Z</time>
      </trkpt>
      <trkpt lat="48.31277" lon="-4.24877">
        <ele>43.4</ele>
        <time>2016-08-09T15:27:33Z</time>
      </trkpt>
      <trkpt lat="48.3127" lon="-4.24888">
        <ele>42.44</ele>
        <time>2016-08-09T15:27:44Z</time>
      </trkpt>
      <trkpt lat="48.31266" lon="-4.24889">
        <ele>40.99</ele>
        <time>2016-08-09T15:27:49Z</time>
      </trkpt>
      <trkpt lat="48.31256" lon="-4.2489">
        <ele>39.55</ele>
        <time>2016-08-09T15:27:57Z</time>
      </trkpt>
      <trkpt lat="48.31246" lon="-4.24891">
        <ele>38.59</ele>
        <time>2016-08-09T15:28:08Z</time>
      </trkpt>
      <trkpt lat="48.31231" lon="-4.2489">
        <ele>36.67</ele>
        <time>2016-08-09T15:28:20Z</time>
      </trkpt>
      <trkpt lat="48.31214" lon="-4.24889">
        <ele>35.23</ele>
        <time>2016-08-09T15:28:34Z</time>
      </trkpt>
      <trkpt lat="48.31195" lon="-4.24884">
        <ele>35.23</ele>
        <time>2016-08-09T15:28:51Z</time>
      </trkpt>
      <trkpt lat="48.31178" lon="-4.24881">
        <ele>33.78</ele>
        <time>2016-08-09T15:29:06Z</time>
      </trkpt>
      <trkpt lat="48.31157" lon="-4.2488">
        <ele>31.38</ele>
        <time>2016-08-09T15:29:23Z</time>
      </trkpt>
      <trkpt lat="48.31145" lon="-4.24872">
        <ele>29.46</ele>
        <time>2016-08-09T15:29:35Z</time>
      </trkpt>
      <trkpt lat="48.31143" lon="-4.2486">
        <ele>28.98</ele>
        <time>2016-08-09T15:29:43Z</time>
      </trkpt>
      <trkpt lat="48.31142" lon="-4.24854">
        <ele>28.5</ele>
        <time>2016-08-09T15:29:55Z</time>
      </trkpt>
      <trkpt lat="48.31142" lon="-4.24855">
        <ele>28.02</ele>
        <time>2016-08-09T15:30:01Z</time>
      </trkpt>
      <trkpt lat="48.3114" lon="-4.24833">
        <ele>27.53</ele>
        <time>2016-08-09T15:30:14Z</time>
      </trkpt>
      <trkpt lat="48.31134" lon="-4.24811">
        <ele>25.61</ele>
        <time>2016-08-09T15:30:27Z</time>
      </trkpt>
      <trkpt lat="48.31132" lon="-4.24798">
        <ele>24.65</ele>
        <time>2016-08-09T15:30:35Z</time>
      </trkpt>
      <trkpt lat="48.3113" lon="-4.24789">
        <ele>24.65</ele>
        <time>2016-08-09T15:30:40Z</time>
      </trkpt>
      <trkpt lat="48.31129" lon="-4.24786">
        <ele>25.13</ele>
        <time>2016-08-09T15:30:43Z</time>
      </trkpt>
      <trkpt lat="48.31128" lon="-4.24776">
        <ele>25.13</ele>
        <time>2016-08-09T15:30:49Z</time>
      </trkpt>
      <trkpt lat="48.31125" lon="-4.24762">
        <ele>24.65</ele>
        <time>2016-08-09T15:31:03Z</time>
      </trkpt>
      <trkpt lat="48.31124" lon="-4.24757">
        <ele>24.17</ele>
        <time>2016-08-09T15:31:06Z</time>
      </trkpt>
      <trkpt lat="48.31119" lon="-4.24732">
        <ele>20.32</ele>
        <time>2016-08-09T15:31:21Z</time>
      </trkpt>
      <trkpt lat="48.31118" lon="-4.24716">
        <ele>16.48</ele>
        <time>2016-08-09T15:31:33Z</time>
      </trkpt>
      <trkpt lat="48.31118" lon="-4.24703">
        <ele>14.08</ele>
        <time>2016-08-09T15:31:40Z</time>
      </trkpt>
      <trkpt lat="48.31116" lon="-4.24676">
        <ele>11.19</ele>
        <time>2016-08-09T15:31:57Z</time>
      </trkpt>
      <trkpt lat="48.31112" lon="-4.24642">
        <ele>10.71</ele>
        <time>2016-08-09T15:32:12Z</time>
      </trkpt>
      <trkpt lat="48.31111" lon="-4.24624">
        <ele>11.19</ele>
        <time>2016-08-09T15:32:20Z</time>
      </trkpt>
      <trkpt lat="48.31109" lon="-4.24608">
        <ele>8.79</ele>
        <time>2016-08-09T15:32:32Z</time>
      </trkpt>
      <trkpt lat="48.3111" lon="-4.24588">
        <ele>6.39</ele>
        <time>2016-08-09T15:32:43Z</time>
      </trkpt>
      <trkpt lat="48.31109" lon="-4.24576">
        <ele>6.39</ele>
        <time>2016-08-09T15:32:50Z</time>
      </trkpt>
      <trkpt lat="48.31111" lon="-4.24554">
        <ele>4.94</ele>
        <time>2016-08-09T15:33:05Z</time>
      </trkpt>
      <trkpt lat="48.31114" lon="-4.24552">
        <ele>5.42</ele>
        <time>2016-08-09T15:33:09Z</time>
      </trkpt>
      <trkpt lat="48.31127" lon="-4.24546">
        <ele>6.87</ele>
        <time>2016-08-09T15:33:26Z</time>
      </trkpt>
      <trkpt lat="48.31127" lon="-4.24544">
        <ele>8.79</ele>
        <time>2016-08-09T15:33:50Z</time>
      </trkpt>
      <trkpt lat="48.31127" lon="-4.24539">
        <ele>7.83</ele>
        <time>2016-08-09T15:34:05Z</time>
      </trkpt>
      <trkpt lat="48.31128" lon="-4.24508">
        <ele>8.31</ele>
        <time>2016-08-09T15:34:23Z</time>
      </trkpt>
      <trkpt lat="48.31127" lon="-4.24491">
        <ele>8.79</ele>
        <time>2016-08-09T15:34:32Z</time>
      </trkpt>
      <trkpt lat="48.31124" lon="-4.24462">
        <ele>11.19</ele>
        <time>2016-08-09T15:34:47Z</time>
      </trkpt>
      <trkpt lat="48.31123" lon="-4.24458">
        <ele>11.67</ele>
        <time>2016-08-09T15:34:50Z</time>
      </trkpt>
      <trkpt lat="48.31122" lon="-4.24439">
        <ele>13.6</ele>
        <time>2016-08-09T15:35:04Z</time>
      </trkpt>
      <trkpt lat="48.31122" lon="-4.24414">
        <ele>14.56</ele>
        <time>2016-08-09T15:35:20Z</time>
      </trkpt>
      <trkpt lat="48.3112" lon="-4.24389">
        <ele>13.12</ele>
        <time>2016-08-09T15:35:34Z</time>
      </trkpt>
      <trkpt lat="48.31119" lon="-4.24374">
        <ele>10.23</ele>
        <time>2016-08-09T15:35:46Z</time>
      </trkpt>
      <trkpt lat="48.31118" lon="-4.24362">
        <ele>10.23</ele>
        <time>2016-08-09T15:35:57Z</time>
      </trkpt>
      <trkpt lat="48.31114" lon="-4.24341">
        <ele>9.75</ele>
        <time>2016-08-09T15:36:14Z</time>
      </trkpt>
      <trkpt lat="48.31111" lon="-4.24333">
        <ele>9.27</ele>
        <time>2016-08-09T15:36:19Z</time>
      </trkpt>
      <trkpt lat="48.31112" lon="-4.24311">
        <ele>9.75</ele>
        <time>2016-08-09T15:36:33Z</time>
      </trkpt>
      <trkpt lat="48.31114" lon="-4.24304">
        <ele>9.27</ele>
        <time>2016-08-09T15:36:37Z</time>
      </trkpt>
      <trkpt lat="48.31122" lon="-4.24301">
        <ele>14.56</ele>
        <time>2016-08-09T15:36:47Z</time>
      </trkpt>
      <trkpt lat="48.31135" lon="-4.24308">
        <ele>20.81</ele>
        <time>2016-08-09T15:37:01Z</time>
      </trkpt>
      <trkpt lat="48.31146" lon="-4.24314">
        <ele>24.17</ele>
        <time>2016-08-09T15:37:13Z</time>
      </trkpt>
      <trkpt lat="48.31153" lon="-4.24316">
        <ele>24.65</ele>
        <time>2016-08-09T15:37:26Z</time>
      </trkpt>
      <trkpt lat="48.31156" lon="-4.24313">
        <ele>24.17</ele>
        <time>2016-08-09T15:37:33Z</time>
      </trkpt>
      <trkpt lat="48.31165" lon="-4.24297">
        <ele>23.69</ele>
        <time>2016-08-09T15:37:44Z</time>
      </trkpt>
      <trkpt lat="48.31168" lon="-4.24282">
        <ele>19.36</ele>
        <time>2016-08-09T15:37:56Z</time>
      </trkpt>
      <trkpt lat="48.31173" lon="-4.24266">
        <ele>16.96</ele>
        <time>2016-08-09T15:38:07Z</time>
      </trkpt>
      <trkpt lat="48.31187" lon="-4.2424">
        <ele>16.96</ele>
        <time>2016-08-09T15:38:23Z</time>
      </trkpt>
      <trkpt lat="48.31192" lon="-4.24213">
        <ele>23.69</ele>
        <time>2016-08-09T15:38:36Z</time>
      </trkpt>
      <trkpt lat="48.31197" lon="-4.24195">
        <ele>28.98</ele>
        <time>2016-08-09T15:38:49Z</time>
      </trkpt>
      <trkpt lat="48.312" lon="-4.24171">
        <ele>31.86</ele>
        <time>2016-08-09T15:39:03Z</time>
      </trkpt>
      <trkpt lat="48.31203" lon="-4.24157">
        <ele>33.3</ele>
        <time>2016-08-09T15:39:16Z</time>
      </trkpt>
      <trkpt lat="48.31206" lon="-4.24141">
        <ele>30.9</ele>
        <time>2016-08-09T15:39:27Z</time>
      </trkpt>
      <trkpt lat="48.3121" lon="-4.24114">
        <ele>29.46</ele>
        <time>2016-08-09T15:39:38Z</time>
      </trkpt>
      <trkpt lat="48.31212" lon="-4.24087">
        <ele>31.86</ele>
        <time>2016-08-09T15:39:51Z</time>
      </trkpt>
      <trkpt lat="48.31214" lon="-4.24063">
        <ele>30.9</ele>
        <time>2016-08-09T15:40:04Z</time>
      </trkpt>
      <trkpt lat="48.31218" lon="-4.24035">
        <ele>33.3</ele>
        <time>2016-08-09T15:40:19Z</time>
      </trkpt>
      <trkpt lat="48.31218" lon="-4.24018">
        <ele>34.26</ele>
        <time>2016-08-09T15:40:28Z</time>
      </trkpt>
      <trkpt lat="48.31219" lon="-4.24004">
        <ele>34.26</ele>
        <time>2016-08-09T15:40:34Z</time>
      </trkpt>
      <trkpt lat="48.3122" lon="-4.23992">
        <ele>35.23</ele>
        <time>2016-08-09T15:40:40Z</time>
      </trkpt>
      <trkpt lat="48.31221" lon="-4.23987">
        <ele>35.23</ele>
        <time>2016-08-09T15:40:43Z</time>
      </trkpt>
      <trkpt lat="48.31223" lon="-4.23968">
        <ele>36.19</ele>
        <time>2016-08-09T15:40:54Z</time>
      </trkpt>
      <trkpt lat="48.31223" lon="-4.23965">
        <ele>35.71</ele>
        <time>2016-08-09T15:40:58Z</time>
      </trkpt>
      <trkpt lat="48.31223" lon="-4.23942">
        <ele>36.67</ele>
        <time>2016-08-09T15:41:09Z</time>
      </trkpt>
      <trkpt lat="48.31226" lon="-4.23921">
        <ele>34.74</ele>
        <time>2016-08-09T15:41:22Z</time>
      </trkpt>
      <trkpt lat="48.31227" lon="-4.23913">
        <ele>33.78</ele>
        <time>2016-08-09T15:41:26Z</time>
      </trkpt>
      <trkpt lat="48.3123" lon="-4.23903">
        <ele>32.82</ele>
        <time>2016-08-09T15:41:31Z</time>
      </trkpt>
      <trkpt lat="48.31229" lon="-4.23896">
        <ele>33.3</ele>
        <time>2016-08-09T15:41:35Z</time>
      </trkpt>
      <trkpt lat="48.31235" lon="-4.23879">
        <ele>35.71</ele>
        <time>2016-08-09T15:41:45Z</time>
      </trkpt>
      <trkpt lat="48.31243" lon="-4.23864">
        <ele>37.15</ele>
        <time>2016-08-09T15:41:55Z</time>
      </trkpt>
      <trkpt lat="48.31245" lon="-4.23862">
        <ele>37.15</ele>
        <time>2016-08-09T15:41:57Z</time>
      </trkpt>
      <trkpt lat="48.31251" lon="-4.23846">
        <ele>37.63</ele>
        <time>2016-08-09T15:42:10Z</time>
      </trkpt>
      <trkpt lat="48.31254" lon="-4.23836">
        <ele>38.59</ele>
        <time>2016-08-09T15:42:16Z</time>
      </trkpt>
      <trkpt lat="48.31255" lon="-4.2382">
        <ele>39.07</ele>
        <time>2016-08-09T15:42:27Z</time>
      </trkpt>
      <trkpt lat="48.31258" lon="-4.23814">
        <ele>39.55</ele>
        <time>2016-08-09T15:42:31Z</time>
      </trkpt>
      <trkpt lat="48.3126" lon="-4.23808">
        <ele>40.51</ele>
        <time>2016-08-09T15:42:36Z</time>
      </trkpt>
      <trkpt lat="48.3127" lon="-4.23791">
        <ele>41.47</ele>
        <time>2016-08-09T15:42:49Z</time>
      </trkpt>
      <trkpt lat="48.31277" lon="-4.23777">
        <ele>43.88</ele>
        <time>2016-08-09T15:43:00Z</time>
      </trkpt>
      <trkpt lat="48.31284" lon="-4.23762">
        <ele>43.4</ele>
        <time>2016-08-09T15:43:11Z</time>
      </trkpt>
      <trkpt lat="48.31294" lon="-4.23752">
        <ele>41.95</ele>
        <time>2016-08-09T15:43:23Z</time>
      </trkpt>
      <trkpt lat="48.31303" lon="-4.23741">
        <ele>42.44</ele>
        <time>2016-08-09T15:43:33Z</time>
      </trkpt>
      <trkpt lat="48.31307" lon="-4.23735">
        <ele>41.95</ele>
        <time>2016-08-09T15:43:35Z</time>
      </trkpt>
      <trkpt lat="48.31323" lon="-4.23707">
        <ele>41.95</ele>
        <time>2016-08-09T15:43:51Z</time>
      </trkpt>
      <trkpt lat="48.31336" lon="-4.23687">
        <ele>44.84</ele>
        <time>2016-08-09T15:44:06Z</time>
      </trkpt>
      <trkpt lat="48.31348" lon="-4.23666">
        <ele>45.32</ele>
        <time>2016-08-09T15:44:21Z</time>
      </trkpt>
      <trkpt lat="48.31358" lon="-4.23651">
        <ele>42.44</ele>
        <time>2016-08-09T15:44:35Z</time>
      </trkpt>
      <trkpt lat="48.3137" lon="-4.23631">
        <ele>40.99</ele>
        <time>2016-08-09T15:44:49Z</time>
      </trkpt>
      <trkpt lat="48.31375" lon="-4.23624">
        <ele>40.03</ele>
        <time>2016-08-09T15:44:56Z</time>
      </trkpt>
      <trkpt lat="48.3139" lon="-4.23602">
        <ele>39.55</ele>
        <time>2016-08-09T15:45:14Z</time>
      </trkpt>
      <trkpt lat="48.31401" lon="-4.23585">
        <ele>37.15</ele>
        <time>2016-08-09T15:45:28Z</time>
      </trkpt>
      <trkpt lat="48.31403" lon="-4.23583">
        <ele>37.15</ele>
        <time>2016-08-09T15:45:30Z</time>
      </trkpt>
      <trkpt lat="48.31416" lon="-4.23565">
        <ele>34.74</ele>
        <time>2016-08-09T15:45:45Z</time>
      </trkpt>
      <trkpt lat="48.31421" lon="-4.23558">
        <ele>34.26</ele>
        <time>2016-08-09T15:45:50Z</time>
      </trkpt>
      <trkpt lat="48.31435" lon="-4.23543">
        <ele>33.3</ele>
        <time>2016-08-09T15:46:05Z</time>
      </trkpt>
      <trkpt lat="48.31442" lon="-4.23531">
        <ele>31.86</ele>
        <time>2016-08-09T15:46:15Z</time>
      </trkpt>
      <trkpt lat="48.31445" lon="-4.23525">
        <ele>31.38</ele>
        <time>2016-08-09T15:46:20Z</time>
      </trkpt>
      <trkpt lat="48.31459" lon="-4.23513">
        <ele>30.9</ele>
        <time>2016-08-09T15:46:34Z</time>
      </trkpt>
      <trkpt lat="48.31473" lon="-4.2351">
        <ele>31.86</ele>
        <time>2016-08-09T15:46:49Z</time>
      </trkpt>
      <trkpt lat="48.31483" lon="-4.23525">
        <ele>28.98</ele>
        <time>2016-08-09T15:47:03Z</time>
      </trkpt>
      <trkpt lat="48.31491" lon="-4.23554">
        <ele>25.61</ele>
        <time>2016-08-09T15:47:22Z</time>
      </trkpt>
      <trkpt lat="48.31496" lon="-4.23569">
        <ele>26.57</ele>
        <time>2016-08-09T15:47:34Z</time>
      </trkpt>
      <trkpt lat="48.31505" lon="-4.23587">
        <ele>26.09</ele>
        <time>2016-08-09T15:47:50Z</time>
      </trkpt>
      <trkpt lat="48.31516" lon="-4.23607">
        <ele>30.42</ele>
        <time>2016-08-09T15:48:09Z</time>
      </trkpt>
      <trkpt lat="48.31526" lon="-4.23625">
        <ele>36.67</ele>
        <time>2016-08-09T15:48:27Z</time>
      </trkpt>
      <trkpt lat="48.31536" lon="-4.23643">
        <ele>40.99</ele>
        <time>2016-08-09T15:48:41Z</time>
      </trkpt>
      <trkpt lat="48.31544" lon="-4.23662">
        <ele>43.88</ele>
        <time>2016-08-09T15:48:57Z</time>
      </trkpt>
      <trkpt lat="48.31555" lon="-4.23678">
        <ele>46.28</ele>
        <time>2016-08-09T15:49:12Z</time>
      </trkpt>
      <trkpt lat="48.31561" lon="-4.23681">
        <ele>47.72</ele>
        <time>2016-08-09T15:49:18Z</time>
      </trkpt>
      <trkpt lat="48.31569" lon="-4.23691">
        <ele>50.13</ele>
        <time>2016-08-09T15:49:31Z</time>
      </trkpt>
      <trkpt lat="48.31575" lon="-4.23706">
        <ele>53.49</ele>
        <time>2016-08-09T15:49:45Z</time>
      </trkpt>
      <trkpt lat="48.3158" lon="-4.23719">
        <ele>56.37</ele>
        <time>2016-08-09T15:49:56Z</time>
      </trkpt>
      <trkpt lat="48.31585" lon="-4.23733">
        <ele>58.78</ele>
        <time>2016-08-09T15:50:05Z</time>
      </trkpt>
      <trkpt lat="48.3159" lon="-4.23745">
        <ele>59.26</ele>
        <time>2016-08-09T15:50:18Z</time>
      </trkpt>
      <trkpt lat="48.31595" lon="-4.2376">
        <ele>60.7</ele>
        <time>2016-08-09T15:50:32Z</time>
      </trkpt>
      <trkpt lat="48.31605" lon="-4.23779">
        <ele>61.66</ele>
        <time>2016-08-09T15:50:45Z</time>
      </trkpt>
      <trkpt lat="48.31612" lon="-4.23794">
        <ele>61.66</ele>
        <time>2016-08-09T15:50:57Z</time>
      </trkpt>
      <trkpt lat="48.31619" lon="-4.23808">
        <ele>60.22</ele>
        <time>2016-08-09T15:51:07Z</time>
      </trkpt>
      <trkpt lat="48.3162" lon="-4.23812">
        <ele>59.74</ele>
        <time>2016-08-09T15:51:09Z</time>
      </trkpt>
      <trkpt lat="48.31633" lon="-4.23829">
        <ele>56.37</ele>
        <time>2016-08-09T15:51:22Z</time>
      </trkpt>
      <trkpt lat="48.31642" lon="-4.23845">
        <ele>52.05</ele>
        <time>2016-08-09T15:51:33Z</time>
      </trkpt>
      <trkpt lat="48.31653" lon="-4.23866">
        <ele>48.2</ele>
        <time>2016-08-09T15:51:49Z</time>
      </trkpt>
      <trkpt lat="48.31662" lon="-4.23884">
        <ele>44.84</ele>
        <time>2016-08-09T15:52:01Z</time>
      </trkpt>
      <trkpt lat="48.31676" lon="-4.23906">
        <ele>41.95</ele>
        <time>2016-08-09T15:52:19Z</time>
      </trkpt>
      <trkpt lat="48.31687" lon="-4.23925">
        <ele>38.11</ele>
        <time>2016-08-09T15:52:31Z</time>
      </trkpt>
      <trkpt lat="48.31691" lon="-4.23937">
        <ele>38.11</ele>
        <time>2016-08-09T15:52:37Z</time>
      </trkpt>
      <trkpt lat="48.31699" lon="-4.23963">
        <ele>35.71</ele>
        <time>2016-08-09T15:52:52Z</time>
      </trkpt>
      <trkpt lat="48.31706" lon="-4.23983">
        <ele>38.59</ele>
        <time>2016-08-09T15:53:03Z</time>
      </trkpt>
      <trkpt lat="48.31714" lon="-4.23994">
        <ele>41.47</ele>
        <time>2016-08-09T15:53:10Z</time>
      </trkpt>
      <trkpt lat="48.31715" lon="-4.24001">
        <ele>42.92</ele>
        <time>2016-08-09T15:53:14Z</time>
      </trkpt>
      <trkpt lat="48.31718" lon="-4.24009">
        <ele>42.92</ele>
        <time>2016-08-09T15:53:20Z</time>
      </trkpt>
      <trkpt lat="48.31729" lon="-4.24033">
        <ele>46.28</ele>
        <time>2016-08-09T15:53:35Z</time>
      </trkpt>
      <trkpt lat="48.31729" lon="-4.24035">
        <ele>46.28</ele>
        <time>2016-08-09T15:53:36Z</time>
      </trkpt>
      <trkpt lat="48.31734" lon="-4.24049">
        <ele>48.2</ele>
        <time>2016-08-09T15:53:44Z</time>
      </trkpt>
      <trkpt lat="48.31738" lon="-4.24062">
        <ele>49.65</ele>
        <time>2016-08-09T15:53:50Z</time>
      </trkpt>
      <trkpt lat="48.31739" lon="-4.24066">
        <ele>49.65</ele>
        <time>2016-08-09T15:53:52Z</time>
      </trkpt>
      <trkpt lat="48.3174" lon="-4.24075">
        <ele>51.09</ele>
        <time>2016-08-09T15:53:58Z</time>
      </trkpt>
      <trkpt lat="48.31749" lon="-4.24094">
        <ele>51.57</ele>
        <time>2016-08-09T15:54:09Z</time>
      </trkpt>
      <trkpt lat="48.31749" lon="-4.24095">
        <ele>51.57</ele>
        <time>2016-08-09T15:54:10Z</time>
      </trkpt>
      <trkpt lat="48.31761" lon="-4.24111">
        <ele>52.53</ele>
        <time>2016-08-09T15:54:23Z</time>
      </trkpt>
      <trkpt lat="48.31763" lon="-4.24114">
        <ele>53.01</ele>
        <time>2016-08-09T15:54:25Z</time>
      </trkpt>
      <trkpt lat="48.31766" lon="-4.24117">
        <ele>53.01</ele>
        <time>2016-08-09T15:54:27Z</time>
      </trkpt>
      <trkpt lat="48.31777" lon="-4.24133">
        <ele>53.49</ele>
        <time>2016-08-09T15:54:40Z</time>
      </trkpt>
      <trkpt lat="48.31779" lon="-4.24135">
        <ele>53.97</ele>
        <time>2016-08-09T15:54:42Z</time>
      </trkpt>
      <trkpt lat="48.31782" lon="-4.2414">
        <ele>53.97</ele>
        <time>2016-08-09T15:54:45Z</time>
      </trkpt>
      <trkpt lat="48.31794" lon="-4.24159">
        <ele>53.97</ele>
        <time>2016-08-09T15:54:59Z</time>
      </trkpt>
      <trkpt lat="48.31797" lon="-4.24164">
        <ele>53.97</ele>
        <time>2016-08-09T15:55:03Z</time>
      </trkpt>
      <trkpt lat="48.31799" lon="-4.24167">
        <ele>54.45</ele>
        <time>2016-08-09T15:55:06Z</time>
      </trkpt>
      <trkpt lat="48.31801" lon="-4.24169">
        <ele>54.45</ele>
        <time>2016-08-09T15:55:08Z</time>
      </trkpt>
      <trkpt lat="48.31806" lon="-4.24172">
        <ele>54.45</ele>
        <time>2016-08-09T15:55:12Z</time>
      </trkpt>
      <trkpt lat="48.31814" lon="-4.24184">
        <ele>54.45</ele>
        <time>2016-08-09T15:55:20Z</time>
      </trkpt>
      <trkpt lat="48.31823" lon="-4.24198">
        <ele>53.49</ele>
        <time>2016-08-09T15:55:32Z</time>
      </trkpt>
      <trkpt lat="48.31832" lon="-4.24213">
        <ele>53.97</ele>
        <time>2016-08-09T15:55:42Z</time>
      </trkpt>
      <trkpt lat="48.31843" lon="-4.24223">
        <ele>52.53</ele>
        <time>2016-08-09T15:55:57Z</time>
      </trkpt>
      <trkpt lat="48.31859" lon="-4.24216">
        <ele>52.53</ele>
        <time>2016-08-09T15:56:09Z</time>
      </trkpt>
      <trkpt lat="48.31871" lon="-4.24187">
        <ele>53.97</ele>
        <time>2016-08-09T15:56:28Z</time>
      </trkpt>
      <trkpt lat="48.31871" lon="-4.24185">
        <ele>53.97</ele>
        <time>2016-08-09T15:56:29Z</time>
      </trkpt>
      <trkpt lat="48.31872" lon="-4.24152">
        <ele>56.37</ele>
        <time>2016-08-09T15:56:47Z</time>
      </trkpt>
      <trkpt lat="48.31874" lon="-4.24124">
        <ele>59.74</ele>
        <time>2016-08-09T15:57:03Z</time>
      </trkpt>
      <trkpt lat="48.31875" lon="-4.24092">
        <ele>60.7</ele>
        <time>2016-08-09T15:57:21Z</time>
      </trkpt>
      <trkpt lat="48.31877" lon="-4.24061">
        <ele>61.18</ele>
        <time>2016-08-09T15:57:38Z</time>
      </trkpt>
      <trkpt lat="48.31879" lon="-4.24035">
        <ele>61.66</ele>
        <time>2016-08-09T15:57:53Z</time>
      </trkpt>
      <trkpt lat="48.31881" lon="-4.24023">
        <ele>63.1</ele>
        <time>2016-08-09T15:58:01Z</time>
      </trkpt>
      <trkpt lat="48.31885" lon="-4.23992">
        <ele>63.58</ele>
        <time>2016-08-09T15:58:18Z</time>
      </trkpt>
      <trkpt lat="48.31885" lon="-4.2399">
        <ele>63.58</ele>
        <time>2016-08-09T15:58:19Z</time>
      </trkpt>
      <trkpt lat="48.31887" lon="-4.2398">
        <ele>64.07</ele>
        <time>2016-08-09T15:58:24Z</time>
      </trkpt>
      <trkpt lat="48.31891" lon="-4.23963">
        <ele>65.51</ele>
        <time>2016-08-09T15:58:33Z</time>
      </trkpt>
      <trkpt lat="48.31901" lon="-4.23942">
        <ele>66.95</ele>
        <time>2016-08-09T15:58:47Z</time>
      </trkpt>
      <trkpt lat="48.31904" lon="-4.23936">
        <ele>67.43</ele>
        <time>2016-08-09T15:59:00Z</time>
      </trkpt>
      <trkpt lat="48.31905" lon="-4.23932">
        <ele>67.43</ele>
        <time>2016-08-09T15:59:03Z</time>
      </trkpt>
      <trkpt lat="48.31907" lon="-4.23929">
        <ele>66.95</ele>
        <time>2016-08-09T15:59:06Z</time>
      </trkpt>
      <trkpt lat="48.31917" lon="-4.23912">
        <ele>64.55</ele>
        <time>2016-08-09T15:59:22Z</time>
      </trkpt>
      <trkpt lat="48.3192" lon="-4.23905">
        <ele>62.62</ele>
        <time>2016-08-09T15:59:33Z</time>
      </trkpt>
      <trkpt lat="48.31929" lon="-4.23894">
        <ele>63.1</ele>
        <time>2016-08-09T15:59:45Z</time>
      </trkpt>
      <trkpt lat="48.31935" lon="-4.23881">
        <ele>64.07</ele>
        <time>2016-08-09T15:59:55Z</time>
      </trkpt>
      <trkpt lat="48.31948" lon="-4.23863">
        <ele>66.95</ele>
        <time>2016-08-09T16:00:11Z</time>
      </trkpt>
      <trkpt lat="48.3195" lon="-4.23861">
        <ele>67.43</ele>
        <time>2016-08-09T16:00:13Z</time>
      </trkpt>
      <trkpt lat="48.31954" lon="-4.23855">
        <ele>66.95</ele>
        <time>2016-08-09T16:00:18Z</time>
      </trkpt>
      <trkpt lat="48.31968" lon="-4.23838">
        <ele>67.91</ele>
        <time>2016-08-09T16:00:32Z</time>
      </trkpt>
      <trkpt lat="48.31979" lon="-4.23822">
        <ele>67.91</ele>
        <time>2016-08-09T16:00:45Z</time>
      </trkpt>
      <trkpt lat="48.3199" lon="-4.23809">
        <ele>64.55</ele>
        <time>2016-08-09T16:00:56Z</time>
      </trkpt>
      <trkpt lat="48.32" lon="-4.23801">
        <ele>63.58</ele>
        <time>2016-08-09T16:01:10Z</time>
      </trkpt>
      <trkpt lat="48.32006" lon="-4.23786">
        <ele>62.14</ele>
        <time>2016-08-09T16:01:23Z</time>
      </trkpt>
      <trkpt lat="48.32017" lon="-4.23768">
        <ele>61.18</ele>
        <time>2016-08-09T16:01:38Z</time>
      </trkpt>
      <trkpt lat="48.3202" lon="-4.23764">
        <ele>61.18</ele>
        <time>2016-08-09T16:01:41Z</time>
      </trkpt>
      <trkpt lat="48.32034" lon="-4.23746">
        <ele>62.62</ele>
        <time>2016-08-09T16:01:53Z</time>
      </trkpt>
      <trkpt lat="48.32041" lon="-4.23736">
        <ele>63.58</ele>
        <time>2016-08-09T16:02:00Z</time>
      </trkpt>
      <trkpt lat="48.32054" lon="-4.23717">
        <ele>62.14</ele>
        <time>2016-08-09T16:02:15Z</time>
      </trkpt>
      <trkpt lat="48.32069" lon="-4.237">
        <ele>63.1</ele>
        <time>2016-08-09T16:02:29Z</time>
      </trkpt>
      <trkpt lat="48.32079" lon="-4.23686">
        <ele>64.07</ele>
        <time>2016-08-09T16:02:42Z</time>
      </trkpt>
      <trkpt lat="48.32094" lon="-4.23662">
        <ele>64.55</ele>
        <time>2016-08-09T16:02:59Z</time>
      </trkpt>
      <trkpt lat="48.32108" lon="-4.23642">
        <ele>64.07</ele>
        <time>2016-08-09T16:03:14Z</time>
      </trkpt>
      <trkpt lat="48.32109" lon="-4.23641">
        <ele>64.07</ele>
        <time>2016-08-09T16:03:15Z</time>
      </trkpt>
      <trkpt lat="48.32112" lon="-4.23634">
        <ele>64.07</ele>
        <time>2016-08-09T16:03:19Z</time>
      </trkpt>
      <trkpt lat="48.3212" lon="-4.23623">
        <ele>64.07</ele>
        <time>2016-08-09T16:03:26Z</time>
      </trkpt>
      <trkpt lat="48.32129" lon="-4.2361">
        <ele>63.58</ele>
        <time>2016-08-09T16:03:42Z</time>
      </trkpt>
      <trkpt lat="48.32131" lon="-4.23605">
        <ele>63.58</ele>
        <time>2016-08-09T16:03:57Z</time>
      </trkpt>
      <trkpt lat="48.32133" lon="-4.23599">
        <ele>63.58</ele>
        <time>2016-08-09T16:04:01Z</time>
      </trkpt>
      <trkpt lat="48.32147" lon="-4.2358">
        <ele>64.07</ele>
        <time>2016-08-09T16:04:18Z</time>
      </trkpt>
      <trkpt lat="48.32157" lon="-4.23563">
        <ele>63.1</ele>
        <time>2016-08-09T16:04:31Z</time>
      </trkpt>
      <trkpt lat="48.3217" lon="-4.23541">
        <ele>63.1</ele>
        <time>2016-08-09T16:04:46Z</time>
      </trkpt>
      <trkpt lat="48.32172" lon="-4.23532">
        <ele>62.62</ele>
        <time>2016-08-09T16:05:01Z</time>
      </trkpt>
      <trkpt lat="48.32172" lon="-4.23532">
        <ele>62.62</ele>
        <time>2016-08-09T16:05:07Z</time>
      </trkpt>
      <trkpt lat="48.32174" lon="-4.2353">
        <ele>62.62</ele>
        <time>2016-08-09T16:05:11Z</time>
      </trkpt>
      <trkpt lat="48.32188" lon="-4.23509">
        <ele>61.66</ele>
        <time>2016-08-09T16:05:27Z</time>
      </trkpt>
      <trkpt lat="48.32199" lon="-4.23488">
        <ele>60.7</ele>
        <time>2016-08-09T16:05:42Z</time>
      </trkpt>
      <trkpt lat="48.32209" lon="-4.23468">
        <ele>59.26</ele>
        <time>2016-08-09T16:05:55Z</time>
      </trkpt>
      <trkpt lat="48.32214" lon="-4.23455">
        <ele>56.37</ele>
        <time>2016-08-09T16:06:03Z</time>
      </trkpt>
      <trkpt lat="48.32223" lon="-4.2344">
        <ele>53.97</ele>
        <time>2016-08-09T16:06:14Z</time>
      </trkpt>
      <trkpt lat="48.32228" lon="-4.23436">
        <ele>53.01</ele>
        <time>2016-08-09T16:06:19Z</time>
      </trkpt>
      <trkpt lat="48.32231" lon="-4.23435">
        <ele>53.01</ele>
        <time>2016-08-09T16:06:22Z</time>
      </trkpt>
      <trkpt lat="48.3224" lon="-4.23439">
        <ele>51.09</ele>
        <time>2016-08-09T16:06:30Z</time>
      </trkpt>
      <trkpt lat="48.32243" lon="-4.23442">
        <ele>51.57</ele>
        <time>2016-08-09T16:06:33Z</time>
      </trkpt>
      <trkpt lat="48.32247" lon="-4.23445">
        <ele>51.57</ele>
        <time>2016-08-09T16:06:36Z</time>
      </trkpt>
      <trkpt lat="48.32258" lon="-4.23458">
        <ele>51.57</ele>
        <time>2016-08-09T16:06:49Z</time>
      </trkpt>
      <trkpt lat="48.32262" lon="-4.23463">
        <ele>50.61</ele>
        <time>2016-08-09T16:06:53Z</time>
      </trkpt>
      <trkpt lat="48.32264" lon="-4.23467">
        <ele>50.61</ele>
        <time>2016-08-09T16:06:56Z</time>
      </trkpt>
      <trkpt lat="48.32281" lon="-4.23488">
        <ele>49.65</ele>
        <time>2016-08-09T16:07:14Z</time>
      </trkpt>
      <trkpt lat="48.32296" lon="-4.23508">
        <ele>51.09</ele>
        <time>2016-08-09T16:07:29Z</time>
      </trkpt>
      <trkpt lat="48.32298" lon="-4.2351">
        <ele>51.09</ele>
        <time>2016-08-09T16:07:31Z</time>
      </trkpt>
      <trkpt lat="48.32306" lon="-4.23522">
        <ele>49.16</ele>
        <time>2016-08-09T16:07:41Z</time>
      </trkpt>
      <trkpt lat="48.3232" lon="-4.2354">
        <ele>45.32</ele>
        <time>2016-08-09T16:07:57Z</time>
      </trkpt>
      <trkpt lat="48.32323" lon="-4.23547">
        <ele>44.36</ele>
        <time>2016-08-09T16:08:02Z</time>
      </trkpt>
      <trkpt lat="48.32338" lon="-4.2356">
        <ele>38.59</ele>
        <time>2016-08-09T16:08:17Z</time>
      </trkpt>
      <trkpt lat="48.32347" lon="-4.23567">
        <ele>36.67</ele>
        <time>2016-08-09T16:08:25Z</time>
      </trkpt>
      <trkpt lat="48.32353" lon="-4.2357">
        <ele>36.67</ele>
        <time>2016-08-09T16:08:30Z</time>
      </trkpt>
      <trkpt lat="48.32368" lon="-4.23577">
        <ele>37.63</ele>
        <time>2016-08-09T16:08:43Z</time>
      </trkpt>
      <trkpt lat="48.32379" lon="-4.23583">
        <ele>36.19</ele>
        <time>2016-08-09T16:08:53Z</time>
      </trkpt>
      <trkpt lat="48.32396" lon="-4.23592">
        <ele>35.71</ele>
        <time>2016-08-09T16:09:09Z</time>
      </trkpt>
      <trkpt lat="48.32403" lon="-4.23596">
        <ele>36.19</ele>
        <time>2016-08-09T16:09:15Z</time>
      </trkpt>
      <trkpt lat="48.32408" lon="-4.23604">
        <ele>35.71</ele>
        <time>2016-08-09T16:09:21Z</time>
      </trkpt>
      <trkpt lat="48.32415" lon="-4.23614">
        <ele>34.26</ele>
        <time>2016-08-09T16:09:29Z</time>
      </trkpt>
      <trkpt lat="48.3242" lon="-4.23621">
        <ele>33.3</ele>
        <time>2016-08-09T16:09:34Z</time>
      </trkpt>
      <trkpt lat="48.32434" lon="-4.23638">
        <ele>32.34</ele>
        <time>2016-08-09T16:09:48Z</time>
      </trkpt>
      <trkpt lat="48.3244" lon="-4.23644">
        <ele>31.86</ele>
        <time>2016-08-09T16:09:54Z</time>
      </trkpt>
      <trkpt lat="48.32442" lon="-4.2365">
        <ele>30.42</ele>
        <time>2016-08-09T16:09:58Z</time>
      </trkpt>
      <trkpt lat="48.32446" lon="-4.23653">
        <ele>29.46</ele>
        <time>2016-08-09T16:10:02Z</time>
      </trkpt>
      <trkpt lat="48.32453" lon="-4.23665">
        <ele>28.5</ele>
        <time>2016-08-09T16:10:14Z</time>
      </trkpt>
      <trkpt lat="48.32456" lon="-4.23668">
        <ele>28.02</ele>
        <time>2016-08-09T16:10:17Z</time>
      </trkpt>
      <trkpt lat="48.32463" lon="-4.23681">
        <ele>28.5</ele>
        <time>2016-08-09T16:10:25Z</time>
      </trkpt>
      <trkpt lat="48.32467" lon="-4.23686">
        <ele>28.02</ele>
        <time>2016-08-09T16:10:29Z</time>
      </trkpt>
      <trkpt lat="48.32479" lon="-4.23706">
        <ele>24.65</ele>
        <time>2016-08-09T16:10:44Z</time>
      </trkpt>
      <trkpt lat="48.32485" lon="-4.23716">
        <ele>23.21</ele>
        <time>2016-08-09T16:10:51Z</time>
      </trkpt>
      <trkpt lat="48.32493" lon="-4.23728">
        <ele>22.73</ele>
        <time>2016-08-09T16:11:00Z</time>
      </trkpt>
      <trkpt lat="48.32504" lon="-4.2374">
        <ele>24.17</ele>
        <time>2016-08-09T16:11:11Z</time>
      </trkpt>
      <trkpt lat="48.32515" lon="-4.23752">
        <ele>24.17</ele>
        <time>2016-08-09T16:11:22Z</time>
      </trkpt>
      <trkpt lat="48.32525" lon="-4.23765">
        <ele>23.21</ele>
        <time>2016-08-09T16:11:33Z</time>
      </trkpt>
      <trkpt lat="48.3253" lon="-4.23769">
        <ele>22.73</ele>
        <time>2016-08-09T16:11:37Z</time>
      </trkpt>
      <trkpt lat="48.32542" lon="-4.23779">
        <ele>21.29</ele>
        <time>2016-08-09T16:11:49Z</time>
      </trkpt>
      <trkpt lat="48.32555" lon="-4.23791">
        <ele>20.32</ele>
        <time>2016-08-09T16:12:01Z</time>
      </trkpt>
      <trkpt lat="48.32557" lon="-4.23794">
        <ele>19.84</ele>
        <time>2016-08-09T16:12:04Z</time>
      </trkpt>
      <trkpt lat="48.32573" lon="-4.23806">
        <ele>20.32</ele>
        <time>2016-08-09T16:12:18Z</time>
      </trkpt>
      <trkpt lat="48.32575" lon="-4.23808">
        <ele>20.32</ele>
        <time>2016-08-09T16:12:20Z</time>
      </trkpt>
      <trkpt lat="48.32592" lon="-4.2382">
        <ele>23.21</ele>
        <time>2016-08-09T16:12:35Z</time>
      </trkpt>
      <trkpt lat="48.32603" lon="-4.23829">
        <ele>22.73</ele>
        <time>2016-08-09T16:12:45Z</time>
      </trkpt>
      <trkpt lat="48.32612" lon="-4.2384">
        <ele>23.21</ele>
        <time>2016-08-09T16:12:54Z</time>
      </trkpt>
      <trkpt lat="48.32615" lon="-4.23846">
        <ele>22.73</ele>
        <time>2016-08-09T16:12:58Z</time>
      </trkpt>
      <trkpt lat="48.32622" lon="-4.23853">
        <ele>22.25</ele>
        <time>2016-08-09T16:13:05Z</time>
      </trkpt>
      <trkpt lat="48.32631" lon="-4.23873">
        <ele>21.29</ele>
        <time>2016-08-09T16:13:18Z</time>
      </trkpt>
      <trkpt lat="48.32635" lon="-4.23881">
        <ele>18.88</ele>
        <time>2016-08-09T16:13:24Z</time>
      </trkpt>
      <trkpt lat="48.32643" lon="-4.23898">
        <ele>15.52</ele>
        <time>2016-08-09T16:13:36Z</time>
      </trkpt>
      <trkpt lat="48.32645" lon="-4.23903">
        <ele>15.04</ele>
        <time>2016-08-09T16:13:39Z</time>
      </trkpt>
      <trkpt lat="48.32655" lon="-4.23925">
        <ele>15.04</ele>
        <time>2016-08-09T16:13:54Z</time>
      </trkpt>
      <trkpt lat="48.3266" lon="-4.23939">
        <ele>14.08</ele>
        <time>2016-08-09T16:14:03Z</time>
      </trkpt>
      <trkpt lat="48.3266" lon="-4.23943">
        <ele>13.6</ele>
        <time>2016-08-09T16:14:05Z</time>
      </trkpt>
      <trkpt lat="48.32663" lon="-4.23951">
        <ele>12.63</ele>
        <time>2016-08-09T16:14:11Z</time>
      </trkpt>
      <trkpt lat="48.32664" lon="-4.23956">
        <ele>12.15</ele>
        <time>2016-08-09T16:14:14Z</time>
      </trkpt>
      <trkpt lat="48.32665" lon="-4.23961">
        <ele>11.67</ele>
        <time>2016-08-09T16:14:17Z</time>
      </trkpt>
      <trkpt lat="48.32672" lon="-4.23974">
        <ele>11.67</ele>
        <time>2016-08-09T16:14:26Z</time>
      </trkpt>
      <trkpt lat="48.32674" lon="-4.23981">
        <ele>10.71</ele>
        <time>2016-08-09T16:14:30Z</time>
      </trkpt>
      <trkpt lat="48.32682" lon="-4.24003">
        <ele>11.67</ele>
        <time>2016-08-09T16:14:44Z</time>
      </trkpt>
      <trkpt lat="48.32687" lon="-4.24007">
        <ele>11.67</ele>
        <time>2016-08-09T16:14:49Z</time>
      </trkpt>
      <trkpt lat="48.32702" lon="-4.24018">
        <ele>9.75</ele>
        <time>2016-08-09T16:15:03Z</time>
      </trkpt>
      <trkpt lat="48.32704" lon="-4.24031">
        <ele>9.75</ele>
        <time>2016-08-09T16:15:16Z</time>
      </trkpt>
      <trkpt lat="48.32704" lon="-4.24036">
        <ele>10.23</ele>
        <time>2016-08-09T16:15:19Z</time>
      </trkpt>
      <trkpt lat="48.32704" lon="-4.24039">
        <ele>10.23</ele>
        <time>2016-08-09T16:15:22Z</time>
      </trkpt>
      <trkpt lat="48.32707" lon="-4.24043">
        <ele>8.79</ele>
        <time>2016-08-09T16:15:25Z</time>
      </trkpt>
      <trkpt lat="48.3271" lon="-4.2405">
        <ele>6.87</ele>
        <time>2016-08-09T16:15:30Z</time>
      </trkpt>
      <trkpt lat="48.3272" lon="-4.24061">
        <ele>3.98</ele>
        <time>2016-08-09T16:15:40Z</time>
      </trkpt>
      <trkpt lat="48.32733" lon="-4.24074">
        <ele>1.58</ele>
        <time>2016-08-09T16:15:54Z</time>
      </trkpt>
      <trkpt lat="48.32745" lon="-4.24085">
        <ele>-1.3</ele>
        <time>2016-08-09T16:16:06Z</time>
      </trkpt>
      <trkpt lat="48.32758" lon="-4.241">
        <ele>-4.67</ele>
        <time>2016-08-09T16:16:21Z</time>
      </trkpt>
      <trkpt lat="48.32764" lon="-4.24125">
        <ele>-4.19</ele>
        <time>2016-08-09T16:16:36Z</time>
      </trkpt>
      <trkpt lat="48.32766" lon="-4.24132">
        <ele>-3.71</ele>
        <time>2016-08-09T16:16:41Z</time>
      </trkpt>
      <trkpt lat="48.32774" lon="-4.24145">
        <ele>-7.55</ele>
        <time>2016-08-09T16:16:54Z</time>
      </trkpt>
      <trkpt lat="48.3278" lon="-4.24156">
        <ele>-8.51</ele>
        <time>2016-08-09T16:17:04Z</time>
      </trkpt>
      <trkpt lat="48.32784" lon="-4.24163">
        <ele>-9.48</ele>
        <time>2016-08-09T16:17:11Z</time>
      </trkpt>
      <trkpt lat="48.32788" lon="-4.2417">
        <ele>-11.4</ele>
        <time>2016-08-09T16:17:17Z</time>
      </trkpt>
      <trkpt lat="48.32796" lon="-4.24186">
        <ele>-10.92</ele>
        <time>2016-08-09T16:17:29Z</time>
      </trkpt>
      <trkpt lat="48.32797" lon="-4.24193">
        <ele>-9.96</ele>
        <time>2016-08-09T16:17:32Z</time>
      </trkpt>
      <trkpt lat="48.32801" lon="-4.24211">
        <ele>-7.07</ele>
        <time>2016-08-09T16:17:39Z</time>
      </trkpt>
      <trkpt lat="48.32802" lon="-4.24235">
        <ele>-3.71</ele>
        <time>2016-08-09T16:17:49Z</time>
      </trkpt>
      <trkpt lat="48.32808" lon="-4.24243">
        <ele>-4.67</ele>
        <time>2016-08-09T16:18:01Z</time>
      </trkpt>
      <trkpt lat="48.32815" lon="-4.24244">
        <ele>-3.71</ele>
        <time>2016-08-09T16:18:12Z</time>
      </trkpt>
      <trkpt lat="48.32821" lon="-4.24246">
        <ele>-3.23</ele>
        <time>2016-08-09T16:18:23Z</time>
      </trkpt>
      <trkpt lat="48.32822" lon="-4.24246">
        <ele>-2.27</ele>
        <time>2016-08-09T16:18:37Z</time>
      </trkpt>
      <trkpt lat="48.32822" lon="-4.24245">
        <ele>-1.3</ele>
        <time>2016-08-09T16:18:51Z</time>
      </trkpt>
      <trkpt lat="48.32823" lon="-4.24245">
        <ele>-0.34</ele>
        <time>2016-08-09T16:19:12Z</time>
      </trkpt>
      <trkpt lat="48.32823" lon="-4.24244">
        <ele>-0.34</ele>
        <time>2016-08-09T16:19:28Z</time>
      </trkpt>
      <trkpt lat="48.32823" lon="-4.24244">
        <ele>0.14</ele>
        <time>2016-08-09T16:19:42Z</time>
      </trkpt>
      <trkpt lat="48.32823" lon="-4.24244">
        <ele>0.14</ele>
        <time>2016-08-09T16:19:55Z</time>
      </trkpt>
      <trkpt lat="48.32822" lon="-4.24244">
        <ele>0.14</ele>
        <time>2016-08-09T16:20:12Z</time>
      </trkpt>
      <trkpt lat="48.32821" lon="-4.24242">
        <ele>0.14</ele>
        <time>2016-08-09T16:20:26Z</time>
      </trkpt>
      <trkpt lat="48.32821" lon="-4.24243">
        <ele>0.14</ele>
        <time>2016-08-09T16:20:40Z</time>
      </trkpt>
      <trkpt lat="48.32822" lon="-4.24243">
        <ele>-0.34</ele>
        <time>2016-08-09T16:20:51Z</time>
      </trkpt>
    </trkseg>
  </trk>
</gpx>